<?xml version='1.0' encoding='UTF-8'?><gpx version="1.1" creator="JPX - https://github.com/jenetics/jpx" xmlns="http://www.topografix.com/GPX/1/1"><trk><trkseg><trkpt lat="45.3138046268778" lon="8.742982862888072"><ele>114.99999999999999</ele><time>2026-04-07T16:09:41Z</time></trkpt><trkpt lat="45.313730073302715" lon="8.742979077124447"><ele>115.0</ele><time>2026-04-07T16:09:58Z</time></trkpt><trkpt lat="45.3136712794694" lon="8.743018973463322"><ele>114.99999999999999</ele><time>2026-04-07T16:10:01Z</time></trkpt><trkpt lat="45.31360550652435" lon="8.743059859793828"><ele>114.99999999999999</ele><time>2026-04-07T16:10:05Z</time></trkpt><trkpt lat="45.31357463172482" lon="8.743139354756122"><ele>115.0</ele><time>2026-04-07T16:10:09Z</time></trkpt><trkpt lat="45.313606260682754" lon="8.743267602206792"><ele>114.99999999999999</ele><time>2026-04-07T16:10:12Z</time></trkpt><trkpt lat="45.31363681754278" lon="8.743356667672318"><ele>114.99999999999999</ele><time>2026-04-07T16:10:14Z</time></trkpt><trkpt lat="45.31366657579828" lon="8.743449689459348"><ele>115.00000000000001</ele><time>2026-04-07T16:10:16Z</time></trkpt><trkpt lat="45.31369650846102" lon="8.743549717058391"><ele>115.0</ele><time>2026-04-07T16:10:18Z</time></trkpt><trkpt lat="45.31372090389785" lon="8.743654582857038"><ele>115.0</ele><time>2026-04-07T16:10:20Z</time></trkpt><trkpt lat="45.313749368792074" lon="8.743762173256808"><ele>115.0</ele><time>2026-04-07T16:10:22Z</time></trkpt><trkpt lat="45.313768182844576" lon="8.74387390879297"><ele>115.00000000000001</ele><time>2026-04-07T16:10:24Z</time></trkpt><trkpt lat="45.31379007486171" lon="8.743980879982303"><ele>115.0</ele><time>2026-04-07T16:10:26Z</time></trkpt><trkpt lat="45.31381419004823" lon="8.744080070128419"><ele>115.00000000000001</ele><time>2026-04-07T16:10:28Z</time></trkpt><trkpt lat="45.313834354156704" lon="8.744176316489774"><ele>115.0</ele><time>2026-04-07T16:10:30Z</time></trkpt><trkpt lat="45.31386409905318" lon="8.744280246704177"><ele>115.0</ele><time>2026-04-07T16:10:32.001Z</time></trkpt><trkpt lat="45.31389037656524" lon="8.744384286977507"><ele>115.0</ele><time>2026-04-07T16:10:34.001Z</time></trkpt><trkpt lat="45.313921794635135" lon="8.744485315281677"><ele>115.00000000000001</ele><time>2026-04-07T16:10:36.001Z</time></trkpt><trkpt lat="45.313947436331055" lon="8.74458914864202"><ele>115.0</ele><time>2026-04-07T16:10:38.001Z</time></trkpt><trkpt lat="45.31397985084247" lon="8.744689711809583"><ele>114.99999999999999</ele><time>2026-04-07T16:10:40.001Z</time></trkpt><trkpt lat="45.31400275225301" lon="8.744777719208376"><ele>115.0</ele><time>2026-04-07T16:10:42.001Z</time></trkpt><trkpt lat="45.313990264657484" lon="8.744899350106772"><ele>114.99999999999999</ele><time>2026-04-07T16:10:45.001Z</time></trkpt><trkpt lat="45.31392811584419" lon="8.744922750637832"><ele>114.99999999999999</ele><time>2026-04-07T16:10:47.001Z</time></trkpt><trkpt lat="45.31383571581018" lon="8.744945237508952"><ele>115.0</ele><time>2026-04-07T16:10:50.001Z</time></trkpt><trkpt lat="45.31379398621317" lon="8.745018512693134"><ele>114.99999999999999</ele><time>2026-04-07T16:10:52.001Z</time></trkpt><trkpt lat="45.313783843937536" lon="8.745111673549065"><ele>114.99999999999999</ele><time>2026-04-07T16:10:54.001Z</time></trkpt><trkpt lat="45.31381136187245" lon="8.745201766811288"><ele>114.83333333333334</ele><time>2026-04-07T16:10:56.001Z</time></trkpt><trkpt lat="45.31382160422334" lon="8.745310350810932"><ele>114.66666666666667</ele><time>2026-04-07T16:10:58.001Z</time></trkpt><trkpt lat="45.3138241605206" lon="8.745423880233417"><ele>114.5</ele><time>2026-04-07T16:11:00.001Z</time></trkpt><trkpt lat="45.31382920949562" lon="8.745544534982807"><ele>114.33333333333334</ele><time>2026-04-07T16:11:02.001Z</time></trkpt><trkpt lat="45.31382793709374" lon="8.745669824357769"><ele>114.16666666666667</ele><time>2026-04-07T16:11:04.001Z</time></trkpt><trkpt lat="45.313828347018514" lon="8.745795076499885"><ele>114.0</ele><time>2026-04-07T16:11:06.001Z</time></trkpt><trkpt lat="45.313828742655694" lon="8.74592286867458"><ele>114.0</ele><time>2026-04-07T16:11:08Z</time></trkpt><trkpt lat="45.3138334954379" lon="8.746052991361651"><ele>114.0</ele><time>2026-04-07T16:11:10Z</time></trkpt><trkpt lat="45.31382563844708" lon="8.746183233084997"><ele>114.0</ele><time>2026-04-07T16:11:12Z</time></trkpt><trkpt lat="45.31382108316942" lon="8.746314599891301"><ele>114.0</ele><time>2026-04-07T16:11:14Z</time></trkpt><trkpt lat="45.31382031881371" lon="8.746450536777981"><ele>114.0</ele><time>2026-04-07T16:11:16Z</time></trkpt><trkpt lat="45.31381894711998" lon="8.746589411318263"><ele>114.0</ele><time>2026-04-07T16:11:18Z</time></trkpt><trkpt lat="45.31382180670215" lon="8.746725564341888"><ele>114.0</ele><time>2026-04-07T16:11:20Z</time></trkpt><trkpt lat="45.31387139460691" lon="8.746839897051252"><ele>114.0</ele><time>2026-04-07T16:11:22Z</time></trkpt><trkpt lat="45.313953139582175" lon="8.746915186597755"><ele>114.0</ele><time>2026-04-07T16:11:24Z</time></trkpt><trkpt lat="45.31400523191316" lon="8.747029334759352"><ele>114.0</ele><time>2026-04-07T16:11:26Z</time></trkpt><trkpt lat="45.31403242222043" lon="8.747166834192983"><ele>114.0</ele><time>2026-04-07T16:11:28Z</time></trkpt><trkpt lat="45.31405274574387" lon="8.747297902452335"><ele>114.0</ele><time>2026-04-07T16:11:30Z</time></trkpt><trkpt lat="45.31407795381553" lon="8.747427463573656"><ele>114.0</ele><time>2026-04-07T16:11:32Z</time></trkpt><trkpt lat="45.31410307552247" lon="8.74755100969347"><ele>114.0</ele><time>2026-04-07T16:11:34Z</time></trkpt><trkpt lat="45.31412801298121" lon="8.747676389861416"><ele>114.0</ele><time>2026-04-07T16:11:36Z</time></trkpt><trkpt lat="45.31414801829143" lon="8.747804176059944"><ele>114.0</ele><time>2026-04-07T16:11:38Z</time></trkpt><trkpt lat="45.314171388991056" lon="8.747928404157879"><ele>114.0</ele><time>2026-04-07T16:11:40Z</time></trkpt><trkpt lat="45.31419259094775" lon="8.748053487511564"><ele>114.0</ele><time>2026-04-07T16:11:42Z</time></trkpt><trkpt lat="45.314211957072914" lon="8.748179484441339"><ele>114.0</ele><time>2026-04-07T16:11:44Z</time></trkpt><trkpt lat="45.31423718297377" lon="8.748301513660804"><ele>114.0</ele><time>2026-04-07T16:11:46Z</time></trkpt><trkpt lat="45.3142586680295" lon="8.748426650122687"><ele>114.0</ele><time>2026-04-07T16:11:48Z</time></trkpt><trkpt lat="45.31427714852585" lon="8.748550196000718"><ele>114.0</ele><time>2026-04-07T16:11:50Z</time></trkpt><trkpt lat="45.31429280531667" lon="8.748674947687627"><ele>114.0</ele><time>2026-04-07T16:11:52Z</time></trkpt><trkpt lat="45.31430603717662" lon="8.748794854266167"><ele>114.0</ele><time>2026-04-07T16:11:54Z</time></trkpt><trkpt lat="45.31431552878485" lon="8.748883984756995"><ele>114.0</ele><time>2026-04-07T16:11:56Z</time></trkpt><trkpt lat="45.314303234971575" lon="8.748981373840389"><ele>114.0</ele><time>2026-04-07T16:12:00Z</time></trkpt><trkpt lat="45.314272064674405" lon="8.749069088968454"><ele>114.0</ele><time>2026-04-07T16:12:03Z</time></trkpt><trkpt lat="45.31430802911677" lon="8.749154475616448"><ele>114.0</ele><time>2026-04-07T16:12:05Z</time></trkpt><trkpt lat="45.31434748216424" lon="8.749240912335809"><ele>114.0</ele><time>2026-04-07T16:12:07Z</time></trkpt><trkpt lat="45.31436841761347" lon="8.749350919653013"><ele>114.0</ele><time>2026-04-07T16:12:09Z</time></trkpt><trkpt lat="45.31438446748128" lon="8.749465670666073"><ele>114.0</ele><time>2026-04-07T16:12:11Z</time></trkpt><trkpt lat="45.31440357949276" lon="8.749585559230812"><ele>114.0</ele><time>2026-04-07T16:12:13Z</time></trkpt><trkpt lat="45.31441410320557" lon="8.749714893868001"><ele>114.0</ele><time>2026-04-07T16:12:15.001Z</time></trkpt><trkpt lat="45.314422333825476" lon="8.749846295204671"><ele>114.0</ele><time>2026-04-07T16:12:17.001Z</time></trkpt><trkpt lat="45.31443629137688" lon="8.749977689465114"><ele>114.0</ele><time>2026-04-07T16:12:19.001Z</time></trkpt><trkpt lat="45.31445780718538" lon="8.750106463709438"><ele>114.0</ele><time>2026-04-07T16:12:21.001Z</time></trkpt><trkpt lat="45.31447569756536" lon="8.750237526917346"><ele>114.0</ele><time>2026-04-07T16:12:23.001Z</time></trkpt><trkpt lat="45.314492396913785" lon="8.750367181227722"><ele>114.0</ele><time>2026-04-07T16:12:25.001Z</time></trkpt><trkpt lat="45.314502551868735" lon="8.750495923532535"><ele>114.0</ele><time>2026-04-07T16:12:27.001Z</time></trkpt><trkpt lat="45.31450770161627" lon="8.75063057654454"><ele>114.0</ele><time>2026-04-07T16:12:29.001Z</time></trkpt><trkpt lat="45.31450647258921" lon="8.750769266867955"><ele>114.0</ele><time>2026-04-07T16:12:31.001Z</time></trkpt><trkpt lat="45.31451616521343" lon="8.75091096648208"><ele>114.0</ele><time>2026-04-07T16:12:33.001Z</time></trkpt><trkpt lat="45.31452660697784" lon="8.751053974685483"><ele>114.0</ele><time>2026-04-07T16:12:35.001Z</time></trkpt><trkpt lat="45.31453003568348" lon="8.751199349692934"><ele>114.0</ele><time>2026-04-07T16:12:37.001Z</time></trkpt><trkpt lat="45.314528566258154" lon="8.751329322797785"><ele>114.0</ele><time>2026-04-07T16:12:39.001Z</time></trkpt><trkpt lat="45.31453494282159" lon="8.751447762475195"><ele>114.0</ele><time>2026-04-07T16:12:41.001Z</time></trkpt><trkpt lat="45.31453646155962" lon="8.75155908913305"><ele>114.0</ele><time>2026-04-07T16:12:43.001Z</time></trkpt><trkpt lat="45.31454131739315" lon="8.751662097478548"><ele>114.0</ele><time>2026-04-07T16:12:45.001Z</time></trkpt><trkpt lat="45.31454075422267" lon="8.751761067620901"><ele>114.0</ele><time>2026-04-07T16:12:47.001Z</time></trkpt><trkpt lat="45.3145396420365" lon="8.751860232245917"><ele>113.99999999999999</ele><time>2026-04-07T16:12:49.001Z</time></trkpt><trkpt lat="45.31453666114846" lon="8.7519625299515"><ele>114.0</ele><time>2026-04-07T16:12:51.001Z</time></trkpt><trkpt lat="45.314532790479" lon="8.752063688288178"><ele>114.0</ele><time>2026-04-07T16:12:53.001Z</time></trkpt><trkpt lat="45.314529180192245" lon="8.752168744077046"><ele>113.99999999999999</ele><time>2026-04-07T16:12:55.001Z</time></trkpt><trkpt lat="45.314528783246416" lon="8.75227651139477"><ele>114.0</ele><time>2026-04-07T16:12:57.001Z</time></trkpt><trkpt lat="45.31452577779168" lon="8.752386691908498"><ele>114.0</ele><time>2026-04-07T16:12:59.001Z</time></trkpt><trkpt lat="45.314523989218266" lon="8.752501399013205"><ele>114.16666666666667</ele><time>2026-04-07T16:13:01.001Z</time></trkpt><trkpt lat="45.314525539391674" lon="8.75261712012305"><ele>114.33333333333334</ele><time>2026-04-07T16:13:03.001Z</time></trkpt><trkpt lat="45.314530813768386" lon="8.752733041053032"><ele>114.5</ele><time>2026-04-07T16:13:05.001Z</time></trkpt><trkpt lat="45.31453457073772" lon="8.752853827805056"><ele>114.66666666666667</ele><time>2026-04-07T16:13:07.001Z</time></trkpt><trkpt lat="45.314546080151295" lon="8.752978636781235"><ele>114.83333333333334</ele><time>2026-04-07T16:13:09.001Z</time></trkpt><trkpt lat="45.314553618917714" lon="8.753112461131712"><ele>115.0</ele><time>2026-04-07T16:13:11.001Z</time></trkpt><trkpt lat="45.314560991853355" lon="8.753248226835577"><ele>115.16666666666667</ele><time>2026-04-07T16:13:13.001Z</time></trkpt><trkpt lat="45.3145684327575" lon="8.753375316254962"><ele>115.33333333333334</ele><time>2026-04-07T16:13:15.001Z</time></trkpt><trkpt lat="45.31457299355248" lon="8.75350573620828"><ele>115.5</ele><time>2026-04-07T16:13:17.001Z</time></trkpt><trkpt lat="45.31458378964018" lon="8.753631073190585"><ele>115.66666666666666</ele><time>2026-04-07T16:13:19.001Z</time></trkpt><trkpt lat="45.31459496860837" lon="8.753751970683656"><ele>115.83333333333333</ele><time>2026-04-07T16:13:21Z</time></trkpt><trkpt lat="45.3146128164185" lon="8.75386109550928"><ele>116.0</ele><time>2026-04-07T16:13:23Z</time></trkpt><trkpt lat="45.314634603815115" lon="8.753952682591688"><ele>115.99999999999999</ele><time>2026-04-07T16:13:25Z</time></trkpt><trkpt lat="45.31463899419523" lon="8.754077619214126"><ele>116.0</ele><time>2026-04-07T16:13:28Z</time></trkpt><trkpt lat="45.314593650261855" lon="8.75418189382123"><ele>116.0</ele><time>2026-04-07T16:13:31Z</time></trkpt><trkpt lat="45.31459293056319" lon="8.754305832278014"><ele>116.0</ele><time>2026-04-07T16:13:35Z</time></trkpt><trkpt lat="45.31458669956476" lon="8.754409481893342"><ele>115.99999999999999</ele><time>2026-04-07T16:13:37Z</time></trkpt><trkpt lat="45.31458784536814" lon="8.754529092542397"><ele>116.0</ele><time>2026-04-07T16:13:39Z</time></trkpt><trkpt lat="45.31459815269449" lon="8.754657485298189"><ele>116.0</ele><time>2026-04-07T16:13:41Z</time></trkpt><trkpt lat="45.314612011640236" lon="8.754788534298342"><ele>116.0</ele><time>2026-04-07T16:13:43Z</time></trkpt><trkpt lat="45.31462981532775" lon="8.754926613970166"><ele>116.0</ele><time>2026-04-07T16:13:45Z</time></trkpt><trkpt lat="45.31464875859512" lon="8.755069240040946"><ele>116.0</ele><time>2026-04-07T16:13:47Z</time></trkpt><trkpt lat="45.31467019959159" lon="8.755216553725049"><ele>116.0</ele><time>2026-04-07T16:13:49Z</time></trkpt><trkpt lat="45.31469435642463" lon="8.755365935144418"><ele>116.0</ele><time>2026-04-07T16:13:51Z</time></trkpt><trkpt lat="45.31472013465258" lon="8.755521242349586"><ele>116.0</ele><time>2026-04-07T16:13:53Z</time></trkpt><trkpt lat="45.314741989554584" lon="8.755673540997012"><ele>116.0</ele><time>2026-04-07T16:13:55Z</time></trkpt><trkpt lat="45.31476656762433" lon="8.75582061955913"><ele>116.0</ele><time>2026-04-07T16:13:57Z</time></trkpt><trkpt lat="45.314788859103345" lon="8.75596673710942"><ele>116.0</ele><time>2026-04-07T16:13:59.001Z</time></trkpt><trkpt lat="45.31480849155903" lon="8.756122820461085"><ele>116.0</ele><time>2026-04-07T16:14:01.001Z</time></trkpt><trkpt lat="45.314821725020764" lon="8.756273125895035"><ele>116.0</ele><time>2026-04-07T16:14:03.001Z</time></trkpt><trkpt lat="45.31483564562039" lon="8.756425888893613"><ele>116.0</ele><time>2026-04-07T16:14:05.001Z</time></trkpt><trkpt lat="45.3148596928753" lon="8.756586681027963"><ele>116.0</ele><time>2026-04-07T16:14:07.001Z</time></trkpt><trkpt lat="45.31488517841775" lon="8.756755667618764"><ele>115.75</ele><time>2026-04-07T16:14:09.001Z</time></trkpt><trkpt lat="45.31490376626488" lon="8.75693126856387"><ele>115.5</ele><time>2026-04-07T16:14:11.001Z</time></trkpt><trkpt lat="45.31492191406578" lon="8.757105957708712"><ele>115.25</ele><time>2026-04-07T16:14:13.001Z</time></trkpt><trkpt lat="45.31494300529788" lon="8.757280524020363"><ele>115.0</ele><time>2026-04-07T16:14:15.001Z</time></trkpt><trkpt lat="45.31496401240997" lon="8.757455586233556"><ele>115.0</ele><time>2026-04-07T16:14:17.001Z</time></trkpt><trkpt lat="45.3149828520649" lon="8.757627488992764"><ele>115.0</ele><time>2026-04-07T16:14:19.001Z</time></trkpt><trkpt lat="45.31500657267598" lon="8.757789493254323"><ele>115.0</ele><time>2026-04-07T16:14:21.001Z</time></trkpt><trkpt lat="45.31502792498492" lon="8.757942775484183"><ele>115.0</ele><time>2026-04-07T16:14:23.001Z</time></trkpt><trkpt lat="45.31504840520569" lon="8.758089411743107"><ele>114.8</ele><time>2026-04-07T16:14:25.001Z</time></trkpt><trkpt lat="45.31506936179438" lon="8.758231545786009"><ele>114.6</ele><time>2026-04-07T16:14:27.001Z</time></trkpt><trkpt lat="45.315089674542385" lon="8.75836788974181"><ele>114.4</ele><time>2026-04-07T16:14:29.001Z</time></trkpt><trkpt lat="45.31511310211109" lon="8.758505680351618"><ele>114.2</ele><time>2026-04-07T16:14:31.001Z</time></trkpt><trkpt lat="45.31516394990721" lon="8.758623171498947"><ele>114.0</ele><time>2026-04-07T16:14:33.001Z</time></trkpt><trkpt lat="45.31525856909988" lon="8.758656901741135"><ele>114.0</ele><time>2026-04-07T16:14:35.001Z</time></trkpt><trkpt lat="45.31535777834664" lon="8.758667962925816"><ele>114.0</ele><time>2026-04-07T16:14:37.001Z</time></trkpt><trkpt lat="45.31546167512116" lon="8.758689048070561"><ele>114.0</ele><time>2026-04-07T16:14:39.001Z</time></trkpt><trkpt lat="45.31556761793293" lon="8.758711996084322"><ele>114.0</ele><time>2026-04-07T16:14:41.001Z</time></trkpt><trkpt lat="45.31567305510937" lon="8.758735673325974"><ele>114.0</ele><time>2026-04-07T16:14:43.001Z</time></trkpt><trkpt lat="45.31578014367078" lon="8.758754875037452"><ele>113.0</ele><time>2026-04-07T16:14:45.001Z</time></trkpt><trkpt lat="45.31588781080787" lon="8.758777276131296"><ele>112.0</ele><time>2026-04-07T16:14:47.001Z</time></trkpt><trkpt lat="45.31599767337994" lon="8.758802261988686"><ele>111.0</ele><time>2026-04-07T16:14:49.001Z</time></trkpt><trkpt lat="45.31610800304992" lon="8.758823072218812"><ele>110.0</ele><time>2026-04-07T16:14:51.001Z</time></trkpt><trkpt lat="45.316216072823224" lon="8.758846069715755"><ele>109.0</ele><time>2026-04-07T16:14:53.001Z</time></trkpt><trkpt lat="45.31632445466163" lon="8.758865625896595"><ele>109.6</ele><time>2026-04-07T16:14:55.001Z</time></trkpt><trkpt lat="45.316432541960104" lon="8.758885031704155"><ele>110.2</ele><time>2026-04-07T16:14:57.001Z</time></trkpt><trkpt lat="45.316537672620164" lon="8.758909219042415"><ele>110.79999999999998</ele><time>2026-04-07T16:14:59.001Z</time></trkpt><trkpt lat="45.3166452123358" lon="8.75892905430306"><ele>111.39999999999999</ele><time>2026-04-07T16:15:01.001Z</time></trkpt><trkpt lat="45.31675294264935" lon="8.758951518593689"><ele>112.0</ele><time>2026-04-07T16:15:03.001Z</time></trkpt><trkpt lat="45.31685969586314" lon="8.758972678168838"><ele>112.0</ele><time>2026-04-07T16:15:05.001Z</time></trkpt><trkpt lat="45.31696738491751" lon="8.7589950086379"><ele>111.99999999999999</ele><time>2026-04-07T16:15:07.001Z</time></trkpt><trkpt lat="45.3170749964596" lon="8.759016133606002"><ele>111.99999999999999</ele><time>2026-04-07T16:15:09.001Z</time></trkpt><trkpt lat="45.31718300868541" lon="8.75904044334686"><ele>112.0</ele><time>2026-04-07T16:15:11.001Z</time></trkpt><trkpt lat="45.31729076133565" lon="8.759060531759177"><ele>112.0</ele><time>2026-04-07T16:15:13.001Z</time></trkpt><trkpt lat="45.317400272343505" lon="8.759083018484576"><ele>112.39999999999999</ele><time>2026-04-07T16:15:15.001Z</time></trkpt><trkpt lat="45.31751110108156" lon="8.75910487174402"><ele>112.79999999999998</ele><time>2026-04-07T16:15:17.001Z</time></trkpt><trkpt lat="45.31761824806402" lon="8.759124517876488"><ele>113.2</ele><time>2026-04-07T16:15:19.001Z</time></trkpt><trkpt lat="45.31772660702855" lon="8.759147721336948"><ele>113.6</ele><time>2026-04-07T16:15:21Z</time></trkpt><trkpt lat="45.31783414012739" lon="8.759172770316356"><ele>114.0</ele><time>2026-04-07T16:15:23Z</time></trkpt><trkpt lat="45.31794368137972" lon="8.75919800929402"><ele>114.0</ele><time>2026-04-07T16:15:25Z</time></trkpt><trkpt lat="45.318053654368356" lon="8.759222356416023"><ele>114.0</ele><time>2026-04-07T16:15:27Z</time></trkpt><trkpt lat="45.318163455343566" lon="8.7592424913648"><ele>114.0</ele><time>2026-04-07T16:15:29Z</time></trkpt><trkpt lat="45.31827482709407" lon="8.759256780142389"><ele>114.0</ele><time>2026-04-07T16:15:31Z</time></trkpt><trkpt lat="45.31838482310574" lon="8.75927569807494"><ele>114.0</ele><time>2026-04-07T16:15:33Z</time></trkpt><trkpt lat="45.31849515353818" lon="8.759305362320232"><ele>113.80000000000001</ele><time>2026-04-07T16:15:35Z</time></trkpt><trkpt lat="45.31860499746314" lon="8.759332089514864"><ele>113.60000000000001</ele><time>2026-04-07T16:15:37Z</time></trkpt><trkpt lat="45.318716268531695" lon="8.759353031276682"><ele>113.4</ele><time>2026-04-07T16:15:39Z</time></trkpt><trkpt lat="45.31882477314956" lon="8.759371575447966"><ele>113.2</ele><time>2026-04-07T16:15:41Z</time></trkpt><trkpt lat="45.31893247468447" lon="8.75939444330215"><ele>113.0</ele><time>2026-04-07T16:15:43Z</time></trkpt><trkpt lat="45.319040992359994" lon="8.759414041352693"><ele>113.0</ele><time>2026-04-07T16:15:45Z</time></trkpt><trkpt lat="45.31915107343421" lon="8.759438501205972"><ele>113.00000000000001</ele><time>2026-04-07T16:15:47Z</time></trkpt><trkpt lat="45.31926060555106" lon="8.75946156338746"><ele>113.00000000000001</ele><time>2026-04-07T16:15:49Z</time></trkpt><trkpt lat="45.31936857182631" lon="8.759483872384179"><ele>113.0</ele><time>2026-04-07T16:15:51Z</time></trkpt><trkpt lat="45.31947553411947" lon="8.759506716992343"><ele>113.0</ele><time>2026-04-07T16:15:53Z</time></trkpt><trkpt lat="45.319583583962995" lon="8.759529630105506"><ele>113.0</ele><time>2026-04-07T16:15:55Z</time></trkpt><trkpt lat="45.31969207604007" lon="8.759550473282435"><ele>113.00000000000001</ele><time>2026-04-07T16:15:57Z</time></trkpt><trkpt lat="45.31980049415027" lon="8.759572075846703"><ele>113.00000000000001</ele><time>2026-04-07T16:15:59Z</time></trkpt><trkpt lat="45.31990985613373" lon="8.759591784249231"><ele>113.0</ele><time>2026-04-07T16:16:01Z</time></trkpt><trkpt lat="45.320015897481696" lon="8.759614418132282"><ele>113.0</ele><time>2026-04-07T16:16:03Z</time></trkpt><trkpt lat="45.320123645112545" lon="8.759636280147992"><ele>113.2</ele><time>2026-04-07T16:16:05Z</time></trkpt><trkpt lat="45.320230204984654" lon="8.759656922395674"><ele>113.4</ele><time>2026-04-07T16:16:07Z</time></trkpt><trkpt lat="45.320336769325934" lon="8.759682493770953"><ele>113.60000000000001</ele><time>2026-04-07T16:16:09Z</time></trkpt><trkpt lat="45.320443234305166" lon="8.75969963057534"><ele>113.80000000000001</ele><time>2026-04-07T16:16:11Z</time></trkpt><trkpt lat="45.320548224299344" lon="8.759716038129296"><ele>114.0</ele><time>2026-04-07T16:16:13.001Z</time></trkpt><trkpt lat="45.32064973947436" lon="8.759747346812986"><ele>114.4</ele><time>2026-04-07T16:16:15.001Z</time></trkpt><trkpt lat="45.32075123564817" lon="8.759771690188263"><ele>114.80000000000001</ele><time>2026-04-07T16:16:17.001Z</time></trkpt><trkpt lat="45.320851402479875" lon="8.759790747517101"><ele>115.19999999999999</ele><time>2026-04-07T16:16:19.001Z</time></trkpt><trkpt lat="45.32095161230267" lon="8.759810155517009"><ele>115.6</ele><time>2026-04-07T16:16:21.001Z</time></trkpt><trkpt lat="45.32105271773228" lon="8.759831868203825"><ele>116.0</ele><time>2026-04-07T16:16:23.001Z</time></trkpt><trkpt lat="45.321151789818835" lon="8.759854051035449"><ele>116.0</ele><time>2026-04-07T16:16:25.001Z</time></trkpt><trkpt lat="45.321250164399444" lon="8.75986857069884"><ele>116.0</ele><time>2026-04-07T16:16:27.001Z</time></trkpt><trkpt lat="45.321352431247874" lon="8.75989197243905"><ele>116.0</ele><time>2026-04-07T16:16:29.001Z</time></trkpt><trkpt lat="45.32145352080972" lon="8.759912193472196"><ele>116.0</ele><time>2026-04-07T16:16:31.001Z</time></trkpt><trkpt lat="45.32155639571272" lon="8.759938362698382"><ele>116.0</ele><time>2026-04-07T16:16:33.001Z</time></trkpt><trkpt lat="45.32165924508882" lon="8.759974599501815"><ele>115.8</ele><time>2026-04-07T16:16:35.001Z</time></trkpt><trkpt lat="45.32176170153846" lon="8.760012670110564"><ele>115.6</ele><time>2026-04-07T16:16:37.001Z</time></trkpt><trkpt lat="45.32186278709728" lon="8.760052652524703"><ele>115.4</ele><time>2026-04-07T16:16:39.001Z</time></trkpt><trkpt lat="45.32196383994724" lon="8.760099915904396"><ele>115.2</ele><time>2026-04-07T16:16:41.001Z</time></trkpt><trkpt lat="45.3220627580247" lon="8.760145952396114"><ele>115.0</ele><time>2026-04-07T16:16:43.001Z</time></trkpt><trkpt lat="45.32215921948807" lon="8.760189162242964"><ele>115.2</ele><time>2026-04-07T16:16:45.001Z</time></trkpt><trkpt lat="45.32226436235797" lon="8.760231748930574"><ele>115.4</ele><time>2026-04-07T16:16:47.001Z</time></trkpt><trkpt lat="45.32237086907728" lon="8.760272213901166"><ele>115.6</ele><time>2026-04-07T16:16:49.001Z</time></trkpt><trkpt lat="45.32247454231615" lon="8.760316297772274"><ele>115.8</ele><time>2026-04-07T16:16:51.001Z</time></trkpt><trkpt lat="45.322576290284815" lon="8.760372492919204"><ele>116.0</ele><time>2026-04-07T16:16:53.001Z</time></trkpt><trkpt lat="45.322679768411035" lon="8.760421288413962"><ele>116.0</ele><time>2026-04-07T16:16:55.001Z</time></trkpt><trkpt lat="45.32277707835593" lon="8.760461112163782"><ele>116.0</ele><time>2026-04-07T16:16:57.001Z</time></trkpt><trkpt lat="45.322869601122484" lon="8.760503062226263"><ele>116.0</ele><time>2026-04-07T16:16:59.001Z</time></trkpt><trkpt lat="45.3229617056314" lon="8.76054953067349"><ele>116.0</ele><time>2026-04-07T16:17:01.001Z</time></trkpt><trkpt lat="45.323058815490874" lon="8.760591900063107"><ele>116.0</ele><time>2026-04-07T16:17:03.001Z</time></trkpt><trkpt lat="45.32315578094617" lon="8.760638272475122"><ele>116.0</ele><time>2026-04-07T16:17:05.001Z</time></trkpt><trkpt lat="45.32325435446756" lon="8.760682016284596"><ele>116.0</ele><time>2026-04-07T16:17:07.001Z</time></trkpt><trkpt lat="45.3233505893957" lon="8.760729599991867"><ele>116.0</ele><time>2026-04-07T16:17:09.001Z</time></trkpt><trkpt lat="45.323444793746276" lon="8.760778176889563"><ele>116.0</ele><time>2026-04-07T16:17:11.001Z</time></trkpt><trkpt lat="45.3235405579697" lon="8.76083006278331"><ele>116.0</ele><time>2026-04-07T16:17:13.001Z</time></trkpt><trkpt lat="45.32363538114705" lon="8.760895098456224"><ele>116.0</ele><time>2026-04-07T16:17:15.001Z</time></trkpt><trkpt lat="45.32372531793279" lon="8.760977130439509"><ele>116.0</ele><time>2026-04-07T16:17:17.001Z</time></trkpt><trkpt lat="45.323813779601046" lon="8.761059897262157"><ele>116.0</ele><time>2026-04-07T16:17:19.001Z</time></trkpt><trkpt lat="45.323906525129296" lon="8.761136193425124"><ele>116.0</ele><time>2026-04-07T16:17:21.001Z</time></trkpt><trkpt lat="45.323998743751694" lon="8.761213107733214"><ele>116.0</ele><time>2026-04-07T16:17:23.001Z</time></trkpt><trkpt lat="45.32409411258064" lon="8.76129005308718"><ele>115.8</ele><time>2026-04-07T16:17:25.001Z</time></trkpt><trkpt lat="45.3241889959311" lon="8.761366966614492"><ele>115.6</ele><time>2026-04-07T16:17:27Z</time></trkpt><trkpt lat="45.324281272842384" lon="8.761451508889971"><ele>115.4</ele><time>2026-04-07T16:17:29Z</time></trkpt><trkpt lat="45.324375511977216" lon="8.761531143557708"><ele>115.2</ele><time>2026-04-07T16:17:31Z</time></trkpt><trkpt lat="45.32447154702142" lon="8.761607738630794"><ele>115.0</ele><time>2026-04-07T16:17:33Z</time></trkpt><trkpt lat="45.32456466636716" lon="8.761688740312358"><ele>115.0</ele><time>2026-04-07T16:17:35Z</time></trkpt><trkpt lat="45.324659584571755" lon="8.761768453428369"><ele>115.0</ele><time>2026-04-07T16:17:37Z</time></trkpt><trkpt lat="45.32475076834984" lon="8.76184711727006"><ele>115.0</ele><time>2026-04-07T16:17:39Z</time></trkpt><trkpt lat="45.32484275335997" lon="8.761927820612465"><ele>115.0</ele><time>2026-04-07T16:17:41Z</time></trkpt><trkpt lat="45.324932463531795" lon="8.762008964294282"><ele>115.0</ele><time>2026-04-07T16:17:43Z</time></trkpt><trkpt lat="45.32502354691458" lon="8.762087170578761"><ele>114.6</ele><time>2026-04-07T16:17:45Z</time></trkpt><trkpt lat="45.32511688703367" lon="8.76216264960203"><ele>114.2</ele><time>2026-04-07T16:17:47Z</time></trkpt><trkpt lat="45.325214920879894" lon="8.762236727820747"><ele>113.80000000000001</ele><time>2026-04-07T16:17:49Z</time></trkpt><trkpt lat="45.32531087731691" lon="8.762306943188914"><ele>113.4</ele><time>2026-04-07T16:17:51Z</time></trkpt><trkpt lat="45.32540684085464" lon="8.76236988853018"><ele>113.0</ele><time>2026-04-07T16:17:53Z</time></trkpt><trkpt lat="45.32550081071596" lon="8.762418980566563"><ele>113.60000000000001</ele><time>2026-04-07T16:17:55Z</time></trkpt><trkpt lat="45.32559820297973" lon="8.762452475610285"><ele>114.20000000000002</ele><time>2026-04-07T16:17:57Z</time></trkpt><trkpt lat="45.325694822427174" lon="8.762479019085525"><ele>114.8</ele><time>2026-04-07T16:17:59Z</time></trkpt><trkpt lat="45.325793481670814" lon="8.762495359914523"><ele>115.4</ele><time>2026-04-07T16:18:01Z</time></trkpt><trkpt lat="45.32589945131392" lon="8.762503629766476"><ele>116.0</ele><time>2026-04-07T16:18:03Z</time></trkpt><trkpt lat="45.32600442993723" lon="8.762517058474202"><ele>116.0</ele><time>2026-04-07T16:18:05Z</time></trkpt><trkpt lat="45.326106284502245" lon="8.762542411525668"><ele>116.0</ele><time>2026-04-07T16:18:07Z</time></trkpt><trkpt lat="45.326204371104666" lon="8.76255127400076"><ele>116.0</ele><time>2026-04-07T16:18:09Z</time></trkpt><trkpt lat="45.326298299535765" lon="8.762566847361876"><ele>116.0</ele><time>2026-04-07T16:18:11Z</time></trkpt><trkpt lat="45.32638958988706" lon="8.762579915223677"><ele>116.0</ele><time>2026-04-07T16:18:13Z</time></trkpt><trkpt lat="45.3264761661423" lon="8.762586040034897"><ele>115.99999999999999</ele><time>2026-04-07T16:18:15Z</time></trkpt><trkpt lat="45.32656118693212" lon="8.762599529596692"><ele>116.0</ele><time>2026-04-07T16:18:17Z</time></trkpt><trkpt lat="45.326644348206486" lon="8.762608107342198"><ele>116.0</ele><time>2026-04-07T16:18:19Z</time></trkpt><trkpt lat="45.32672082243014" lon="8.76262143475"><ele>116.0</ele><time>2026-04-07T16:18:21Z</time></trkpt><trkpt lat="45.326795836917356" lon="8.762634907936615"><ele>115.99999999999999</ele><time>2026-04-07T16:18:23Z</time></trkpt><trkpt lat="45.326866611393974" lon="8.762642357145358"><ele>116.0</ele><time>2026-04-07T16:18:25Z</time></trkpt><trkpt lat="45.32693211732238" lon="8.762683624299331"><ele>115.8</ele><time>2026-04-07T16:18:27Z</time></trkpt><trkpt lat="45.326967201839956" lon="8.76279270977918"><ele>115.6</ele><time>2026-04-07T16:18:29Z</time></trkpt><trkpt lat="45.32698376839154" lon="8.762921868834052"><ele>115.4</ele><time>2026-04-07T16:18:31Z</time></trkpt><trkpt lat="45.32698612495947" lon="8.763056356751331"><ele>115.2</ele><time>2026-04-07T16:18:33.001Z</time></trkpt><trkpt lat="45.32698832308105" lon="8.763192923317401"><ele>115.0</ele><time>2026-04-07T16:18:35.001Z</time></trkpt><trkpt lat="45.32699642520563" lon="8.763330899197197"><ele>115.0</ele><time>2026-04-07T16:18:37.001Z</time></trkpt><trkpt lat="45.32700569902041" lon="8.763473014164274"><ele>115.0</ele><time>2026-04-07T16:18:39.001Z</time></trkpt><trkpt lat="45.3270126609519" lon="8.763619429174643"><ele>115.0</ele><time>2026-04-07T16:18:41.001Z</time></trkpt><trkpt lat="45.327016656831404" lon="8.763766279807534"><ele>115.0</ele><time>2026-04-07T16:18:43.001Z</time></trkpt><trkpt lat="45.32702512929193" lon="8.763914624476127"><ele>115.0</ele><time>2026-04-07T16:18:45.001Z</time></trkpt><trkpt lat="45.327037827463506" lon="8.764054167358891"><ele>115.0</ele><time>2026-04-07T16:18:47.001Z</time></trkpt><trkpt lat="45.32705299310985" lon="8.764200313217316"><ele>115.0</ele><time>2026-04-07T16:18:49.001Z</time></trkpt><trkpt lat="45.327056155670086" lon="8.76435440524422"><ele>115.0</ele><time>2026-04-07T16:18:51.001Z</time></trkpt><trkpt lat="45.32704917303815" lon="8.76450745657372"><ele>115.0</ele><time>2026-04-07T16:18:53.001Z</time></trkpt><trkpt lat="45.3270532846595" lon="8.764662079698391"><ele>115.0</ele><time>2026-04-07T16:18:55.001Z</time></trkpt><trkpt lat="45.327051085563" lon="8.76481330101576"><ele>115.2</ele><time>2026-04-07T16:18:57.001Z</time></trkpt><trkpt lat="45.327038751842835" lon="8.764956577242708"><ele>115.4</ele><time>2026-04-07T16:18:59.001Z</time></trkpt><trkpt lat="45.32701393868664" lon="8.765094231276542"><ele>115.6</ele><time>2026-04-07T16:19:01.001Z</time></trkpt><trkpt lat="45.326994235965834" lon="8.76523126451206"><ele>115.8</ele><time>2026-04-07T16:19:03.001Z</time></trkpt><trkpt lat="45.32697282312713" lon="8.765361171129642"><ele>116.0</ele><time>2026-04-07T16:19:05.001Z</time></trkpt><trkpt lat="45.32694124170736" lon="8.765484425884218"><ele>116.0</ele><time>2026-04-07T16:19:07.001Z</time></trkpt><trkpt lat="45.32692162945195" lon="8.765614055316547"><ele>116.0</ele><time>2026-04-07T16:19:09.001Z</time></trkpt><trkpt lat="45.32689287937161" lon="8.765735716432733"><ele>116.0</ele><time>2026-04-07T16:19:11.001Z</time></trkpt><trkpt lat="45.32686295598996" lon="8.76585757620773"><ele>116.0</ele><time>2026-04-07T16:19:13.001Z</time></trkpt><trkpt lat="45.326826194703656" lon="8.76597147049734"><ele>116.0</ele><time>2026-04-07T16:19:15.001Z</time></trkpt><trkpt lat="45.32678792219994" lon="8.766094697863467"><ele>116.0</ele><time>2026-04-07T16:19:17.001Z</time></trkpt><trkpt lat="45.32674121900454" lon="8.7662129381929"><ele>116.0</ele><time>2026-04-07T16:19:19.001Z</time></trkpt><trkpt lat="45.326698543347895" lon="8.766335774943215"><ele>116.0</ele><time>2026-04-07T16:19:21.001Z</time></trkpt><trkpt lat="45.326654716747576" lon="8.766455776635668"><ele>116.0</ele><time>2026-04-07T16:19:23.001Z</time></trkpt><trkpt lat="45.32661381087764" lon="8.766569785431622"><ele>116.0</ele><time>2026-04-07T16:19:25.001Z</time></trkpt><trkpt lat="45.326569723656874" lon="8.766681761871606"><ele>116.0</ele><time>2026-04-07T16:19:27.001Z</time></trkpt><trkpt lat="45.32650631369642" lon="8.766775839586188"><ele>116.0</ele><time>2026-04-07T16:19:29.001Z</time></trkpt><trkpt lat="45.32643151441264" lon="8.766854237801223"><ele>116.0</ele><time>2026-04-07T16:19:31.001Z</time></trkpt><trkpt lat="45.326355646128185" lon="8.766924128938586"><ele>116.0</ele><time>2026-04-07T16:19:33Z</time></trkpt><trkpt lat="45.32627257495079" lon="8.76697622435838"><ele>116.0</ele><time>2026-04-07T16:19:35Z</time></trkpt><trkpt lat="45.326181636479234" lon="8.767015840239921"><ele>115.8</ele><time>2026-04-07T16:19:37Z</time></trkpt><trkpt lat="45.32609291501123" lon="8.767059798703974"><ele>115.6</ele><time>2026-04-07T16:19:39Z</time></trkpt><trkpt lat="45.32600656806492" lon="8.767112050208791"><ele>115.4</ele><time>2026-04-07T16:19:41Z</time></trkpt><trkpt lat="45.32592318060709" lon="8.767168909902637"><ele>115.2</ele><time>2026-04-07T16:19:43Z</time></trkpt><trkpt lat="45.325829809199476" lon="8.767205616176156"><ele>115.0</ele><time>2026-04-07T16:19:45Z</time></trkpt><trkpt lat="45.3257364720145" lon="8.767242565355973"><ele>115.0</ele><time>2026-04-07T16:19:47Z</time></trkpt><trkpt lat="45.3256484116371" lon="8.767288199992977"><ele>115.0</ele><time>2026-04-07T16:19:49Z</time></trkpt><trkpt lat="45.32556002977396" lon="8.767339371483445"><ele>115.0</ele><time>2026-04-07T16:19:51Z</time></trkpt><trkpt lat="45.3254696886739" lon="8.767388606935988"><ele>115.0</ele><time>2026-04-07T16:19:53Z</time></trkpt><trkpt lat="45.32537751862943" lon="8.76743216313187"><ele>115.0</ele><time>2026-04-07T16:19:55Z</time></trkpt><trkpt lat="45.32528636357853" lon="8.767475817375555"><ele>115.0</ele><time>2026-04-07T16:19:57Z</time></trkpt><trkpt lat="45.32519813298853" lon="8.767521220907964"><ele>115.0</ele><time>2026-04-07T16:19:59Z</time></trkpt><trkpt lat="45.32510720900274" lon="8.767571700453624"><ele>115.0</ele><time>2026-04-07T16:20:01Z</time></trkpt><trkpt lat="45.32501151605666" lon="8.767616286017724"><ele>115.0</ele><time>2026-04-07T16:20:03Z</time></trkpt><trkpt lat="45.32492173005651" lon="8.767672985383951"><ele>115.0</ele><time>2026-04-07T16:20:05Z</time></trkpt><trkpt lat="45.32482961217521" lon="8.767726845651941"><ele>115.0</ele><time>2026-04-07T16:20:07Z</time></trkpt><trkpt lat="45.324735336401176" lon="8.767779635548987"><ele>115.0</ele><time>2026-04-07T16:20:09Z</time></trkpt><trkpt lat="45.32464524212289" lon="8.767837874107304"><ele>115.0</ele><time>2026-04-07T16:20:11Z</time></trkpt><trkpt lat="45.32455865759955" lon="8.767902441283855"><ele>115.0</ele><time>2026-04-07T16:20:13Z</time></trkpt><trkpt lat="45.32447624651634" lon="8.767982240594181"><ele>115.0</ele><time>2026-04-07T16:20:15Z</time></trkpt><trkpt lat="45.32439729187543" lon="8.768065170674"><ele>114.8</ele><time>2026-04-07T16:20:17Z</time></trkpt><trkpt lat="45.32431477435019" lon="8.76814268245342"><ele>114.6</ele><time>2026-04-07T16:20:19Z</time></trkpt><trkpt lat="45.32422913608377" lon="8.76821919841758"><ele>114.4</ele><time>2026-04-07T16:20:21Z</time></trkpt><trkpt lat="45.324152040025645" lon="8.768304093692155"><ele>114.2</ele><time>2026-04-07T16:20:23Z</time></trkpt><trkpt lat="45.32407754774236" lon="8.768392720132859"><ele>114.0</ele><time>2026-04-07T16:20:25Z</time></trkpt><trkpt lat="45.324001615643525" lon="8.768478471422574"><ele>114.16666666666667</ele><time>2026-04-07T16:20:27Z</time></trkpt><trkpt lat="45.3239359341906" lon="8.768568440244817"><ele>114.33333333333334</ele><time>2026-04-07T16:20:29Z</time></trkpt><trkpt lat="45.3238689553641" lon="8.768652121377045"><ele>114.5</ele><time>2026-04-07T16:20:31Z</time></trkpt><trkpt lat="45.323807458138376" lon="8.768740295989131"><ele>114.66666666666667</ele><time>2026-04-07T16:20:33Z</time></trkpt><trkpt lat="45.32374539824812" lon="8.768820118034325"><ele>114.83333333333334</ele><time>2026-04-07T16:20:35Z</time></trkpt><trkpt lat="45.323685905795415" lon="8.768913724377272"><ele>115.0</ele><time>2026-04-07T16:20:37Z</time></trkpt><trkpt lat="45.32362942713444" lon="8.769008066920318"><ele>114.8</ele><time>2026-04-07T16:20:39Z</time></trkpt><trkpt lat="45.323562150055935" lon="8.769099102700569"><ele>114.6</ele><time>2026-04-07T16:20:41Z</time></trkpt><trkpt lat="45.32347912037511" lon="8.769164830467147"><ele>114.4</ele><time>2026-04-07T16:20:43Z</time></trkpt><trkpt lat="45.32340586522722" lon="8.769245567765688"><ele>114.2</ele><time>2026-04-07T16:20:45Z</time></trkpt><trkpt lat="45.32333624904034" lon="8.769337765703758"><ele>114.0</ele><time>2026-04-07T16:20:47Z</time></trkpt><trkpt lat="45.32326675573382" lon="8.769431981543692"><ele>114.0</ele><time>2026-04-07T16:20:49Z</time></trkpt><trkpt lat="45.32319133691499" lon="8.769514576207508"><ele>114.0</ele><time>2026-04-07T16:20:51Z</time></trkpt><trkpt lat="45.32311741262168" lon="8.769596881247319"><ele>114.0</ele><time>2026-04-07T16:20:53.001Z</time></trkpt><trkpt lat="45.32304972582061" lon="8.769686767530791"><ele>114.0</ele><time>2026-04-07T16:20:55.001Z</time></trkpt><trkpt lat="45.3229746352083" lon="8.769774372980985"><ele>114.0</ele><time>2026-04-07T16:20:57.001Z</time></trkpt><trkpt lat="45.32290152789494" lon="8.769860276601962"><ele>113.80000000000001</ele><time>2026-04-07T16:20:59.001Z</time></trkpt><trkpt lat="45.32282721753736" lon="8.769943406245364"><ele>113.60000000000001</ele><time>2026-04-07T16:21:01.001Z</time></trkpt><trkpt lat="45.32275478026562" lon="8.770033172576522"><ele>113.4</ele><time>2026-04-07T16:21:03.001Z</time></trkpt><trkpt lat="45.322680403528565" lon="8.770118301479512"><ele>113.2</ele><time>2026-04-07T16:21:05.001Z</time></trkpt><trkpt lat="45.32260461261275" lon="8.77019234871232"><ele>113.0</ele><time>2026-04-07T16:21:07.001Z</time></trkpt><trkpt lat="45.32252498887079" lon="8.770268049632156"><ele>112.80000000000001</ele><time>2026-04-07T16:21:09.001Z</time></trkpt><trkpt lat="45.32245146138725" lon="8.770347815611782"><ele>112.60000000000001</ele><time>2026-04-07T16:21:11.001Z</time></trkpt><trkpt lat="45.32237642337273" lon="8.77042777224262"><ele>112.39999999999999</ele><time>2026-04-07T16:21:13.001Z</time></trkpt><trkpt lat="45.322301416491825" lon="8.770509176583232"><ele>112.19999999999999</ele><time>2026-04-07T16:21:15.001Z</time></trkpt><trkpt lat="45.3222241033155" lon="8.77058230272744"><ele>112.0</ele><time>2026-04-07T16:21:17.001Z</time></trkpt><trkpt lat="45.32215138623361" lon="8.77065748867589"><ele>112.0</ele><time>2026-04-07T16:21:19.001Z</time></trkpt><trkpt lat="45.32207874947735" lon="8.770736367964197"><ele>111.99999999999999</ele><time>2026-04-07T16:21:21.001Z</time></trkpt><trkpt lat="45.322002852713744" lon="8.770807505133456"><ele>111.99999999999999</ele><time>2026-04-07T16:21:23.001Z</time></trkpt><trkpt lat="45.32192455141897" lon="8.770881176490956"><ele>112.0</ele><time>2026-04-07T16:21:25.001Z</time></trkpt><trkpt lat="45.32184726949393" lon="8.770946696229958"><ele>112.0</ele><time>2026-04-07T16:21:27.001Z</time></trkpt><trkpt lat="45.32176271939263" lon="8.771002365310187"><ele>112.0</ele><time>2026-04-07T16:21:29.001Z</time></trkpt><trkpt lat="45.32168079190094" lon="8.771057981640208"><ele>111.99999999999999</ele><time>2026-04-07T16:21:31.001Z</time></trkpt><trkpt lat="45.32159559898488" lon="8.771112107130957"><ele>111.99999999999999</ele><time>2026-04-07T16:21:33.001Z</time></trkpt><trkpt lat="45.321508674232504" lon="8.771165954726024"><ele>112.0</ele><time>2026-04-07T16:21:35.001Z</time></trkpt><trkpt lat="45.32142441521703" lon="8.771218426233087"><ele>112.0</ele><time>2026-04-07T16:21:37.001Z</time></trkpt><trkpt lat="45.32133747757896" lon="8.77127689472575"><ele>111.6</ele><time>2026-04-07T16:21:39Z</time></trkpt><trkpt lat="45.32124805665807" lon="8.77133589607873"><ele>111.19999999999999</ele><time>2026-04-07T16:21:41Z</time></trkpt><trkpt lat="45.321155150153565" lon="8.771391312243654"><ele>110.8</ele><time>2026-04-07T16:21:43Z</time></trkpt><trkpt lat="45.32106489179162" lon="8.771446009876016"><ele>110.4</ele><time>2026-04-07T16:21:45Z</time></trkpt><trkpt lat="45.320973594118726" lon="8.771505934751804"><ele>110.0</ele><time>2026-04-07T16:21:47Z</time></trkpt><trkpt lat="45.32088105398678" lon="8.77156084357298"><ele>110.0</ele><time>2026-04-07T16:21:49Z</time></trkpt><trkpt lat="45.32078792797828" lon="8.771618954311938"><ele>110.0</ele><time>2026-04-07T16:21:51Z</time></trkpt><trkpt lat="45.32069624119312" lon="8.771677657703943"><ele>110.0</ele><time>2026-04-07T16:21:53Z</time></trkpt><trkpt lat="45.32060329154033" lon="8.771732390878054"><ele>110.0</ele><time>2026-04-07T16:21:55Z</time></trkpt><trkpt lat="45.32051066506768" lon="8.771788443404423"><ele>110.0</ele><time>2026-04-07T16:21:57Z</time></trkpt><trkpt lat="45.320418330257375" lon="8.771848399138948"><ele>110.8</ele><time>2026-04-07T16:21:59Z</time></trkpt><trkpt lat="45.320325947426824" lon="8.771903800509088"><ele>111.6</ele><time>2026-04-07T16:22:01Z</time></trkpt><trkpt lat="45.320232386041624" lon="8.77195997066961"><ele>112.4</ele><time>2026-04-07T16:22:03Z</time></trkpt><trkpt lat="45.320142084791954" lon="8.77201789816113"><ele>113.2</ele><time>2026-04-07T16:22:05Z</time></trkpt><trkpt lat="45.32005118069732" lon="8.772073818368288"><ele>114.0</ele><time>2026-04-07T16:22:07Z</time></trkpt><trkpt lat="45.31996020708884" lon="8.772129708432631"><ele>114.0</ele><time>2026-04-07T16:22:09Z</time></trkpt><trkpt lat="45.31986906309092" lon="8.772188994339517"><ele>114.0</ele><time>2026-04-07T16:22:11Z</time></trkpt><trkpt lat="45.31977783280047" lon="8.772243831841504"><ele>114.0</ele><time>2026-04-07T16:22:13Z</time></trkpt><trkpt lat="45.31968672763842" lon="8.772300044741295"><ele>114.0</ele><time>2026-04-07T16:22:15Z</time></trkpt><trkpt lat="45.31959870940806" lon="8.772364447597669"><ele>114.0</ele><time>2026-04-07T16:22:17Z</time></trkpt><trkpt lat="45.3195107074732" lon="8.77242654011913"><ele>113.80000000000001</ele><time>2026-04-07T16:22:19Z</time></trkpt><trkpt lat="45.31942036774277" lon="8.77249267554374"><ele>113.60000000000001</ele><time>2026-04-07T16:22:21Z</time></trkpt><trkpt lat="45.319335236472135" lon="8.772569390991503"><ele>113.4</ele><time>2026-04-07T16:22:23Z</time></trkpt><trkpt lat="45.319245652381376" lon="8.772641263910224"><ele>113.2</ele><time>2026-04-07T16:22:25Z</time></trkpt><trkpt lat="45.31915585994074" lon="8.772712288913583"><ele>113.0</ele><time>2026-04-07T16:22:27Z</time></trkpt><trkpt lat="45.31906955302324" lon="8.772783122781512"><ele>112.80000000000001</ele><time>2026-04-07T16:22:29Z</time></trkpt><trkpt lat="45.318979892591834" lon="8.772850481180644"><ele>112.60000000000001</ele><time>2026-04-07T16:22:31Z</time></trkpt><trkpt lat="45.31889179783551" lon="8.772926277890752"><ele>112.39999999999999</ele><time>2026-04-07T16:22:33Z</time></trkpt><trkpt lat="45.318804939183494" lon="8.77299562524785"><ele>112.19999999999999</ele><time>2026-04-07T16:22:35Z</time></trkpt><trkpt lat="45.318717804704924" lon="8.773069946245558"><ele>112.0</ele><time>2026-04-07T16:22:37Z</time></trkpt><trkpt lat="45.31863204148302" lon="8.773147573436447"><ele>112.0</ele><time>2026-04-07T16:22:39Z</time></trkpt><trkpt lat="45.31855241564523" lon="8.77323959039262"><ele>111.99999999999999</ele><time>2026-04-07T16:22:41Z</time></trkpt><trkpt lat="45.31848465806537" lon="8.773340214405698"><ele>111.99999999999999</ele><time>2026-04-07T16:22:43Z</time></trkpt><trkpt lat="45.31842344474185" lon="8.773454129137642"><ele>112.0</ele><time>2026-04-07T16:22:45Z</time></trkpt><trkpt lat="45.318361796391144" lon="8.7735706524712"><ele>112.0</ele><time>2026-04-07T16:22:47Z</time></trkpt><trkpt lat="45.3182961958612" lon="8.773681511506899"><ele>112.0</ele><time>2026-04-07T16:22:49Z</time></trkpt><trkpt lat="45.31823336871027" lon="8.773794659525509"><ele>111.99999999999999</ele><time>2026-04-07T16:22:51Z</time></trkpt><trkpt lat="45.318172617052696" lon="8.773909359973176"><ele>111.99999999999999</ele><time>2026-04-07T16:22:53Z</time></trkpt><trkpt lat="45.31810987017435" lon="8.774023066714594"><ele>112.0</ele><time>2026-04-07T16:22:55Z</time></trkpt><trkpt lat="45.31804559116451" lon="8.774137034587337"><ele>112.0</ele><time>2026-04-07T16:22:57Z</time></trkpt><trkpt lat="45.317981756519366" lon="8.774250553617915"><ele>112.19999999999999</ele><time>2026-04-07T16:22:59.001Z</time></trkpt><trkpt lat="45.31791867633407" lon="8.774358428735514"><ele>112.39999999999999</ele><time>2026-04-07T16:23:01.001Z</time></trkpt><trkpt lat="45.31785498841826" lon="8.774458778564924"><ele>112.60000000000001</ele><time>2026-04-07T16:23:03.001Z</time></trkpt><trkpt lat="45.317792777129654" lon="8.774556620644574"><ele>112.80000000000001</ele><time>2026-04-07T16:23:05.001Z</time></trkpt><trkpt lat="45.317727696333215" lon="8.774653063106088"><ele>113.0</ele><time>2026-04-07T16:23:07.001Z</time></trkpt><trkpt lat="45.317663760207616" lon="8.774749658412773"><ele>113.0</ele><time>2026-04-07T16:23:09.001Z</time></trkpt><trkpt lat="45.31760000871525" lon="8.774847458728642"><ele>113.00000000000001</ele><time>2026-04-07T16:23:11.001Z</time></trkpt><trkpt lat="45.31753580727431" lon="8.774944398715133"><ele>113.00000000000001</ele><time>2026-04-07T16:23:13.001Z</time></trkpt><trkpt lat="45.31746874314671" lon="8.775044978177787"><ele>113.0</ele><time>2026-04-07T16:23:15.001Z</time></trkpt><trkpt lat="45.31740486504325" lon="8.775144425349078"><ele>113.0</ele><time>2026-04-07T16:23:17.001Z</time></trkpt><trkpt lat="45.31733849702977" lon="8.775242209679723"><ele>112.80000000000001</ele><time>2026-04-07T16:23:19.001Z</time></trkpt><trkpt lat="45.31727328232156" lon="8.775341299789932"><ele>112.60000000000001</ele><time>2026-04-07T16:23:21.001Z</time></trkpt><trkpt lat="45.31720649050806" lon="8.775440338865707"><ele>112.39999999999999</ele><time>2026-04-07T16:23:23.001Z</time></trkpt><trkpt lat="45.31713939916805" lon="8.775538440243862"><ele>112.19999999999999</ele><time>2026-04-07T16:23:25.001Z</time></trkpt><trkpt lat="45.317074266515185" lon="8.775636698662261"><ele>112.0</ele><time>2026-04-07T16:23:27.001Z</time></trkpt><trkpt lat="45.31700941408614" lon="8.775735982670298"><ele>112.0</ele><time>2026-04-07T16:23:29.001Z</time></trkpt><trkpt lat="45.316947433104964" lon="8.77583993724527"><ele>111.99999999999999</ele><time>2026-04-07T16:23:31.001Z</time></trkpt><trkpt lat="45.31688388238116" lon="8.775939939603653"><ele>111.99999999999999</ele><time>2026-04-07T16:23:33.001Z</time></trkpt><trkpt lat="45.31682234086605" lon="8.776032161681231"><ele>112.0</ele><time>2026-04-07T16:23:35.001Z</time></trkpt><trkpt lat="45.31676045063272" lon="8.77612222740176"><ele>112.0</ele><time>2026-04-07T16:23:37.001Z</time></trkpt><trkpt lat="45.31670222540255" lon="8.776213103068262"><ele>112.00000000000001</ele><time>2026-04-07T16:23:39.001Z</time></trkpt><trkpt lat="45.31664252630136" lon="8.77630239557637"><ele>112.0</ele><time>2026-04-07T16:23:41.001Z</time></trkpt><trkpt lat="45.3165828534953" lon="8.776385911775048"><ele>112.0</ele><time>2026-04-07T16:23:43.001Z</time></trkpt><trkpt lat="45.31652670338307" lon="8.776474662569724"><ele>112.0</ele><time>2026-04-07T16:23:45Z</time></trkpt><trkpt lat="45.31646942215421" lon="8.776562256919973"><ele>112.00000000000001</ele><time>2026-04-07T16:23:47Z</time></trkpt><trkpt lat="45.31641158853195" lon="8.776646690340469"><ele>112.0</ele><time>2026-04-07T16:23:49Z</time></trkpt><trkpt lat="45.316354652613775" lon="8.776732378453461"><ele>112.00000000000001</ele><time>2026-04-07T16:23:51Z</time></trkpt><trkpt lat="45.316296864300114" lon="8.776818094342286"><ele>112.0</ele><time>2026-04-07T16:23:53Z</time></trkpt><trkpt lat="45.31624043412863" lon="8.776905994739177"><ele>112.0</ele><time>2026-04-07T16:23:55Z</time></trkpt><trkpt lat="45.316182366229505" lon="8.776995991949756"><ele>112.0</ele><time>2026-04-07T16:23:57Z</time></trkpt><trkpt lat="45.31612196919855" lon="8.777088316329037"><ele>112.00000000000001</ele><time>2026-04-07T16:23:59Z</time></trkpt><trkpt lat="45.31605877089417" lon="8.777176500490325"><ele>112.0</ele><time>2026-04-07T16:24:01Z</time></trkpt><trkpt lat="45.31599421227384" lon="8.777271797144907"><ele>112.0</ele><time>2026-04-07T16:24:03Z</time></trkpt><trkpt lat="45.31592991332593" lon="8.777369397693791"><ele>111.99999999999999</ele><time>2026-04-07T16:24:05Z</time></trkpt><trkpt lat="45.31586397916566" lon="8.777462771294031"><ele>111.99999999999999</ele><time>2026-04-07T16:24:07Z</time></trkpt><trkpt lat="45.31580441173443" lon="8.777564702077711"><ele>112.0</ele><time>2026-04-07T16:24:09Z</time></trkpt><trkpt lat="45.31574662140122" lon="8.777673166605114"><ele>112.0</ele><time>2026-04-07T16:24:11Z</time></trkpt><trkpt lat="45.31568660975139" lon="8.777784079810464"><ele>111.6</ele><time>2026-04-07T16:24:13Z</time></trkpt><trkpt lat="45.31562871872501" lon="8.777898418866062"><ele>111.19999999999999</ele><time>2026-04-07T16:24:15Z</time></trkpt><trkpt lat="45.315568304208035" lon="8.77801223741647"><ele>110.8</ele><time>2026-04-07T16:24:17Z</time></trkpt><trkpt lat="45.31550418089548" lon="8.778124142344337"><ele>110.4</ele><time>2026-04-07T16:24:19Z</time></trkpt><trkpt lat="45.31543847125891" lon="8.778231149156971"><ele>110.0</ele><time>2026-04-07T16:24:21Z</time></trkpt><trkpt lat="45.31536976726706" lon="8.778333249741516"><ele>110.4</ele><time>2026-04-07T16:24:23Z</time></trkpt><trkpt lat="45.31530044706521" lon="8.77843368464485"><ele>110.8</ele><time>2026-04-07T16:24:25Z</time></trkpt><trkpt lat="45.31523408717165" lon="8.778535413049838"><ele>111.19999999999999</ele><time>2026-04-07T16:24:27Z</time></trkpt><trkpt lat="45.31516444285419" lon="8.778637742306495"><ele>111.6</ele><time>2026-04-07T16:24:29Z</time></trkpt><trkpt lat="45.31509198283792" lon="8.77873652604306"><ele>112.0</ele><time>2026-04-07T16:24:31Z</time></trkpt><trkpt lat="45.31502242656893" lon="8.778841957501399"><ele>112.0</ele><time>2026-04-07T16:24:33Z</time></trkpt><trkpt lat="45.31495226583002" lon="8.77894689807751"><ele>111.99999999999999</ele><time>2026-04-07T16:24:35Z</time></trkpt><trkpt lat="45.31488415020331" lon="8.779047833164812"><ele>111.99999999999999</ele><time>2026-04-07T16:24:37Z</time></trkpt><trkpt lat="45.314817030555815" lon="8.779145943852246"><ele>112.0</ele><time>2026-04-07T16:24:39Z</time></trkpt><trkpt lat="45.31475062059932" lon="8.779245297882293"><ele>112.0</ele><time>2026-04-07T16:24:41Z</time></trkpt><trkpt lat="45.314683925083926" lon="8.779343565065085"><ele>111.6</ele><time>2026-04-07T16:24:43Z</time></trkpt><trkpt lat="45.314618856369364" lon="8.779443552646185"><ele>111.19999999999999</ele><time>2026-04-07T16:24:45Z</time></trkpt><trkpt lat="45.31455332597133" lon="8.779539950870786"><ele>110.8</ele><time>2026-04-07T16:24:47Z</time></trkpt><trkpt lat="45.3144904844815" lon="8.77963976203706"><ele>110.4</ele><time>2026-04-07T16:24:49Z</time></trkpt><trkpt lat="45.31442874353872" lon="8.779742397763215"><ele>110.0</ele><time>2026-04-07T16:24:51Z</time></trkpt><trkpt lat="45.314367996507656" lon="8.779842168237368"><ele>110.0</ele><time>2026-04-07T16:24:53Z</time></trkpt><trkpt lat="45.31430849393678" lon="8.779944091143893"><ele>110.0</ele><time>2026-04-07T16:24:55Z</time></trkpt><trkpt lat="45.314251699852385" lon="8.780048611864421"><ele>110.0</ele><time>2026-04-07T16:24:57.001Z</time></trkpt><trkpt lat="45.314198939248385" lon="8.780156171253271"><ele>110.0</ele><time>2026-04-07T16:24:59.001Z</time></trkpt><trkpt lat="45.31414906399928" lon="8.780268277586384"><ele>110.0</ele><time>2026-04-07T16:25:01.001Z</time></trkpt><trkpt lat="45.31410514218299" lon="8.78038107363514"><ele>110.0</ele><time>2026-04-07T16:25:03.001Z</time></trkpt><trkpt lat="45.31405844690264" lon="8.780495222599177"><ele>110.0</ele><time>2026-04-07T16:25:05.001Z</time></trkpt><trkpt lat="45.314013467735315" lon="8.780608753704552"><ele>110.0</ele><time>2026-04-07T16:25:07.001Z</time></trkpt><trkpt lat="45.313967187472734" lon="8.780724470927577"><ele>110.0</ele><time>2026-04-07T16:25:09.001Z</time></trkpt><trkpt lat="45.31391976861203" lon="8.780840039687506"><ele>110.0</ele><time>2026-04-07T16:25:11.001Z</time></trkpt><trkpt lat="45.31387407737605" lon="8.780950844608872"><ele>110.2</ele><time>2026-04-07T16:25:13.001Z</time></trkpt><trkpt lat="45.31383077084548" lon="8.781068175328551"><ele>110.4</ele><time>2026-04-07T16:25:15.001Z</time></trkpt><trkpt lat="45.31378645915079" lon="8.781183553519332"><ele>110.6</ele><time>2026-04-07T16:25:17.001Z</time></trkpt><trkpt lat="45.3137437875223" lon="8.781299183844824"><ele>110.8</ele><time>2026-04-07T16:25:19.001Z</time></trkpt><trkpt lat="45.31369471990401" lon="8.781408516232233"><ele>111.0</ele><time>2026-04-07T16:25:21.001Z</time></trkpt><trkpt lat="45.31365073962761" lon="8.781519693676673"><ele>111.0</ele><time>2026-04-07T16:25:23.001Z</time></trkpt><trkpt lat="45.3136049532514" lon="8.781632026781017"><ele>111.0</ele><time>2026-04-07T16:25:25.001Z</time></trkpt><trkpt lat="45.31355854892794" lon="8.781742017405481"><ele>111.0</ele><time>2026-04-07T16:25:27.001Z</time></trkpt><trkpt lat="45.31351439928176" lon="8.781851783372614"><ele>111.0</ele><time>2026-04-07T16:25:29.001Z</time></trkpt><trkpt lat="45.31346353487601" lon="8.781964362431387"><ele>111.0</ele><time>2026-04-07T16:25:31.001Z</time></trkpt><trkpt lat="45.313410066815045" lon="8.782062639832246"><ele>110.83333333333333</ele><time>2026-04-07T16:25:33.001Z</time></trkpt><trkpt lat="45.31335439135238" lon="8.782158212381294"><ele>110.66666666666666</ele><time>2026-04-07T16:25:35.001Z</time></trkpt><trkpt lat="45.313292096068196" lon="8.782247636356612"><ele>110.5</ele><time>2026-04-07T16:25:37.001Z</time></trkpt><trkpt lat="45.31323073759414" lon="8.782339390626571"><ele>110.33333333333333</ele><time>2026-04-07T16:25:39.001Z</time></trkpt><trkpt lat="45.31316531974789" lon="8.782425447143114"><ele>110.16666666666666</ele><time>2026-04-07T16:25:41.001Z</time></trkpt><trkpt lat="45.31309853886023" lon="8.782508090652103"><ele>110.0</ele><time>2026-04-07T16:25:43.001Z</time></trkpt><trkpt lat="45.31303162061344" lon="8.782598316079039"><ele>110.0</ele><time>2026-04-07T16:25:45.001Z</time></trkpt><trkpt lat="45.31296512760972" lon="8.782674531380396"><ele>110.0</ele><time>2026-04-07T16:25:47.001Z</time></trkpt><trkpt lat="45.312900280868504" lon="8.782760780708069"><ele>110.0</ele><time>2026-04-07T16:25:49.001Z</time></trkpt><trkpt lat="45.312830705063476" lon="8.782843118694784"><ele>110.0</ele><time>2026-04-07T16:25:51Z</time></trkpt><trkpt lat="45.31275841986395" lon="8.78292654502035"><ele>110.0</ele><time>2026-04-07T16:25:53Z</time></trkpt><trkpt lat="45.312687272932635" lon="8.783009679699477"><ele>110.2</ele><time>2026-04-07T16:25:55Z</time></trkpt><trkpt lat="45.312618013532834" lon="8.78310082439313"><ele>110.4</ele><time>2026-04-07T16:25:57Z</time></trkpt><trkpt lat="45.3125490351641" lon="8.783188964891341"><ele>110.6</ele><time>2026-04-07T16:25:59Z</time></trkpt><trkpt lat="45.31247998000232" lon="8.78327836414458"><ele>110.8</ele><time>2026-04-07T16:26:01Z</time></trkpt><trkpt lat="45.31240966659399" lon="8.783371241518894"><ele>111.0</ele><time>2026-04-07T16:26:03Z</time></trkpt><trkpt lat="45.312335619000734" lon="8.783468813937858"><ele>111.0</ele><time>2026-04-07T16:26:05Z</time></trkpt><trkpt lat="45.312257269678696" lon="8.783568171953288"><ele>111.0</ele><time>2026-04-07T16:26:07Z</time></trkpt><trkpt lat="45.31218209275745" lon="8.783672865022707"><ele>111.0</ele><time>2026-04-07T16:26:09Z</time></trkpt><trkpt lat="45.31210186045634" lon="8.783784210601187"><ele>111.0</ele><time>2026-04-07T16:26:11Z</time></trkpt><trkpt lat="45.31201804585845" lon="8.78389962141258"><ele>111.0</ele><time>2026-04-07T16:26:13Z</time></trkpt><trkpt lat="45.31193439483528" lon="8.784020433418139"><ele>110.8</ele><time>2026-04-07T16:26:15Z</time></trkpt><trkpt lat="45.31184657288743" lon="8.784137932285068"><ele>110.6</ele><time>2026-04-07T16:26:17Z</time></trkpt><trkpt lat="45.31175604829835" lon="8.784254220664252"><ele>110.4</ele><time>2026-04-07T16:26:19Z</time></trkpt><trkpt lat="45.31171013266821" lon="8.784316904932515"><ele>110.2</ele><time>2026-04-07T16:26:20Z</time></trkpt><trkpt lat="45.31161761775069" lon="8.784438935060445"><ele>110.0</ele><time>2026-04-07T16:26:22Z</time></trkpt><trkpt lat="45.311570137065495" lon="8.784502413336533"><ele>109.99999999999999</ele><time>2026-04-07T16:26:23Z</time></trkpt><trkpt lat="45.311476528943" lon="8.78462449417803"><ele>110.0</ele><time>2026-04-07T16:26:25Z</time></trkpt><trkpt lat="45.311429817811614" lon="8.7846847700678"><ele>110.0</ele><time>2026-04-07T16:26:26Z</time></trkpt><trkpt lat="45.311381890440316" lon="8.78474916471011"><ele>110.0</ele><time>2026-04-07T16:26:27Z</time></trkpt><trkpt lat="45.31128551890172" lon="8.78486616902446"><ele>109.99999999999999</ele><time>2026-04-07T16:26:29Z</time></trkpt><trkpt lat="45.311236432659705" lon="8.78492985106295"><ele>110.0</ele><time>2026-04-07T16:26:30Z</time></trkpt><trkpt lat="45.31119021184897" lon="8.784993066590998"><ele>110.0</ele><time>2026-04-07T16:26:31Z</time></trkpt><trkpt lat="45.31114513391947" lon="8.785058509572798"><ele>110.0</ele><time>2026-04-07T16:26:32Z</time></trkpt><trkpt lat="45.31110217068922" lon="8.785127064998221"><ele>110.0</ele><time>2026-04-07T16:26:33Z</time></trkpt><trkpt lat="45.31102038843358" lon="8.785265877394293"><ele>110.0</ele><time>2026-04-07T16:26:35Z</time></trkpt><trkpt lat="45.310945462638294" lon="8.785408070751206"><ele>110.0</ele><time>2026-04-07T16:26:37Z</time></trkpt><trkpt lat="45.31087895267465" lon="8.785555384809284"><ele>110.0</ele><time>2026-04-07T16:26:39Z</time></trkpt><trkpt lat="45.31081999847506" lon="8.785697933325045"><ele>110.0</ele><time>2026-04-07T16:26:41Z</time></trkpt><trkpt lat="45.31076020533602" lon="8.785833392959727"><ele>110.0</ele><time>2026-04-07T16:26:43Z</time></trkpt><trkpt lat="45.310707943198985" lon="8.785974827869106"><ele>110.0</ele><time>2026-04-07T16:26:45Z</time></trkpt><trkpt lat="45.31066174123477" lon="8.786117101322583"><ele>110.0</ele><time>2026-04-07T16:26:47Z</time></trkpt><trkpt lat="45.310629671650254" lon="8.786266773754505"><ele>110.0</ele><time>2026-04-07T16:26:49Z</time></trkpt><trkpt lat="45.31061508407641" lon="8.786423322623689"><ele>110.0</ele><time>2026-04-07T16:26:51.001Z</time></trkpt><trkpt lat="45.310603345615135" lon="8.786578979409343"><ele>110.0</ele><time>2026-04-07T16:26:53.001Z</time></trkpt><trkpt lat="45.310594439820136" lon="8.78673226363977"><ele>110.0</ele><time>2026-04-07T16:26:55.001Z</time></trkpt><trkpt lat="45.310574130210014" lon="8.786885221066909"><ele>110.0</ele><time>2026-04-07T16:26:57.001Z</time></trkpt><trkpt lat="45.310549054740264" lon="8.787033821014816"><ele>110.0</ele><time>2026-04-07T16:26:59.001Z</time></trkpt><trkpt lat="45.31051356285857" lon="8.78716760168943"><ele>110.0</ele><time>2026-04-07T16:27:01.001Z</time></trkpt><trkpt lat="45.31046454970861" lon="8.787284831205557"><ele>110.0</ele><time>2026-04-07T16:27:03.001Z</time></trkpt><trkpt lat="45.310410963970945" lon="8.787384280703339"><ele>110.0</ele><time>2026-04-07T16:27:05.001Z</time></trkpt><trkpt lat="45.31035590076111" lon="8.787475995890267"><ele>109.99999999999999</ele><time>2026-04-07T16:27:07.001Z</time></trkpt><trkpt lat="45.31030481679829" lon="8.787567560793928"><ele>110.0</ele><time>2026-04-07T16:27:09.001Z</time></trkpt><trkpt lat="45.31027597236067" lon="8.787663290299019"><ele>110.0</ele><time>2026-04-07T16:27:11.001Z</time></trkpt><trkpt lat="45.310298070285846" lon="8.787772774069309"><ele>110.0</ele><time>2026-04-07T16:27:13.001Z</time></trkpt><trkpt lat="45.31035880583477" lon="8.787865509701133"><ele>109.99999999999999</ele><time>2026-04-07T16:27:15.001Z</time></trkpt><trkpt lat="45.310421052525896" lon="8.787968193715306"><ele>110.0</ele><time>2026-04-07T16:27:17.001Z</time></trkpt><trkpt lat="45.310487735274386" lon="8.788073746734332"><ele>109.8</ele><time>2026-04-07T16:27:19.001Z</time></trkpt><trkpt lat="45.31055012053746" lon="8.788192798697859"><ele>109.6</ele><time>2026-04-07T16:27:21.001Z</time></trkpt><trkpt lat="45.310617076552624" lon="8.78831229986555"><ele>109.4</ele><time>2026-04-07T16:27:23.001Z</time></trkpt><trkpt lat="45.31068386978301" lon="8.788428850688017"><ele>109.2</ele><time>2026-04-07T16:27:25.001Z</time></trkpt><trkpt lat="45.3107547375858" lon="8.788547566438188"><ele>109.0</ele><time>2026-04-07T16:27:27.001Z</time></trkpt><trkpt lat="45.31082403566094" lon="8.788662401061647"><ele>108.80000000000001</ele><time>2026-04-07T16:27:29.001Z</time></trkpt><trkpt lat="45.31089251059042" lon="8.788779334456883"><ele>108.60000000000001</ele><time>2026-04-07T16:27:31.001Z</time></trkpt><trkpt lat="45.31096046526153" lon="8.788900819968969"><ele>108.4</ele><time>2026-04-07T16:27:33.001Z</time></trkpt><trkpt lat="45.311026891936876" lon="8.789025805649331"><ele>108.2</ele><time>2026-04-07T16:27:35.001Z</time></trkpt><trkpt lat="45.3110934609435" lon="8.78915175956933"><ele>108.0</ele><time>2026-04-07T16:27:37.001Z</time></trkpt><trkpt lat="45.31115893037588" lon="8.789274131834942"><ele>108.2</ele><time>2026-04-07T16:27:39.001Z</time></trkpt><trkpt lat="45.311223381413676" lon="8.789397205213909"><ele>108.4</ele><time>2026-04-07T16:27:41.001Z</time></trkpt><trkpt lat="45.31129229089489" lon="8.789517720744481"><ele>108.60000000000001</ele><time>2026-04-07T16:27:43.001Z</time></trkpt><trkpt lat="45.31135970095029" lon="8.789632498273772"><ele>108.80000000000001</ele><time>2026-04-07T16:27:45.001Z</time></trkpt><trkpt lat="45.31142940161643" lon="8.78974996975157"><ele>109.0</ele><time>2026-04-07T16:27:47.001Z</time></trkpt><trkpt lat="45.31149804306487" lon="8.78987157216434"><ele>109.25</ele><time>2026-04-07T16:27:49.001Z</time></trkpt><trkpt lat="45.311580354289866" lon="8.789991236991884"><ele>109.5</ele><time>2026-04-07T16:27:51.001Z</time></trkpt><trkpt lat="45.31165218654241" lon="8.790125097480546"><ele>109.75</ele><time>2026-04-07T16:27:53.001Z</time></trkpt><trkpt lat="45.31171322256033" lon="8.79025375908542"><ele>110.0</ele><time>2026-04-07T16:27:55.001Z</time></trkpt><trkpt lat="45.311777253806945" lon="8.790378615991845"><ele>109.4</ele><time>2026-04-07T16:27:57Z</time></trkpt><trkpt lat="45.311843083417905" lon="8.790497228730061"><ele>108.8</ele><time>2026-04-07T16:27:59Z</time></trkpt><trkpt lat="45.311907209158534" lon="8.790615320279397"><ele>108.19999999999999</ele><time>2026-04-07T16:28:01Z</time></trkpt><trkpt lat="45.31196780778049" lon="8.790736967171487"><ele>107.6</ele><time>2026-04-07T16:28:03Z</time></trkpt><trkpt lat="45.31202427973125" lon="8.790864354463265"><ele>107.0</ele><time>2026-04-07T16:28:05Z</time></trkpt><trkpt lat="45.312095804827585" lon="8.790975922106869"><ele>107.19999999999999</ele><time>2026-04-07T16:28:07Z</time></trkpt><trkpt lat="45.312164798338316" lon="8.791092105000649"><ele>107.39999999999999</ele><time>2026-04-07T16:28:09Z</time></trkpt><trkpt lat="45.31223646299914" lon="8.791205526811343"><ele>107.60000000000001</ele><time>2026-04-07T16:28:11Z</time></trkpt><trkpt lat="45.31230554071884" lon="8.791327480640533"><ele>107.80000000000001</ele><time>2026-04-07T16:28:13Z</time></trkpt><trkpt lat="45.31237648423166" lon="8.791449059570656"><ele>108.0</ele><time>2026-04-07T16:28:15Z</time></trkpt><trkpt lat="45.312441695873574" lon="8.791577524358313"><ele>107.60000000000001</ele><time>2026-04-07T16:28:17Z</time></trkpt><trkpt lat="45.31250713806673" lon="8.791703227973839"><ele>107.20000000000002</ele><time>2026-04-07T16:28:19Z</time></trkpt><trkpt lat="45.31257365693526" lon="8.791826751016778"><ele>106.8</ele><time>2026-04-07T16:28:21Z</time></trkpt><trkpt lat="45.3126423655131" lon="8.791951490477011"><ele>106.4</ele><time>2026-04-07T16:28:23Z</time></trkpt><trkpt lat="45.31270398026984" lon="8.792066393861388"><ele>106.0</ele><time>2026-04-07T16:28:25Z</time></trkpt><trkpt lat="45.312765653958316" lon="8.792174677591575"><ele>106.0</ele><time>2026-04-07T16:28:27Z</time></trkpt><trkpt lat="45.31283465188889" lon="8.792286064427238"><ele>106.0</ele><time>2026-04-07T16:28:29Z</time></trkpt><trkpt lat="45.312902245113605" lon="8.792402083563791"><ele>106.0</ele><time>2026-04-07T16:28:31Z</time></trkpt><trkpt lat="45.312970812133834" lon="8.792517726931067"><ele>106.0</ele><time>2026-04-07T16:28:33Z</time></trkpt><trkpt lat="45.31303572585421" lon="8.79263694642873"><ele>106.0</ele><time>2026-04-07T16:28:35Z</time></trkpt><trkpt lat="45.3130992750028" lon="8.7927582948017"><ele>106.0</ele><time>2026-04-07T16:28:37Z</time></trkpt><trkpt lat="45.31316139604214" lon="8.792880032941069"><ele>106.0</ele><time>2026-04-07T16:28:39Z</time></trkpt><trkpt lat="45.31323009081399" lon="8.792998418772834"><ele>106.0</ele><time>2026-04-07T16:28:41Z</time></trkpt><trkpt lat="45.313301032096426" lon="8.79312016902543"><ele>106.0</ele><time>2026-04-07T16:28:43Z</time></trkpt><trkpt lat="45.31336898334114" lon="8.793243906494412"><ele>106.0</ele><time>2026-04-07T16:28:45Z</time></trkpt><trkpt lat="45.31344242801445" lon="8.793370244783898"><ele>106.0</ele><time>2026-04-07T16:28:47Z</time></trkpt><trkpt lat="45.31351359315599" lon="8.79350131315095"><ele>106.0</ele><time>2026-04-07T16:28:49Z</time></trkpt><trkpt lat="45.3135832061344" lon="8.79362784921274"><ele>106.0</ele><time>2026-04-07T16:28:51Z</time></trkpt><trkpt lat="45.313651797755696" lon="8.793751395567307"><ele>106.0</ele><time>2026-04-07T16:28:53.001Z</time></trkpt><trkpt lat="45.31372091655124" lon="8.793877249650237"><ele>106.0</ele><time>2026-04-07T16:28:55.001Z</time></trkpt><trkpt lat="45.313793754939965" lon="8.794001615504484"><ele>106.0</ele><time>2026-04-07T16:28:57.001Z</time></trkpt><trkpt lat="45.313862525408695" lon="8.794131632531377"><ele>106.0</ele><time>2026-04-07T16:28:59.001Z</time></trkpt><trkpt lat="45.313932887853206" lon="8.794259918190537"><ele>106.0</ele><time>2026-04-07T16:29:01.001Z</time></trkpt><trkpt lat="45.314004177708284" lon="8.794383587688817"><ele>106.0</ele><time>2026-04-07T16:29:03.001Z</time></trkpt><trkpt lat="45.31407925706007" lon="8.794501610141571"><ele>106.0</ele><time>2026-04-07T16:29:05.001Z</time></trkpt><trkpt lat="45.31414859991361" lon="8.79462712121122"><ele>106.0</ele><time>2026-04-07T16:29:07.001Z</time></trkpt><trkpt lat="45.31421646875108" lon="8.794754351610168"><ele>106.0</ele><time>2026-04-07T16:29:09.001Z</time></trkpt><trkpt lat="45.3142856390141" lon="8.794875777442789"><ele>106.0</ele><time>2026-04-07T16:29:11.001Z</time></trkpt><trkpt lat="45.314350703799775" lon="8.795003562857975"><ele>106.0</ele><time>2026-04-07T16:29:13.001Z</time></trkpt><trkpt lat="45.31442307448191" lon="8.795122869596499"><ele>106.0</ele><time>2026-04-07T16:29:15.001Z</time></trkpt><trkpt lat="45.31449312777351" lon="8.795244479497672"><ele>106.0</ele><time>2026-04-07T16:29:17.001Z</time></trkpt><trkpt lat="45.31456310174084" lon="8.79536367487377"><ele>106.0</ele><time>2026-04-07T16:29:19.001Z</time></trkpt><trkpt lat="45.31463206749517" lon="8.795483374148063"><ele>106.0</ele><time>2026-04-07T16:29:21.001Z</time></trkpt><trkpt lat="45.31470127798928" lon="8.79560162964003"><ele>106.19999999999999</ele><time>2026-04-07T16:29:23.001Z</time></trkpt><trkpt lat="45.31476883129052" lon="8.795722898195013"><ele>106.39999999999999</ele><time>2026-04-07T16:29:25.001Z</time></trkpt><trkpt lat="45.31483896515612" lon="8.795842590832292"><ele>106.6</ele><time>2026-04-07T16:29:27.001Z</time></trkpt><trkpt lat="45.31491284017403" lon="8.79596367179025"><ele>106.8</ele><time>2026-04-07T16:29:29.001Z</time></trkpt><trkpt lat="45.314985443835795" lon="8.796082356449027"><ele>107.0</ele><time>2026-04-07T16:29:31.001Z</time></trkpt><trkpt lat="45.315057262577014" lon="8.796193783823064"><ele>107.19999999999999</ele><time>2026-04-07T16:29:33.001Z</time></trkpt><trkpt lat="45.31509252939308" lon="8.7963276610072"><ele>107.39999999999999</ele><time>2026-04-07T16:29:35.001Z</time></trkpt><trkpt lat="45.31505628781925" lon="8.79647251336256"><ele>107.60000000000001</ele><time>2026-04-07T16:29:37.001Z</time></trkpt><trkpt lat="45.315004662406096" lon="8.796599911387437"><ele>107.80000000000001</ele><time>2026-04-07T16:29:39.001Z</time></trkpt><trkpt lat="45.314915343564614" lon="8.796673038265777"><ele>108.0</ele><time>2026-04-07T16:29:41.001Z</time></trkpt><trkpt lat="45.31482675499761" lon="8.796738955170987"><ele>108.0</ele><time>2026-04-07T16:29:43.001Z</time></trkpt><trkpt lat="45.31474364241549" lon="8.796822365714918"><ele>108.00000000000001</ele><time>2026-04-07T16:29:45.001Z</time></trkpt><trkpt lat="45.31465850803517" lon="8.796901446830825"><ele>108.00000000000001</ele><time>2026-04-07T16:29:47.001Z</time></trkpt><trkpt lat="45.31457302291994" lon="8.796975289966666"><ele>108.0</ele><time>2026-04-07T16:29:49.001Z</time></trkpt><trkpt lat="45.31448791924258" lon="8.797055409461922"><ele>108.0</ele><time>2026-04-07T16:29:51.001Z</time></trkpt><trkpt lat="45.31440107445917" lon="8.797134174624546"><ele>107.60000000000001</ele><time>2026-04-07T16:29:53.001Z</time></trkpt><trkpt lat="45.314316277786496" lon="8.797218333611465"><ele>107.20000000000002</ele><time>2026-04-07T16:29:55.001Z</time></trkpt><trkpt lat="45.31422714412501" lon="8.797294522832159"><ele>106.8</ele><time>2026-04-07T16:29:57.001Z</time></trkpt><trkpt lat="45.31414020775669" lon="8.797367348158396"><ele>106.4</ele><time>2026-04-07T16:29:59.001Z</time></trkpt><trkpt lat="45.31405539938772" lon="8.797448125525184"><ele>106.0</ele><time>2026-04-07T16:30:01.001Z</time></trkpt><trkpt lat="45.31397071446525" lon="8.79752582246236"><ele>106.0</ele><time>2026-04-07T16:30:03Z</time></trkpt><trkpt lat="45.31388637408029" lon="8.797603347159445"><ele>106.0</ele><time>2026-04-07T16:30:05Z</time></trkpt><trkpt lat="45.313803144537076" lon="8.797676888266269"><ele>106.0</ele><time>2026-04-07T16:30:07Z</time></trkpt><trkpt lat="45.31372155736271" lon="8.79775339960261"><ele>106.0</ele><time>2026-04-07T16:30:09Z</time></trkpt><trkpt lat="45.31363966547281" lon="8.797826775681159"><ele>106.0</ele><time>2026-04-07T16:30:11Z</time></trkpt><trkpt lat="45.31355824482539" lon="8.797900972227005"><ele>106.0</ele><time>2026-04-07T16:30:13Z</time></trkpt><trkpt lat="45.31348055088275" lon="8.797970602027503"><ele>106.0</ele><time>2026-04-07T16:30:15Z</time></trkpt><trkpt lat="45.313400278945494" lon="8.798040177288856"><ele>106.0</ele><time>2026-04-07T16:30:17Z</time></trkpt><trkpt lat="45.313323008746785" lon="8.798113345513062"><ele>106.0</ele><time>2026-04-07T16:30:19Z</time></trkpt><trkpt lat="45.31324392419604" lon="8.798182491219904"><ele>106.0</ele><time>2026-04-07T16:30:21Z</time></trkpt><trkpt lat="45.31316404945206" lon="8.79825568431023"><ele>106.0</ele><time>2026-04-07T16:30:23Z</time></trkpt><trkpt lat="45.313085310515355" lon="8.798328516142094"><ele>106.0</ele><time>2026-04-07T16:30:25Z</time></trkpt><trkpt lat="45.31300485927084" lon="8.798398407386706"><ele>106.0</ele><time>2026-04-07T16:30:27Z</time></trkpt><trkpt lat="45.31292471562053" lon="8.79847125647168"><ele>106.0</ele><time>2026-04-07T16:30:29Z</time></trkpt><trkpt lat="45.312846318132415" lon="8.798544246182786"><ele>106.0</ele><time>2026-04-07T16:30:31Z</time></trkpt><trkpt lat="45.312765550018575" lon="8.798610038262188"><ele>106.16666666666667</ele><time>2026-04-07T16:30:33Z</time></trkpt><trkpt lat="45.312688163563486" lon="8.798677029401707"><ele>106.33333333333334</ele><time>2026-04-07T16:30:35Z</time></trkpt><trkpt lat="45.31261478762116" lon="8.798737935695314"><ele>106.5</ele><time>2026-04-07T16:30:37Z</time></trkpt><trkpt lat="45.312543536305945" lon="8.798791415779927"><ele>106.66666666666666</ele><time>2026-04-07T16:30:39Z</time></trkpt><trkpt lat="45.31247597620874" lon="8.798839008520645"><ele>106.83333333333333</ele><time>2026-04-07T16:30:41Z</time></trkpt><trkpt lat="45.31241513725431" lon="8.798873001662455"><ele>107.0</ele><time>2026-04-07T16:30:43Z</time></trkpt><trkpt lat="45.31235658999574" lon="8.798909030125023"><ele>106.99999999999999</ele><time>2026-04-07T16:30:46Z</time></trkpt><trkpt lat="45.31239324925987" lon="8.798986557321298"><ele>107.0</ele><time>2026-04-07T16:31:41.001Z</time></trkpt><trkpt lat="45.312420202630776" lon="8.799078794264567"><ele>107.0</ele><time>2026-04-07T16:31:44.001Z</time></trkpt><trkpt lat="45.31244806850639" lon="8.799207226095605"><ele>107.0</ele><time>2026-04-07T16:31:47.001Z</time></trkpt><trkpt lat="45.31247630313219" lon="8.799303188041286"><ele>106.99999999999999</ele><time>2026-04-07T16:31:49.001Z</time></trkpt><trkpt lat="45.31250353664992" lon="8.799400250460225"><ele>107.0</ele><time>2026-04-07T16:31:51.001Z</time></trkpt><trkpt lat="45.31253047288058" lon="8.799500473144453"><ele>106.99999999999999</ele><time>2026-04-07T16:31:53.001Z</time></trkpt><trkpt lat="45.31255991586605" lon="8.799606381365907"><ele>107.0</ele><time>2026-04-07T16:31:55.001Z</time></trkpt><trkpt lat="45.312591837599264" lon="8.799714376496729"><ele>107.0</ele><time>2026-04-07T16:31:57.001Z</time></trkpt><trkpt lat="45.31262305711074" lon="8.799827442229796"><ele>107.0</ele><time>2026-04-07T16:31:59.001Z</time></trkpt><trkpt lat="45.31265548604751" lon="8.799944955265342"><ele>106.99999999999999</ele><time>2026-04-07T16:32:01.001Z</time></trkpt><trkpt lat="45.31268935441072" lon="8.800066836339516"><ele>107.0</ele><time>2026-04-07T16:32:03.001Z</time></trkpt><trkpt lat="45.31272237922071" lon="8.800195616870939"><ele>107.0</ele><time>2026-04-07T16:32:05.001Z</time></trkpt><trkpt lat="45.31275857587481" lon="8.800330546153734"><ele>106.99999999999999</ele><time>2026-04-07T16:32:07.001Z</time></trkpt><trkpt lat="45.312799396562" lon="8.800461698512056"><ele>106.99999999999999</ele><time>2026-04-07T16:32:09Z</time></trkpt><trkpt lat="45.31283407452368" lon="8.80060057613971"><ele>107.0</ele><time>2026-04-07T16:32:11Z</time></trkpt><trkpt lat="45.31287190694431" lon="8.80073759779259"><ele>107.0</ele><time>2026-04-07T16:32:13Z</time></trkpt><trkpt lat="45.31290834143463" lon="8.80086591476021"><ele>107.0</ele><time>2026-04-07T16:32:15Z</time></trkpt><trkpt lat="45.31294741315784" lon="8.80099415556506"><ele>106.99999999999999</ele><time>2026-04-07T16:32:17Z</time></trkpt><trkpt lat="45.31299238968842" lon="8.801126961636376"><ele>106.99999999999999</ele><time>2026-04-07T16:32:19Z</time></trkpt><trkpt lat="45.31303941480673" lon="8.801262797515014"><ele>107.0</ele><time>2026-04-07T16:32:21Z</time></trkpt><trkpt lat="45.31308707154604" lon="8.80139972095239"><ele>107.0</ele><time>2026-04-07T16:32:23Z</time></trkpt><trkpt lat="45.31313379287882" lon="8.801542076225564"><ele>107.0</ele><time>2026-04-07T16:32:25Z</time></trkpt><trkpt lat="45.313182135361394" lon="8.801682698168424"><ele>106.99999999999999</ele><time>2026-04-07T16:32:27Z</time></trkpt><trkpt lat="45.31322828144888" lon="8.801826978925689"><ele>106.99999999999999</ele><time>2026-04-07T16:32:29Z</time></trkpt><trkpt lat="45.313278283848526" lon="8.801970682493785"><ele>107.0</ele><time>2026-04-07T16:32:31Z</time></trkpt><trkpt lat="45.313324875901806" lon="8.80211302682266"><ele>107.0</ele><time>2026-04-07T16:32:33Z</time></trkpt><trkpt lat="45.313373944394904" lon="8.802254681016544"><ele>106.75</ele><time>2026-04-07T16:32:35Z</time></trkpt><trkpt lat="45.31341967327012" lon="8.80239817910828"><ele>106.5</ele><time>2026-04-07T16:32:37Z</time></trkpt><trkpt lat="45.31346108786122" lon="8.802547649188597"><ele>106.25</ele><time>2026-04-07T16:32:39Z</time></trkpt><trkpt lat="45.31349024764403" lon="8.802706368765522"><ele>106.0</ele><time>2026-04-07T16:32:41Z</time></trkpt><trkpt lat="45.31351183891459" lon="8.802865146362398"><ele>106.0</ele><time>2026-04-07T16:32:43Z</time></trkpt><trkpt lat="45.31352563228134" lon="8.803024570688816"><ele>106.0</ele><time>2026-04-07T16:32:45Z</time></trkpt><trkpt lat="45.313528940400865" lon="8.80318447573901"><ele>106.0</ele><time>2026-04-07T16:32:47Z</time></trkpt><trkpt lat="45.31353914256927" lon="8.803344566968045"><ele>106.0</ele><time>2026-04-07T16:32:49Z</time></trkpt><trkpt lat="45.313553932074484" lon="8.803505980724031"><ele>106.0</ele><time>2026-04-07T16:32:51Z</time></trkpt><trkpt lat="45.31356880798489" lon="8.803663746389569"><ele>106.0</ele><time>2026-04-07T16:32:53Z</time></trkpt><trkpt lat="45.31359589563666" lon="8.803819176893086"><ele>106.0</ele><time>2026-04-07T16:32:55Z</time></trkpt><trkpt lat="45.31363414454921" lon="8.803975494122493"><ele>106.0</ele><time>2026-04-07T16:32:57Z</time></trkpt><trkpt lat="45.31367740065579" lon="8.804121569642978"><ele>106.0</ele><time>2026-04-07T16:32:59Z</time></trkpt><trkpt lat="45.31372697242655" lon="8.804246751445804"><ele>106.0</ele><time>2026-04-07T16:33:01Z</time></trkpt><trkpt lat="45.31377105453021" lon="8.804342728217113"><ele>106.0</ele><time>2026-04-07T16:33:03Z</time></trkpt><trkpt lat="45.31381267738932" lon="8.804443209238684"><ele>106.0</ele><time>2026-04-07T16:33:05Z</time></trkpt><trkpt lat="45.31386393607721" lon="8.80455864119254"><ele>106.0</ele><time>2026-04-07T16:33:07.001Z</time></trkpt><trkpt lat="45.31393610331674" lon="8.804674480539143"><ele>105.8</ele><time>2026-04-07T16:33:09.001Z</time></trkpt><trkpt lat="45.31400650282319" lon="8.804793297252434"><ele>105.6</ele><time>2026-04-07T16:33:11.001Z</time></trkpt><trkpt lat="45.314075582714544" lon="8.804911473402678"><ele>105.4</ele><time>2026-04-07T16:33:13.001Z</time></trkpt><trkpt lat="45.31414778532575" lon="8.80503043552373"><ele>105.2</ele><time>2026-04-07T16:33:15.001Z</time></trkpt><trkpt lat="45.31421926855537" lon="8.805147093571392"><ele>105.0</ele><time>2026-04-07T16:33:17.001Z</time></trkpt><trkpt lat="45.314290874593446" lon="8.805266083570126"><ele>105.4</ele><time>2026-04-07T16:33:19.001Z</time></trkpt><trkpt lat="45.314363918733676" lon="8.80538196035152"><ele>105.8</ele><time>2026-04-07T16:33:21.001Z</time></trkpt><trkpt lat="45.314436308234384" lon="8.805500574946398"><ele>106.19999999999999</ele><time>2026-04-07T16:33:23.001Z</time></trkpt><trkpt lat="45.31450782860578" lon="8.805622051547742"><ele>106.6</ele><time>2026-04-07T16:33:25.001Z</time></trkpt><trkpt lat="45.31458242428231" lon="8.805747915821573"><ele>107.0</ele><time>2026-04-07T16:33:27.001Z</time></trkpt><trkpt lat="45.314663070195884" lon="8.805867361972425"><ele>106.75</ele><time>2026-04-07T16:33:29.001Z</time></trkpt><trkpt lat="45.314742021614755" lon="8.805984648378704"><ele>106.5</ele><time>2026-04-07T16:33:31.001Z</time></trkpt><trkpt lat="45.314823421495525" lon="8.806103078715934"><ele>106.25</ele><time>2026-04-07T16:33:33.001Z</time></trkpt><trkpt lat="45.314904556224825" lon="8.806222879479696"><ele>106.0</ele><time>2026-04-07T16:33:35.001Z</time></trkpt><trkpt lat="45.314991452657985" lon="8.806328976449217"><ele>106.0</ele><time>2026-04-07T16:33:37.001Z</time></trkpt><trkpt lat="45.315076850176716" lon="8.806431008114455"><ele>106.0</ele><time>2026-04-07T16:33:39.001Z</time></trkpt><trkpt lat="45.315153249698376" lon="8.806548152020044"><ele>106.0</ele><time>2026-04-07T16:33:41.001Z</time></trkpt><trkpt lat="45.31522403025794" lon="8.806669464741981"><ele>106.0</ele><time>2026-04-07T16:33:43.001Z</time></trkpt><trkpt lat="45.3152807107267" lon="8.806805317017965"><ele>106.0</ele><time>2026-04-07T16:33:45.001Z</time></trkpt><trkpt lat="45.31531199679175" lon="8.80696086893139"><ele>106.4</ele><time>2026-04-07T16:33:47.001Z</time></trkpt><trkpt lat="45.31532255636219" lon="8.807118257424428"><ele>106.8</ele><time>2026-04-07T16:33:49.001Z</time></trkpt><trkpt lat="45.315331665068896" lon="8.807276926819654"><ele>107.20000000000002</ele><time>2026-04-07T16:33:51.001Z</time></trkpt><trkpt lat="45.31534688994196" lon="8.807432609228867"><ele>107.60000000000001</ele><time>2026-04-07T16:33:53.001Z</time></trkpt><trkpt lat="45.315369725709544" lon="8.807583058734659"><ele>108.0</ele><time>2026-04-07T16:33:55.001Z</time></trkpt><trkpt lat="45.315396004111946" lon="8.80771925317195"><ele>108.0</ele><time>2026-04-07T16:33:57.001Z</time></trkpt><trkpt lat="45.31541494693169" lon="8.807838345661366"><ele>108.0</ele><time>2026-04-07T16:33:59.001Z</time></trkpt><trkpt lat="45.315392396277936" lon="8.807940136450554"><ele>108.0</ele><time>2026-04-07T16:34:01.001Z</time></trkpt><trkpt lat="45.31532619006007" lon="8.808000261555817"><ele>108.0</ele><time>2026-04-07T16:34:03.001Z</time></trkpt><trkpt lat="45.315240746015256" lon="8.808032384941287"><ele>108.0</ele><time>2026-04-07T16:34:05.001Z</time></trkpt><trkpt lat="45.315156591493825" lon="8.808075402689886"><ele>108.0</ele><time>2026-04-07T16:34:07.001Z</time></trkpt><trkpt lat="45.31507157591775" lon="8.808125606660163"><ele>108.0</ele><time>2026-04-07T16:34:09.001Z</time></trkpt><trkpt lat="45.31498529646922" lon="8.808178062718746"><ele>108.00000000000001</ele><time>2026-04-07T16:34:11.001Z</time></trkpt><trkpt lat="45.31489918787919" lon="8.808228748962529"><ele>108.00000000000001</ele><time>2026-04-07T16:34:13.001Z</time></trkpt><trkpt lat="45.31481308379938" lon="8.80827860907761"><ele>108.0</ele><time>2026-04-07T16:34:15Z</time></trkpt><trkpt lat="45.31472579126417" lon="8.808329858751524"><ele>108.0</ele><time>2026-04-07T16:34:17Z</time></trkpt><trkpt lat="45.31463966385517" lon="8.808381401740213"><ele>108.0</ele><time>2026-04-07T16:34:19Z</time></trkpt><trkpt lat="45.31455002255439" lon="8.808428884077362"><ele>108.00000000000001</ele><time>2026-04-07T16:34:21Z</time></trkpt><trkpt lat="45.314459974352864" lon="8.80847497497196"><ele>108.00000000000001</ele><time>2026-04-07T16:34:23Z</time></trkpt><trkpt lat="45.31437059535156" lon="8.808521219010263"><ele>108.0</ele><time>2026-04-07T16:34:25Z</time></trkpt><trkpt lat="45.3142836020746" lon="8.808568349401659"><ele>108.0</ele><time>2026-04-07T16:34:27Z</time></trkpt><trkpt lat="45.31419473387094" lon="8.808616793734227"><ele>108.0</ele><time>2026-04-07T16:34:29Z</time></trkpt><trkpt lat="45.314106030457495" lon="8.808661441441933"><ele>108.00000000000001</ele><time>2026-04-07T16:34:31Z</time></trkpt><trkpt lat="45.31401977690059" lon="8.808714844746017"><ele>108.00000000000001</ele><time>2026-04-07T16:34:33Z</time></trkpt><trkpt lat="45.31393448810696" lon="8.808759817970044"><ele>108.0</ele><time>2026-04-07T16:34:35Z</time></trkpt><trkpt lat="45.31384785391059" lon="8.808806594487086"><ele>108.0</ele><time>2026-04-07T16:34:37Z</time></trkpt><trkpt lat="45.31376188535549" lon="8.80885697476161"><ele>108.0</ele><time>2026-04-07T16:34:39Z</time></trkpt><trkpt lat="45.3136772370431" lon="8.80890426117057"><ele>108.0</ele><time>2026-04-07T16:34:41Z</time></trkpt><trkpt lat="45.31359247566507" lon="8.808947036674672"><ele>108.0</ele><time>2026-04-07T16:34:43Z</time></trkpt><trkpt lat="45.31350733306868" lon="8.808987613456056"><ele>108.0</ele><time>2026-04-07T16:34:45Z</time></trkpt><trkpt lat="45.31342349337918" lon="8.809030434696842"><ele>108.0</ele><time>2026-04-07T16:34:47Z</time></trkpt><trkpt lat="45.31333997500033" lon="8.809070545015594"><ele>108.0</ele><time>2026-04-07T16:34:49Z</time></trkpt><trkpt lat="45.313256530049806" lon="8.80912022804221"><ele>108.0</ele><time>2026-04-07T16:34:51Z</time></trkpt><trkpt lat="45.313174097459104" lon="8.809163367354074"><ele>108.0</ele><time>2026-04-07T16:34:53Z</time></trkpt><trkpt lat="45.31309031937719" lon="8.809200773155412"><ele>108.0</ele><time>2026-04-07T16:34:55Z</time></trkpt><trkpt lat="45.313011434214694" lon="8.809248301211825"><ele>108.0</ele><time>2026-04-07T16:34:57Z</time></trkpt><trkpt lat="45.31293005219751" lon="8.809288242486986"><ele>108.0</ele><time>2026-04-07T16:34:59Z</time></trkpt><trkpt lat="45.31284185624638" lon="8.809329384612683"><ele>108.0</ele><time>2026-04-07T16:35:01Z</time></trkpt><trkpt lat="45.31274812426604" lon="8.809345241702767"><ele>108.0</ele><time>2026-04-07T16:35:03Z</time></trkpt><trkpt lat="45.31265355301153" lon="8.80929568502097"><ele>108.00000000000001</ele><time>2026-04-07T16:35:05Z</time></trkpt><trkpt lat="45.31257726653354" lon="8.809196915563469"><ele>108.00000000000001</ele><time>2026-04-07T16:35:07Z</time></trkpt><trkpt lat="45.31250321488671" lon="8.809100810630527"><ele>108.0</ele><time>2026-04-07T16:35:09Z</time></trkpt><trkpt lat="45.31241198374618" lon="8.809035225911154"><ele>108.0</ele><time>2026-04-07T16:35:11Z</time></trkpt><trkpt lat="45.3123092860808" lon="8.809023891235597"><ele>107.80000000000001</ele><time>2026-04-07T16:35:13Z</time></trkpt><trkpt lat="45.312210771938744" lon="8.809048938989047"><ele>107.60000000000001</ele><time>2026-04-07T16:35:15Z</time></trkpt><trkpt lat="45.312120019969385" lon="8.809063431979332"><ele>107.39999999999999</ele><time>2026-04-07T16:35:17Z</time></trkpt><trkpt lat="45.31203071336893" lon="8.809079482166739"><ele>107.19999999999999</ele><time>2026-04-07T16:35:19Z</time></trkpt><trkpt lat="45.311946223908386" lon="8.809097711186993"><ele>107.0</ele><time>2026-04-07T16:35:21Z</time></trkpt><trkpt lat="45.311862083544625" lon="8.809116788124689"><ele>106.99999999999999</ele><time>2026-04-07T16:35:23Z</time></trkpt><trkpt lat="45.31177556018506" lon="8.80913037910212"><ele>107.0</ele><time>2026-04-07T16:35:25Z</time></trkpt><trkpt lat="45.311686061599055" lon="8.809139433362015"><ele>107.0</ele><time>2026-04-07T16:35:27Z</time></trkpt><trkpt lat="45.31159767651548" lon="8.809151891652823"><ele>107.0</ele><time>2026-04-07T16:35:29Z</time></trkpt><trkpt lat="45.31150746897145" lon="8.809164327749345"><ele>106.99999999999999</ele><time>2026-04-07T16:35:31Z</time></trkpt><trkpt lat="45.31141547280049" lon="8.809174013988747"><ele>107.0</ele><time>2026-04-07T16:35:33Z</time></trkpt><trkpt lat="45.3113242078088" lon="8.809185548534705"><ele>106.99999999999999</ele><time>2026-04-07T16:35:35.001Z</time></trkpt><trkpt lat="45.311235369660366" lon="8.809196729797746"><ele>107.0</ele><time>2026-04-07T16:35:37.001Z</time></trkpt><trkpt lat="45.31114508214255" lon="8.809207424811577"><ele>107.0</ele><time>2026-04-07T16:35:39.001Z</time></trkpt><trkpt lat="45.31105557867923" lon="8.809220964181625"><ele>107.0</ele><time>2026-04-07T16:35:41.001Z</time></trkpt><trkpt lat="45.31096766799333" lon="8.8092311602127"><ele>106.99999999999999</ele><time>2026-04-07T16:35:43.001Z</time></trkpt><trkpt lat="45.31087975706367" lon="8.809242973942816"><ele>107.0</ele><time>2026-04-07T16:35:45.001Z</time></trkpt><trkpt lat="45.310791555779986" lon="8.809256374239691"><ele>106.99999999999999</ele><time>2026-04-07T16:35:47.001Z</time></trkpt><trkpt lat="45.31070461841555" lon="8.809270305619302"><ele>107.0</ele><time>2026-04-07T16:35:49.001Z</time></trkpt><trkpt lat="45.31061688112834" lon="8.80929374560943"><ele>107.0</ele><time>2026-04-07T16:35:51.001Z</time></trkpt><trkpt lat="45.31053192653565" lon="8.809327805429625"><ele>107.0</ele><time>2026-04-07T16:35:53.001Z</time></trkpt><trkpt lat="45.31044852526516" lon="8.809376796563514"><ele>106.99999999999999</ele><time>2026-04-07T16:35:55.001Z</time></trkpt><trkpt lat="45.31036428494675" lon="8.809426067121164"><ele>107.0</ele><time>2026-04-07T16:35:57.001Z</time></trkpt><trkpt lat="45.31027790835696" lon="8.809469501536476"><ele>107.16666666666666</ele><time>2026-04-07T16:35:59.001Z</time></trkpt><trkpt lat="45.3101870489605" lon="8.809494352596658"><ele>107.33333333333333</ele><time>2026-04-07T16:36:01.001Z</time></trkpt><trkpt lat="45.310095844652515" lon="8.809509272380232"><ele>107.5</ele><time>2026-04-07T16:36:03.001Z</time></trkpt><trkpt lat="45.31000885153579" lon="8.809522026468908"><ele>107.66666666666666</ele><time>2026-04-07T16:36:05.001Z</time></trkpt><trkpt lat="45.30992073014789" lon="8.809535359314198"><ele>107.83333333333333</ele><time>2026-04-07T16:36:07.001Z</time></trkpt><trkpt lat="45.30983675973243" lon="8.809546909719662"><ele>108.0</ele><time>2026-04-07T16:36:09.001Z</time></trkpt><trkpt lat="45.30976089013114" lon="8.80955139828257"><ele>108.0</ele><time>2026-04-07T16:36:11.001Z</time></trkpt><trkpt lat="45.30968919045281" lon="8.809561382593252"><ele>108.0</ele><time>2026-04-07T16:36:13.001Z</time></trkpt><trkpt lat="45.30962254686766" lon="8.809569252704808"><ele>108.0</ele><time>2026-04-07T16:36:15.001Z</time></trkpt><trkpt lat="45.309534934489974" lon="8.809534178423666"><ele>108.0</ele><time>2026-04-07T16:36:18.001Z</time></trkpt><trkpt lat="45.3094654856852" lon="8.809450890055025"><ele>108.0</ele><time>2026-04-07T16:36:21Z</time></trkpt><trkpt lat="45.30943283559394" lon="8.809345012783465"><ele>108.0</ele><time>2026-04-07T16:36:23Z</time></trkpt><trkpt lat="45.30938629535207" lon="8.809241415789753"><ele>108.0</ele><time>2026-04-07T16:36:25Z</time></trkpt><trkpt lat="45.30931953346519" lon="8.809158453838805"><ele>108.00000000000001</ele><time>2026-04-07T16:36:27Z</time></trkpt><trkpt lat="45.30922856664319" lon="8.809119501543654"><ele>108.00000000000001</ele><time>2026-04-07T16:36:29Z</time></trkpt><trkpt lat="45.30913450714033" lon="8.809101403684936"><ele>108.0</ele><time>2026-04-07T16:36:31Z</time></trkpt><trkpt lat="45.309046325533146" lon="8.809059043307192"><ele>108.0</ele><time>2026-04-07T16:36:33Z</time></trkpt><trkpt lat="45.308951350505325" lon="8.80901944603575"><ele>107.60000000000001</ele><time>2026-04-07T16:36:35Z</time></trkpt><trkpt lat="45.30886767260178" lon="8.808940999956945"><ele>107.20000000000002</ele><time>2026-04-07T16:36:37Z</time></trkpt><trkpt lat="45.308804018286246" lon="8.808829006989507"><ele>106.8</ele><time>2026-04-07T16:36:39Z</time></trkpt><trkpt lat="45.30875101876338" lon="8.808721583807177"><ele>106.4</ele><time>2026-04-07T16:36:41Z</time></trkpt><trkpt lat="45.30870875462949" lon="8.808628910772486"><ele>106.0</ele><time>2026-04-07T16:36:43Z</time></trkpt><trkpt lat="45.30866334728687" lon="8.808538424406978"><ele>106.0</ele><time>2026-04-07T16:36:45Z</time></trkpt><trkpt lat="45.30861437011585" lon="8.808428611216302"><ele>106.0</ele><time>2026-04-07T16:36:47Z</time></trkpt><trkpt lat="45.30854389407462" lon="8.808316337407256"><ele>106.0</ele><time>2026-04-07T16:36:49Z</time></trkpt><trkpt lat="45.308466230758555" lon="8.8082104161453"><ele>106.0</ele><time>2026-04-07T16:36:51Z</time></trkpt><trkpt lat="45.30839547151896" lon="8.808105698869893"><ele>106.0</ele><time>2026-04-07T16:36:53Z</time></trkpt><trkpt lat="45.30832558073842" lon="8.808003555436512"><ele>106.0</ele><time>2026-04-07T16:36:55Z</time></trkpt><trkpt lat="45.30825653550154" lon="8.807898022599954"><ele>106.0</ele><time>2026-04-07T16:36:57Z</time></trkpt><trkpt lat="45.30819004919393" lon="8.807796424355338"><ele>106.0</ele><time>2026-04-07T16:36:59Z</time></trkpt><trkpt lat="45.30812569592721" lon="8.807694369369843"><ele>106.0</ele><time>2026-04-07T16:37:01Z</time></trkpt><trkpt lat="45.30806258939045" lon="8.807594690397853"><ele>106.0</ele><time>2026-04-07T16:37:03Z</time></trkpt><trkpt lat="45.307999626581385" lon="8.807493240424764"><ele>105.8</ele><time>2026-04-07T16:37:05Z</time></trkpt><trkpt lat="45.3079378530678" lon="8.80739132309261"><ele>105.6</ele><time>2026-04-07T16:37:07Z</time></trkpt><trkpt lat="45.307877338468835" lon="8.807287345502935"><ele>105.4</ele><time>2026-04-07T16:37:09Z</time></trkpt><trkpt lat="45.30781846753914" lon="8.807182442164114"><ele>105.2</ele><time>2026-04-07T16:37:11Z</time></trkpt><trkpt lat="45.3077594124241" lon="8.807076581725887"><ele>105.0</ele><time>2026-04-07T16:37:13Z</time></trkpt><trkpt lat="45.30770239286904" lon="8.806979239427438"><ele>105.0</ele><time>2026-04-07T16:37:15Z</time></trkpt><trkpt lat="45.30765007375472" lon="8.806872163277951"><ele>105.0</ele><time>2026-04-07T16:37:17Z</time></trkpt><trkpt lat="45.307591640263205" lon="8.806772773317874"><ele>105.0</ele><time>2026-04-07T16:37:19Z</time></trkpt><trkpt lat="45.307533448007156" lon="8.806671486564234"><ele>105.0</ele><time>2026-04-07T16:37:21Z</time></trkpt><trkpt lat="45.307478160691986" lon="8.806567754077165"><ele>105.0</ele><time>2026-04-07T16:37:23Z</time></trkpt><trkpt lat="45.30742388271075" lon="8.806465627085384"><ele>105.0</ele><time>2026-04-07T16:37:25Z</time></trkpt><trkpt lat="45.307365404949614" lon="8.806366114221815"><ele>105.0</ele><time>2026-04-07T16:37:27Z</time></trkpt><trkpt lat="45.307310492223145" lon="8.806264072911281"><ele>105.0</ele><time>2026-04-07T16:37:29Z</time></trkpt><trkpt lat="45.30725558150421" lon="8.806160961140035"><ele>105.0</ele><time>2026-04-07T16:37:31Z</time></trkpt><trkpt lat="45.30719835031668" lon="8.806058687883917"><ele>105.0</ele><time>2026-04-07T16:37:33Z</time></trkpt><trkpt lat="45.307141673059256" lon="8.805956329953705"><ele>104.83333333333333</ele><time>2026-04-07T16:37:35Z</time></trkpt><trkpt lat="45.30708537156136" lon="8.805857914886518"><ele>104.66666666666666</ele><time>2026-04-07T16:37:37Z</time></trkpt><trkpt lat="45.307028711175825" lon="8.805757958688744"><ele>104.5</ele><time>2026-04-07T16:37:39Z</time></trkpt><trkpt lat="45.30697219467095" lon="8.805657594290391"><ele>104.33333333333333</ele><time>2026-04-07T16:37:41Z</time></trkpt><trkpt lat="45.30691681901051" lon="8.805563941753475"><ele>104.16666666666666</ele><time>2026-04-07T16:37:43Z</time></trkpt><trkpt lat="45.30686847825408" lon="8.805478526943956"><ele>104.0</ele><time>2026-04-07T16:37:45Z</time></trkpt><trkpt lat="45.306814580222884" lon="8.805387023442755"><ele>103.99999999999999</ele><time>2026-04-07T16:37:47.001Z</time></trkpt><trkpt lat="45.30675759442718" lon="8.805290490119544"><ele>104.0</ele><time>2026-04-07T16:37:49.001Z</time></trkpt><trkpt lat="45.306702355582544" lon="8.805192118550421"><ele>104.0</ele><time>2026-04-07T16:37:51.001Z</time></trkpt><trkpt lat="45.30664684806079" lon="8.805095489673548"><ele>104.0</ele><time>2026-04-07T16:37:53.001Z</time></trkpt><trkpt lat="45.306591247441354" lon="8.804996319847193"><ele>103.99999999999999</ele><time>2026-04-07T16:37:55.001Z</time></trkpt><trkpt lat="45.306536570259745" lon="8.804892320626445"><ele>104.0</ele><time>2026-04-07T16:37:57.001Z</time></trkpt><trkpt lat="45.3064828998569" lon="8.804793624606644"><ele>103.99999999999999</ele><time>2026-04-07T16:37:59.001Z</time></trkpt><trkpt lat="45.306429248820415" lon="8.804698332147094"><ele>104.0</ele><time>2026-04-07T16:38:01.001Z</time></trkpt><trkpt lat="45.30637836728897" lon="8.804599320574527"><ele>104.0</ele><time>2026-04-07T16:38:03.001Z</time></trkpt><trkpt lat="45.30632242885531" lon="8.804507035656709"><ele>104.0</ele><time>2026-04-07T16:38:05.001Z</time></trkpt><trkpt lat="45.30626510327877" lon="8.80440811789955"><ele>103.99999999999999</ele><time>2026-04-07T16:38:07.001Z</time></trkpt><trkpt lat="45.306209098671935" lon="8.804311904935002"><ele>104.0</ele><time>2026-04-07T16:38:09.001Z</time></trkpt><trkpt lat="45.306151991296325" lon="8.80421467354635"><ele>104.0</ele><time>2026-04-07T16:38:11.001Z</time></trkpt><trkpt lat="45.30609562943994" lon="8.804112856579003"><ele>104.0</ele><time>2026-04-07T16:38:13.001Z</time></trkpt><trkpt lat="45.30603697728343" lon="8.804010950516128"><ele>104.0</ele><time>2026-04-07T16:38:15.001Z</time></trkpt><trkpt lat="45.3059784488165" lon="8.803908188541538"><ele>104.0</ele><time>2026-04-07T16:38:17.001Z</time></trkpt><trkpt lat="45.305922159733484" lon="8.803805264766845"><ele>104.0</ele><time>2026-04-07T16:38:19.001Z</time></trkpt><trkpt lat="45.30586494353555" lon="8.803702520831568"><ele>104.0</ele><time>2026-04-07T16:38:21.001Z</time></trkpt><trkpt lat="45.3058073773869" lon="8.803598881390293"><ele>104.0</ele><time>2026-04-07T16:38:23.001Z</time></trkpt><trkpt lat="45.30574875997226" lon="8.803493216987144"><ele>104.0</ele><time>2026-04-07T16:38:25.001Z</time></trkpt><trkpt lat="45.305691770041264" lon="8.803392002461912"><ele>104.0</ele><time>2026-04-07T16:38:27Z</time></trkpt><trkpt lat="45.30563540700742" lon="8.803281516202858"><ele>104.0</ele><time>2026-04-07T16:38:29Z</time></trkpt><trkpt lat="45.30557922561274" lon="8.803183094266247"><ele>104.49999999999999</ele><time>2026-04-07T16:38:31Z</time></trkpt><trkpt lat="45.305523483908615" lon="8.8030837941445"><ele>105.0</ele><time>2026-04-07T16:38:33Z</time></trkpt><trkpt lat="45.305465243288445" lon="8.802987608089898"><ele>105.5</ele><time>2026-04-07T16:38:35Z</time></trkpt><trkpt lat="45.30540915387378" lon="8.802892529429782"><ele>106.0</ele><time>2026-04-07T16:38:37Z</time></trkpt><trkpt lat="45.3053508438203" lon="8.80279819895827"><ele>106.49999999999999</ele><time>2026-04-07T16:38:39Z</time></trkpt><trkpt lat="45.305297710098294" lon="8.80269055944176"><ele>107.0</ele><time>2026-04-07T16:38:41Z</time></trkpt><trkpt lat="45.30524097080573" lon="8.802594841956228"><ele>107.16666666666666</ele><time>2026-04-07T16:38:43Z</time></trkpt><trkpt lat="45.30518700168405" lon="8.802499009339796"><ele>107.33333333333333</ele><time>2026-04-07T16:38:45Z</time></trkpt><trkpt lat="45.30513713245257" lon="8.80239953086137"><ele>107.5</ele><time>2026-04-07T16:38:47Z</time></trkpt><trkpt lat="45.30508824496115" lon="8.80230040623854"><ele>107.66666666666666</ele><time>2026-04-07T16:38:49Z</time></trkpt><trkpt lat="45.30504147728446" lon="8.802200162690607"><ele>107.83333333333333</ele><time>2026-04-07T16:38:51Z</time></trkpt><trkpt lat="45.304995511909226" lon="8.802107212472993"><ele>108.0</ele><time>2026-04-07T16:38:53Z</time></trkpt><trkpt lat="45.30494987262928" lon="8.80201954647028"><ele>108.0</ele><time>2026-04-07T16:38:55Z</time></trkpt><trkpt lat="45.30489715172407" lon="8.801939925699324"><ele>108.0</ele><time>2026-04-07T16:38:57Z</time></trkpt><trkpt lat="45.3048444707009" lon="8.80185449264846"><ele>108.0</ele><time>2026-04-07T16:38:59Z</time></trkpt><trkpt lat="45.3047887376928" lon="8.801769224237756"><ele>108.0</ele><time>2026-04-07T16:39:01Z</time></trkpt><trkpt lat="45.30473474091455" lon="8.801678716033075"><ele>108.0</ele><time>2026-04-07T16:39:03Z</time></trkpt><trkpt lat="45.30467924131076" lon="8.801592637024205"><ele>108.0</ele><time>2026-04-07T16:39:05Z</time></trkpt><trkpt lat="45.304628859162314" lon="8.80150947610355"><ele>107.66666666666667</ele><time>2026-04-07T16:39:07Z</time></trkpt><trkpt lat="45.30457579857451" lon="8.80142489239209"><ele>107.33333333333334</ele><time>2026-04-07T16:39:09Z</time></trkpt><trkpt lat="45.304517435598264" lon="8.801338289875034"><ele>107.0</ele><time>2026-04-07T16:39:11Z</time></trkpt><trkpt lat="45.304456450607745" lon="8.801259049324145"><ele>106.66666666666667</ele><time>2026-04-07T16:39:13Z</time></trkpt><trkpt lat="45.304391405205216" lon="8.801183838644668"><ele>106.33333333333334</ele><time>2026-04-07T16:39:15Z</time></trkpt><trkpt lat="45.304322966116096" lon="8.801113359991978"><ele>106.0</ele><time>2026-04-07T16:39:17Z</time></trkpt><trkpt lat="45.30425529403482" lon="8.801042316177014"><ele>105.83333333333334</ele><time>2026-04-07T16:39:19Z</time></trkpt><trkpt lat="45.30418695912507" lon="8.800972335324808"><ele>105.66666666666667</ele><time>2026-04-07T16:39:21Z</time></trkpt><trkpt lat="45.30411509395248" lon="8.800903724285757"><ele>105.5</ele><time>2026-04-07T16:39:23Z</time></trkpt><trkpt lat="45.30404725099696" lon="8.800833476438587"><ele>105.33333333333334</ele><time>2026-04-07T16:39:25Z</time></trkpt><trkpt lat="45.3039787577014" lon="8.800761686583101"><ele>105.16666666666667</ele><time>2026-04-07T16:39:27Z</time></trkpt><trkpt lat="45.30390602454149" lon="8.800696890952754"><ele>105.0</ele><time>2026-04-07T16:39:29Z</time></trkpt><trkpt lat="45.30383816169553" lon="8.800626350072953"><ele>105.0</ele><time>2026-04-07T16:39:31Z</time></trkpt><trkpt lat="45.30376704644433" lon="8.800556607008073"><ele>105.0</ele><time>2026-04-07T16:39:33Z</time></trkpt><trkpt lat="45.30369605810659" lon="8.80048893351431"><ele>105.0</ele><time>2026-04-07T16:39:35Z</time></trkpt><trkpt lat="45.30362366697075" lon="8.800418555155481"><ele>105.0</ele><time>2026-04-07T16:39:37Z</time></trkpt><trkpt lat="45.303549277104366" lon="8.800344723383965"><ele>105.0</ele><time>2026-04-07T16:39:39Z</time></trkpt><trkpt lat="45.3034777767777" lon="8.800271011690572"><ele>105.0</ele><time>2026-04-07T16:39:41Z</time></trkpt><trkpt lat="45.303404891959694" lon="8.800202723134612"><ele>105.0</ele><time>2026-04-07T16:39:43Z</time></trkpt><trkpt lat="45.30333413658894" lon="8.800129554380975"><ele>105.0</ele><time>2026-04-07T16:39:45Z</time></trkpt><trkpt lat="45.3032606349003" lon="8.800057429746937"><ele>105.0</ele><time>2026-04-07T16:39:47Z</time></trkpt><trkpt lat="45.303184775950506" lon="8.799984283500951"><ele>105.0</ele><time>2026-04-07T16:39:49Z</time></trkpt><trkpt lat="45.30310932464896" lon="8.799913062785597"><ele>105.0</ele><time>2026-04-07T16:39:51Z</time></trkpt><trkpt lat="45.30302993005709" lon="8.799839411011304"><ele>105.0</ele><time>2026-04-07T16:39:53.001Z</time></trkpt><trkpt lat="45.3029607137805" lon="8.799760638711444"><ele>105.0</ele><time>2026-04-07T16:39:55.001Z</time></trkpt><trkpt lat="45.302888577797596" lon="8.799682317629063"><ele>105.0</ele><time>2026-04-07T16:39:57.001Z</time></trkpt><trkpt lat="45.302816831439294" lon="8.799608046084344"><ele>105.0</ele><time>2026-04-07T16:39:59.001Z</time></trkpt><trkpt lat="45.30274548997693" lon="8.799535304486314"><ele>105.0</ele><time>2026-04-07T16:40:01.001Z</time></trkpt><trkpt lat="45.302675574751575" lon="8.799465153520778"><ele>105.0</ele><time>2026-04-07T16:40:03.001Z</time></trkpt><trkpt lat="45.302607194969404" lon="8.799396902062405"><ele>105.16666666666667</ele><time>2026-04-07T16:40:05.001Z</time></trkpt><trkpt lat="45.30253829781437" lon="8.799331408088733"><ele>105.33333333333334</ele><time>2026-04-07T16:40:07.001Z</time></trkpt><trkpt lat="45.30247273755036" lon="8.799258963270262"><ele>105.5</ele><time>2026-04-07T16:40:09.001Z</time></trkpt><trkpt lat="45.3024020002885" lon="8.799193205791202"><ele>105.66666666666667</ele><time>2026-04-07T16:40:11.001Z</time></trkpt><trkpt lat="45.30232554003304" lon="8.799136174851844"><ele>105.83333333333334</ele><time>2026-04-07T16:40:13.001Z</time></trkpt><trkpt lat="45.30225125533885" lon="8.79907678452549"><ele>106.0</ele><time>2026-04-07T16:40:15.001Z</time></trkpt><trkpt lat="45.30217243396779" lon="8.799026953856409"><ele>106.50000000000001</ele><time>2026-04-07T16:40:17.001Z</time></trkpt><trkpt lat="45.302092471814085" lon="8.798978733701588"><ele>107.0</ele><time>2026-04-07T16:40:19.001Z</time></trkpt><trkpt lat="45.30201429760845" lon="8.79892844679916"><ele>107.5</ele><time>2026-04-07T16:40:21.001Z</time></trkpt><trkpt lat="45.30193664977338" lon="8.798888338670244"><ele>108.0</ele><time>2026-04-07T16:40:23.001Z</time></trkpt><trkpt lat="45.301858318164" lon="8.798854002741262"><ele>108.50000000000001</ele><time>2026-04-07T16:40:25.001Z</time></trkpt><trkpt lat="45.30177762530167" lon="8.798831911012217"><ele>109.0</ele><time>2026-04-07T16:40:27.001Z</time></trkpt><trkpt lat="45.30169728387973" lon="8.798806177105563"><ele>109.00000000000001</ele><time>2026-04-07T16:40:29.001Z</time></trkpt><trkpt lat="45.301622753111054" lon="8.798762470831024"><ele>109.0</ele><time>2026-04-07T16:40:31Z</time></trkpt><trkpt lat="45.3015566831688" lon="8.798705124811724"><ele>109.0</ele><time>2026-04-07T16:40:33Z</time></trkpt><trkpt lat="45.301495296405356" lon="8.798636400821302"><ele>109.0</ele><time>2026-04-07T16:40:35Z</time></trkpt><trkpt lat="45.301433632599576" lon="8.798571134783984"><ele>109.00000000000001</ele><time>2026-04-07T16:40:37Z</time></trkpt><trkpt lat="45.30137579972537" lon="8.798504296354901"><ele>109.0</ele><time>2026-04-07T16:40:39Z</time></trkpt><trkpt lat="45.301316719899816" lon="8.798438165272877"><ele>108.85714285714286</ele><time>2026-04-07T16:40:41Z</time></trkpt><trkpt lat="45.30125960040124" lon="8.798373317778951"><ele>108.71428571428572</ele><time>2026-04-07T16:40:43Z</time></trkpt><trkpt lat="45.301204119727295" lon="8.798308369703966"><ele>108.57142857142857</ele><time>2026-04-07T16:40:45Z</time></trkpt><trkpt lat="45.30114831072165" lon="8.798242751290857"><ele>108.42857142857143</ele><time>2026-04-07T16:40:47Z</time></trkpt><trkpt lat="45.301096489359416" lon="8.79817791216972"><ele>108.28571428571428</ele><time>2026-04-07T16:40:49Z</time></trkpt><trkpt lat="45.30104400926886" lon="8.79811231457825"><ele>108.14285714285714</ele><time>2026-04-07T16:40:51Z</time></trkpt><trkpt lat="45.30099262497721" lon="8.798049366612881"><ele>108.0</ele><time>2026-04-07T16:40:53Z</time></trkpt><trkpt lat="45.30093889949306" lon="8.797990350495157"><ele>108.0</ele><time>2026-04-07T16:40:55Z</time></trkpt><trkpt lat="45.30088501431389" lon="8.797933921714552"><ele>108.0</ele><time>2026-04-07T16:40:57Z</time></trkpt><trkpt lat="45.30083328448294" lon="8.797882505039828"><ele>108.0</ele><time>2026-04-07T16:40:59Z</time></trkpt><trkpt lat="45.30075858124077" lon="8.797804583773717"><ele>108.0</ele><time>2026-04-07T16:41:02Z</time></trkpt><trkpt lat="45.30070563261355" lon="8.797751168663497"><ele>108.0</ele><time>2026-04-07T16:41:04Z</time></trkpt><trkpt lat="45.3006489181088" lon="8.797701786485616"><ele>108.0</ele><time>2026-04-07T16:41:06Z</time></trkpt><trkpt lat="45.300600391683105" lon="8.797641922037963"><ele>108.0</ele><time>2026-04-07T16:41:08Z</time></trkpt><trkpt lat="45.30053894094624" lon="8.797565635165673"><ele>108.0</ele><time>2026-04-07T16:41:11Z</time></trkpt><trkpt lat="45.30050446013402" lon="8.797462539191791"><ele>108.0</ele><time>2026-04-07T16:41:14Z</time></trkpt><trkpt lat="45.30049276732982" lon="8.79734116759942"><ele>108.0</ele><time>2026-04-07T16:41:17Z</time></trkpt><trkpt lat="45.3004995521589" lon="8.797210678204314"><ele>108.0</ele><time>2026-04-07T16:41:20Z</time></trkpt><trkpt lat="45.300513527869505" lon="8.797081217292956"><ele>108.0</ele><time>2026-04-07T16:41:23Z</time></trkpt><trkpt lat="45.30053977968946" lon="8.796961541930079"><ele>108.0</ele><time>2026-04-07T16:41:26Z</time></trkpt><trkpt lat="45.30058201388357" lon="8.796849421569087"><ele>108.28571428571428</ele><time>2026-04-07T16:41:29Z</time></trkpt><trkpt lat="45.300624090234855" lon="8.796737885194567"><ele>108.57142857142857</ele><time>2026-04-07T16:41:32Z</time></trkpt><trkpt lat="45.30065724957246" lon="8.796658997688755"><ele>108.85714285714286</ele><time>2026-04-07T16:41:34Z</time></trkpt><trkpt lat="45.30068979316805" lon="8.796572988212727"><ele>109.14285714285714</ele><time>2026-04-07T16:41:36Z</time></trkpt><trkpt lat="45.300728129934896" lon="8.796486633217247"><ele>109.42857142857143</ele><time>2026-04-07T16:41:38Z</time></trkpt><trkpt lat="45.300766735099465" lon="8.796397071289897"><ele>109.71428571428571</ele><time>2026-04-07T16:41:40Z</time></trkpt><trkpt lat="45.300804740554966" lon="8.79630496956065"><ele>110.0</ele><time>2026-04-07T16:41:42.001Z</time></trkpt><trkpt lat="45.30084553926075" lon="8.796216640900273"><ele>109.99999999999999</ele><time>2026-04-07T16:41:44.001Z</time></trkpt><trkpt lat="45.3008872379771" lon="8.796129297890168"><ele>110.0</ele><time>2026-04-07T16:41:46.001Z</time></trkpt><trkpt lat="45.300924830187235" lon="8.796035143419692"><ele>110.0</ele><time>2026-04-07T16:41:48.001Z</time></trkpt><trkpt lat="45.300967842334394" lon="8.795939921662619"><ele>110.0</ele><time>2026-04-07T16:41:50.001Z</time></trkpt><trkpt lat="45.30101120112499" lon="8.795847187435479"><ele>109.99999999999999</ele><time>2026-04-07T16:41:52.001Z</time></trkpt><trkpt lat="45.30105288551881" lon="8.79575267284491"><ele>110.0</ele><time>2026-04-07T16:41:54.001Z</time></trkpt><trkpt lat="45.301095647900844" lon="8.795655924574278"><ele>109.83333333333333</ele><time>2026-04-07T16:41:56.001Z</time></trkpt><trkpt lat="45.30113696772132" lon="8.79555845007042"><ele>109.66666666666666</ele><time>2026-04-07T16:41:58.001Z</time></trkpt><trkpt lat="45.30118365706782" lon="8.795453625338347"><ele>109.5</ele><time>2026-04-07T16:42:00.001Z</time></trkpt><trkpt lat="45.301233886159494" lon="8.795358809866373"><ele>109.33333333333334</ele><time>2026-04-07T16:42:02.001Z</time></trkpt><trkpt lat="45.301284358555016" lon="8.795261669858773"><ele>109.16666666666667</ele><time>2026-04-07T16:42:04.001Z</time></trkpt><trkpt lat="45.30133882216257" lon="8.795164689446208"><ele>109.0</ele><time>2026-04-07T16:42:06.001Z</time></trkpt><trkpt lat="45.301390036439166" lon="8.79506049688758"><ele>109.00000000000001</ele><time>2026-04-07T16:42:08.001Z</time></trkpt><trkpt lat="45.30144300322696" lon="8.79496642970018"><ele>109.0</ele><time>2026-04-07T16:42:10.001Z</time></trkpt><trkpt lat="45.301495301485225" lon="8.79486879609281"><ele>109.0</ele><time>2026-04-07T16:42:12.001Z</time></trkpt><trkpt lat="45.30154744839622" lon="8.794765218153602"><ele>109.0</ele><time>2026-04-07T16:42:14.001Z</time></trkpt><trkpt lat="45.3016010945489" lon="8.794658690859269"><ele>109.00000000000001</ele><time>2026-04-07T16:42:16.001Z</time></trkpt><trkpt lat="45.30165522575473" lon="8.79454897258603"><ele>109.0</ele><time>2026-04-07T16:42:18.001Z</time></trkpt><trkpt lat="45.30171326717052" lon="8.794445880895918"><ele>109.00000000000001</ele><time>2026-04-07T16:42:20.001Z</time></trkpt><trkpt lat="45.30177855755509" lon="8.794361331511613"><ele>109.0</ele><time>2026-04-07T16:42:22.001Z</time></trkpt><trkpt lat="45.301849830771864" lon="8.79429464973082"><ele>109.0</ele><time>2026-04-07T16:42:24.001Z</time></trkpt><trkpt lat="45.30192150387928" lon="8.794247542964952"><ele>109.0</ele><time>2026-04-07T16:42:26.001Z</time></trkpt><trkpt lat="45.301992346743404" lon="8.794209545474999"><ele>109.00000000000001</ele><time>2026-04-07T16:42:28.001Z</time></trkpt><trkpt lat="45.302066473247045" lon="8.7941716769534"><ele>109.0</ele><time>2026-04-07T16:42:30.001Z</time></trkpt><trkpt lat="45.30214082032886" lon="8.794134129092384"><ele>109.00000000000001</ele><time>2026-04-07T16:42:32.001Z</time></trkpt><trkpt lat="45.30221382803177" lon="8.794101410846997"><ele>109.0</ele><time>2026-04-07T16:42:34.001Z</time></trkpt><trkpt lat="45.30228551563526" lon="8.794061750194002"><ele>109.0</ele><time>2026-04-07T16:42:36.001Z</time></trkpt><trkpt lat="45.30235949037455" lon="8.79402965110465"><ele>109.0</ele><time>2026-04-07T16:42:38Z</time></trkpt><trkpt lat="45.30242656125626" lon="8.793997722879366"><ele>109.00000000000001</ele><time>2026-04-07T16:42:40Z</time></trkpt><trkpt lat="45.30248925234771" lon="8.793969096550969"><ele>109.0</ele><time>2026-04-07T16:42:42Z</time></trkpt><trkpt lat="45.30257244488762" lon="8.793922739059118"><ele>109.0</ele><time>2026-04-07T16:42:45Z</time></trkpt><trkpt lat="45.30266282807187" lon="8.793886160681256"><ele>109.0</ele><time>2026-04-07T16:42:48Z</time></trkpt><trkpt lat="45.3027152348048" lon="8.793834327627426"><ele>109.0</ele><time>2026-04-07T16:42:50Z</time></trkpt><trkpt lat="45.30271972782577" lon="8.793738419758013"><ele>109.0</ele><time>2026-04-07T16:42:52Z</time></trkpt><trkpt lat="45.30266706084929" lon="8.793664976513327"><ele>109.0</ele><time>2026-04-07T16:42:54Z</time></trkpt><trkpt lat="45.302609113903806" lon="8.79361206920122"><ele>109.0</ele><time>2026-04-07T16:42:56Z</time></trkpt><trkpt lat="45.3025583464382" lon="8.793552380696315"><ele>109.0</ele><time>2026-04-07T16:42:58Z</time></trkpt><trkpt lat="45.3025049254859" lon="8.79350445082787"><ele>109.16666666666667</ele><time>2026-04-07T16:43:00Z</time></trkpt><trkpt lat="45.3024544417294" lon="8.793444382165111"><ele>109.33333333333334</ele><time>2026-04-07T16:43:02Z</time></trkpt><trkpt lat="45.302403787432965" lon="8.7933883549896"><ele>109.5</ele><time>2026-04-07T16:43:04Z</time></trkpt><trkpt lat="45.30233671578071" lon="8.793298278912747"><ele>109.66666666666666</ele><time>2026-04-07T16:43:07Z</time></trkpt><trkpt lat="45.30232313645775" lon="8.793172846527144"><ele>109.83333333333333</ele><time>2026-04-07T16:43:10Z</time></trkpt><trkpt lat="45.30237791536307" lon="8.7931052845858"><ele>110.0</ele><time>2026-04-07T16:43:12Z</time></trkpt><trkpt lat="45.30245203502578" lon="8.793083597942383"><ele>109.99999999999999</ele><time>2026-04-07T16:43:14Z</time></trkpt><trkpt lat="45.30253028065267" lon="8.79305526886631"><ele>110.0</ele><time>2026-04-07T16:43:16Z</time></trkpt><trkpt lat="45.30260955354737" lon="8.793012980882065"><ele>110.0</ele><time>2026-04-07T16:43:18Z</time></trkpt><trkpt lat="45.30269065857143" lon="8.792979781571184"><ele>110.0</ele><time>2026-04-07T16:43:20Z</time></trkpt><trkpt lat="45.30277282920278" lon="8.792943885974532"><ele>109.99999999999999</ele><time>2026-04-07T16:43:22Z</time></trkpt><trkpt lat="45.30285719862519" lon="8.792906900166187"><ele>110.0</ele><time>2026-04-07T16:43:24Z</time></trkpt><trkpt lat="45.30294414793303" lon="8.79287301800178"><ele>110.0</ele><time>2026-04-07T16:43:26Z</time></trkpt><trkpt lat="45.303033500443426" lon="8.792838640917047"><ele>110.0</ele><time>2026-04-07T16:43:28Z</time></trkpt><trkpt lat="45.303123839899825" lon="8.792801555166594"><ele>110.0</ele><time>2026-04-07T16:43:30Z</time></trkpt><trkpt lat="45.30321549044479" lon="8.792761327610158"><ele>110.0</ele><time>2026-04-07T16:43:32Z</time></trkpt><trkpt lat="45.303307756946545" lon="8.792712493027414"><ele>110.0</ele><time>2026-04-07T16:43:34Z</time></trkpt><trkpt lat="45.30340131865355" lon="8.792655776802084"><ele>110.0</ele><time>2026-04-07T16:43:36Z</time></trkpt><trkpt lat="45.30348363076963" lon="8.792568697533701"><ele>110.0</ele><time>2026-04-07T16:43:38.001Z</time></trkpt><trkpt lat="45.30354171216448" lon="8.792449741074536"><ele>110.0</ele><time>2026-04-07T16:43:40.001Z</time></trkpt><trkpt lat="45.30360683230032" lon="8.792340773977521"><ele>110.0</ele><time>2026-04-07T16:43:42.001Z</time></trkpt><trkpt lat="45.30370148969961" lon="8.792279189264331"><ele>110.0</ele><time>2026-04-07T16:43:44.001Z</time></trkpt><trkpt lat="45.30380166606421" lon="8.792240491339996"><ele>110.0</ele><time>2026-04-07T16:43:46.001Z</time></trkpt><trkpt lat="45.303905191508356" lon="8.792195942501687"><ele>110.0</ele><time>2026-04-07T16:43:48.001Z</time></trkpt><trkpt lat="45.304011716511376" lon="8.792150811018567"><ele>110.0</ele><time>2026-04-07T16:43:50.001Z</time></trkpt><trkpt lat="45.304117488859724" lon="8.792104526651826"><ele>110.0</ele><time>2026-04-07T16:43:52.001Z</time></trkpt><trkpt lat="45.30422072808935" lon="8.7920609754943"><ele>110.0</ele><time>2026-04-07T16:43:54.001Z</time></trkpt><trkpt lat="45.30432703273009" lon="8.792017809103207"><ele>110.2</ele><time>2026-04-07T16:43:56.001Z</time></trkpt><trkpt lat="45.30442992143933" lon="8.791973295853985"><ele>110.4</ele><time>2026-04-07T16:43:58.001Z</time></trkpt><trkpt lat="45.30453299599631" lon="8.79193113258443"><ele>110.6</ele><time>2026-04-07T16:44:00.001Z</time></trkpt><trkpt lat="45.304630675899546" lon="8.791886995287289"><ele>110.8</ele><time>2026-04-07T16:44:02.001Z</time></trkpt><trkpt lat="45.304720452856834" lon="8.79183333955821"><ele>111.0</ele><time>2026-04-07T16:44:04.001Z</time></trkpt><trkpt lat="45.30480392188293" lon="8.791763965951851"><ele>111.16666666666667</ele><time>2026-04-07T16:44:06.001Z</time></trkpt><trkpt lat="45.30488061523749" lon="8.791678298249346"><ele>111.33333333333334</ele><time>2026-04-07T16:44:08.001Z</time></trkpt><trkpt lat="45.30494043337193" lon="8.79158166862229"><ele>111.5</ele><time>2026-04-07T16:44:10.001Z</time></trkpt><trkpt lat="45.30498742464712" lon="8.791484705859359"><ele>111.66666666666667</ele><time>2026-04-07T16:44:12.001Z</time></trkpt><trkpt lat="45.305027205667244" lon="8.791402177824198"><ele>111.83333333333334</ele><time>2026-04-07T16:44:15.001Z</time></trkpt><trkpt lat="45.30504136457916" lon="8.791295704911704"><ele>112.0</ele><time>2026-04-07T16:44:19.001Z</time></trkpt><trkpt lat="45.30500637213311" lon="8.7912023575315"><ele>112.00000000000001</ele><time>2026-04-07T16:44:23.001Z</time></trkpt><trkpt lat="45.30496847831432" lon="8.79109433347065"><ele>112.0</ele><time>2026-04-07T16:44:27.001Z</time></trkpt><trkpt lat="45.3049402486011" lon="8.790990216836434"><ele>112.0</ele><time>2026-04-07T16:44:30.001Z</time></trkpt><trkpt lat="45.30491556878201" lon="8.790907201521021"><ele>112.0</ele><time>2026-04-07T16:44:32.001Z</time></trkpt><trkpt lat="45.304887243027636" lon="8.790814514730725"><ele>112.00000000000001</ele><time>2026-04-07T16:44:34.001Z</time></trkpt><trkpt lat="45.30486297113445" lon="8.790724833496952"><ele>112.0</ele><time>2026-04-07T16:44:36.001Z</time></trkpt><trkpt lat="45.30482547996385" lon="8.790600884642982"><ele>112.0</ele><time>2026-04-07T16:44:39.001Z</time></trkpt><trkpt lat="45.30479636531539" lon="8.790515322462005"><ele>112.0</ele><time>2026-04-07T16:44:41.001Z</time></trkpt><trkpt lat="45.30477192221308" lon="8.790426811614182"><ele>112.0</ele><time>2026-04-07T16:44:43Z</time></trkpt><trkpt lat="45.304756730056425" lon="8.790326717938656"><ele>112.0</ele><time>2026-04-07T16:44:45Z</time></trkpt><trkpt lat="45.30474204884124" lon="8.790220428591338"><ele>112.0</ele><time>2026-04-07T16:44:47Z</time></trkpt><trkpt lat="45.30474266546854" lon="8.790112888846783"><ele>112.0</ele><time>2026-04-07T16:44:49Z</time></trkpt><trkpt lat="45.30474530441242" lon="8.790002390812184"><ele>112.0</ele><time>2026-04-07T16:44:51Z</time></trkpt><trkpt lat="45.30475554737769" lon="8.789886809156364"><ele>112.00000000000001</ele><time>2026-04-07T16:44:53Z</time></trkpt><trkpt lat="45.30477440195253" lon="8.789768084179041"><ele>112.0</ele><time>2026-04-07T16:44:55Z</time></trkpt><trkpt lat="45.30479876989554" lon="8.789649151195414"><ele>112.0</ele><time>2026-04-07T16:44:57Z</time></trkpt><trkpt lat="45.304826790841496" lon="8.789533738194233"><ele>112.0</ele><time>2026-04-07T16:44:59Z</time></trkpt><trkpt lat="45.30485990746671" lon="8.789420210543303"><ele>112.00000000000001</ele><time>2026-04-07T16:45:01Z</time></trkpt><trkpt lat="45.30488817492359" lon="8.789303041635907"><ele>112.0</ele><time>2026-04-07T16:45:03Z</time></trkpt><trkpt lat="45.30491714338612" lon="8.789185177868402"><ele>111.83333333333334</ele><time>2026-04-07T16:45:05Z</time></trkpt><trkpt lat="45.30494737335756" lon="8.789069635511483"><ele>111.66666666666667</ele><time>2026-04-07T16:45:07Z</time></trkpt><trkpt lat="45.30497606426539" lon="8.788951715317072"><ele>111.5</ele><time>2026-04-07T16:45:09Z</time></trkpt><trkpt lat="45.3050048821169" lon="8.788835459449125"><ele>111.33333333333334</ele><time>2026-04-07T16:45:11Z</time></trkpt><trkpt lat="45.30503355377868" lon="8.788719712871105"><ele>111.16666666666667</ele><time>2026-04-07T16:45:13Z</time></trkpt><trkpt lat="45.305066245560326" lon="8.788605923095965"><ele>111.0</ele><time>2026-04-07T16:45:15Z</time></trkpt><trkpt lat="45.305092842502546" lon="8.788493128446746"><ele>110.83333333333333</ele><time>2026-04-07T16:45:17Z</time></trkpt><trkpt lat="45.30512250906234" lon="8.788376984244062"><ele>110.66666666666666</ele><time>2026-04-07T16:45:19Z</time></trkpt><trkpt lat="45.30515206782554" lon="8.788258168715013"><ele>110.5</ele><time>2026-04-07T16:45:21Z</time></trkpt><trkpt lat="45.305184327475715" lon="8.788141053349765"><ele>110.33333333333333</ele><time>2026-04-07T16:45:23Z</time></trkpt><trkpt lat="45.30521295042592" lon="8.788021387375661"><ele>110.16666666666666</ele><time>2026-04-07T16:45:25Z</time></trkpt><trkpt lat="45.30524362206651" lon="8.787902503289027"><ele>110.0</ele><time>2026-04-07T16:45:27Z</time></trkpt><trkpt lat="45.305275354952876" lon="8.787784639137826"><ele>110.0</ele><time>2026-04-07T16:45:29Z</time></trkpt><trkpt lat="45.30530348025078" lon="8.787663698026615"><ele>110.0</ele><time>2026-04-07T16:45:31Z</time></trkpt><trkpt lat="45.30533509151497" lon="8.787543135055788"><ele>110.0</ele><time>2026-04-07T16:45:33Z</time></trkpt><trkpt lat="45.30536625763202" lon="8.787422584399216"><ele>110.0</ele><time>2026-04-07T16:45:35Z</time></trkpt><trkpt lat="45.305396234046384" lon="8.78730149241917"><ele>110.0</ele><time>2026-04-07T16:45:37Z</time></trkpt><trkpt lat="45.30542462055062" lon="8.787178552287173"><ele>110.0</ele><time>2026-04-07T16:45:39Z</time></trkpt><trkpt lat="45.305459540056404" lon="8.787055322947367"><ele>110.0</ele><time>2026-04-07T16:45:41Z</time></trkpt><trkpt lat="45.305489661210125" lon="8.786930905801466"><ele>110.0</ele><time>2026-04-07T16:45:43Z</time></trkpt><trkpt lat="45.30551952320662" lon="8.786805557444207"><ele>110.0</ele><time>2026-04-07T16:45:45Z</time></trkpt><trkpt lat="45.305551446646106" lon="8.786681453899174"><ele>110.0</ele><time>2026-04-07T16:45:47Z</time></trkpt><trkpt lat="45.30558230765971" lon="8.786556842143792"><ele>110.6</ele><time>2026-04-07T16:45:49Z</time></trkpt><trkpt lat="45.30561545526941" lon="8.786433204739955"><ele>111.2</ele><time>2026-04-07T16:45:51Z</time></trkpt><trkpt lat="45.30564660377074" lon="8.786306874835422"><ele>111.80000000000001</ele><time>2026-04-07T16:45:53Z</time></trkpt><trkpt lat="45.30567649226891" lon="8.786182766148544"><ele>112.4</ele><time>2026-04-07T16:45:55Z</time></trkpt><trkpt lat="45.305710417531174" lon="8.786055737838366"><ele>113.0</ele><time>2026-04-07T16:45:57.001Z</time></trkpt><trkpt lat="45.3057422278972" lon="8.785930022421583"><ele>113.0</ele><time>2026-04-07T16:45:59.001Z</time></trkpt><trkpt lat="45.30577442284256" lon="8.785802374724678"><ele>113.00000000000001</ele><time>2026-04-07T16:46:01.001Z</time></trkpt><trkpt lat="45.30580626842243" lon="8.785674172657126"><ele>113.00000000000001</ele><time>2026-04-07T16:46:03.001Z</time></trkpt><trkpt lat="45.30584136281006" lon="8.785544401701571"><ele>113.0</ele><time>2026-04-07T16:46:05.001Z</time></trkpt><trkpt lat="45.30586974384456" lon="8.785415815086047"><ele>113.0</ele><time>2026-04-07T16:46:07.001Z</time></trkpt><trkpt lat="45.30590421801641" lon="8.785290357033949"><ele>112.60000000000001</ele><time>2026-04-07T16:46:09.001Z</time></trkpt><trkpt lat="45.3059353720473" lon="8.785161689214366"><ele>112.20000000000002</ele><time>2026-04-07T16:46:11.001Z</time></trkpt><trkpt lat="45.305966966220524" lon="8.7850332747861"><ele>111.8</ele><time>2026-04-07T16:46:13.001Z</time></trkpt><trkpt lat="45.306000034777135" lon="8.784907186684132"><ele>111.4</ele><time>2026-04-07T16:46:15.001Z</time></trkpt><trkpt lat="45.30603490051704" lon="8.784777514941839"><ele>111.0</ele><time>2026-04-07T16:46:17.001Z</time></trkpt><trkpt lat="45.306067831958266" lon="8.784648233056547"><ele>111.0</ele><time>2026-04-07T16:46:19.001Z</time></trkpt><trkpt lat="45.30610221207037" lon="8.784516826430822"><ele>111.0</ele><time>2026-04-07T16:46:21.001Z</time></trkpt><trkpt lat="45.30613549031556" lon="8.784388068555023"><ele>111.0</ele><time>2026-04-07T16:46:23.001Z</time></trkpt><trkpt lat="45.30616959144327" lon="8.784254126038991"><ele>111.0</ele><time>2026-04-07T16:46:25.001Z</time></trkpt><trkpt lat="45.30620131667772" lon="8.78412371312733"><ele>111.0</ele><time>2026-04-07T16:46:27.001Z</time></trkpt><trkpt lat="45.30623360595304" lon="8.783992502583844"><ele>111.0</ele><time>2026-04-07T16:46:29.001Z</time></trkpt><trkpt lat="45.30626772200721" lon="8.783862015763203"><ele>111.0</ele><time>2026-04-07T16:46:31.001Z</time></trkpt><trkpt lat="45.306300239280496" lon="8.783731172242158"><ele>111.0</ele><time>2026-04-07T16:46:33.001Z</time></trkpt><trkpt lat="45.30633084572678" lon="8.78360622773604"><ele>111.0</ele><time>2026-04-07T16:46:35.001Z</time></trkpt><trkpt lat="45.30636525470982" lon="8.783485051533884"><ele>111.0</ele><time>2026-04-07T16:46:37.001Z</time></trkpt><trkpt lat="45.30639873196475" lon="8.783359562783989"><ele>110.6</ele><time>2026-04-07T16:46:39.001Z</time></trkpt><trkpt lat="45.30642867211274" lon="8.783234278143704"><ele>110.19999999999999</ele><time>2026-04-07T16:46:41.001Z</time></trkpt><trkpt lat="45.30646141390683" lon="8.783106880516035"><ele>109.80000000000001</ele><time>2026-04-07T16:46:43.001Z</time></trkpt><trkpt lat="45.306493137851795" lon="8.782980990985394"><ele>109.4</ele><time>2026-04-07T16:46:45.001Z</time></trkpt><trkpt lat="45.30652737999035" lon="8.78285521301013"><ele>109.0</ele><time>2026-04-07T16:46:47.001Z</time></trkpt><trkpt lat="45.306556387719105" lon="8.782725156552043"><ele>109.2</ele><time>2026-04-07T16:46:49Z</time></trkpt><trkpt lat="45.30659148682622" lon="8.782596693251328"><ele>109.4</ele><time>2026-04-07T16:46:51Z</time></trkpt><trkpt lat="45.30662429344763" lon="8.782468840518852"><ele>109.6</ele><time>2026-04-07T16:46:53Z</time></trkpt><trkpt lat="45.30665635830458" lon="8.782336107349549"><ele>109.8</ele><time>2026-04-07T16:46:55Z</time></trkpt><trkpt lat="45.306688467080335" lon="8.782205875445484"><ele>110.0</ele><time>2026-04-07T16:46:57Z</time></trkpt><trkpt lat="45.30672047479021" lon="8.782074936217866"><ele>110.0</ele><time>2026-04-07T16:46:59Z</time></trkpt><trkpt lat="45.30675229799204" lon="8.781943907608746"><ele>110.0</ele><time>2026-04-07T16:47:01Z</time></trkpt><trkpt lat="45.30678528028068" lon="8.781814469235817"><ele>110.0</ele><time>2026-04-07T16:47:03Z</time></trkpt><trkpt lat="45.30681783549041" lon="8.781682000907578"><ele>110.0</ele><time>2026-04-07T16:47:05Z</time></trkpt><trkpt lat="45.30685373921075" lon="8.781555198462266"><ele>110.0</ele><time>2026-04-07T16:47:07Z</time></trkpt><trkpt lat="45.30688652892982" lon="8.781424200876655"><ele>110.0</ele><time>2026-04-07T16:47:09Z</time></trkpt><trkpt lat="45.30691555648432" lon="8.781293923371328"><ele>110.0</ele><time>2026-04-07T16:47:11Z</time></trkpt><trkpt lat="45.30694733714554" lon="8.781170914605884"><ele>110.0</ele><time>2026-04-07T16:47:13Z</time></trkpt><trkpt lat="45.306980321572844" lon="8.78104466962728"><ele>110.0</ele><time>2026-04-07T16:47:15Z</time></trkpt><trkpt lat="45.307012080171084" lon="8.780915570492718"><ele>110.0</ele><time>2026-04-07T16:47:17Z</time></trkpt><trkpt lat="45.30704798143157" lon="8.780792021432"><ele>110.0</ele><time>2026-04-07T16:47:19Z</time></trkpt><trkpt lat="45.307079255702135" lon="8.780666120740234"><ele>110.0</ele><time>2026-04-07T16:47:21Z</time></trkpt><trkpt lat="45.30711115303587" lon="8.780539575505172"><ele>110.0</ele><time>2026-04-07T16:47:23Z</time></trkpt><trkpt lat="45.30714249357426" lon="8.780412559685267"><ele>110.0</ele><time>2026-04-07T16:47:25Z</time></trkpt><trkpt lat="45.30717783959658" lon="8.780286682495278"><ele>110.0</ele><time>2026-04-07T16:47:27Z</time></trkpt><trkpt lat="45.30721322017996" lon="8.780160797610467"><ele>110.2</ele><time>2026-04-07T16:47:29Z</time></trkpt><trkpt lat="45.307240546449584" lon="8.780030952688271"><ele>110.4</ele><time>2026-04-07T16:47:31Z</time></trkpt><trkpt lat="45.307275609546274" lon="8.77990815753474"><ele>110.6</ele><time>2026-04-07T16:47:33Z</time></trkpt><trkpt lat="45.3073098013051" lon="8.779783461223538"><ele>110.8</ele><time>2026-04-07T16:47:35Z</time></trkpt><trkpt lat="45.30734155434702" lon="8.779658234250853"><ele>111.0</ele><time>2026-04-07T16:47:37Z</time></trkpt><trkpt lat="45.30736892345568" lon="8.77953170243139"><ele>111.4</ele><time>2026-04-07T16:47:39Z</time></trkpt><trkpt lat="45.30740452404497" lon="8.779407483423071"><ele>111.8</ele><time>2026-04-07T16:47:41Z</time></trkpt><trkpt lat="45.30743378821213" lon="8.77928267103235"><ele>112.20000000000002</ele><time>2026-04-07T16:47:43Z</time></trkpt><trkpt lat="45.307462691522424" lon="8.77915408352005"><ele>112.60000000000001</ele><time>2026-04-07T16:47:45Z</time></trkpt><trkpt lat="45.30748986358976" lon="8.77902758096588"><ele>113.0</ele><time>2026-04-07T16:47:47Z</time></trkpt><trkpt lat="45.30751371144684" lon="8.778894561644558"><ele>113.4</ele><time>2026-04-07T16:47:49Z</time></trkpt><trkpt lat="45.30753481506266" lon="8.778759283475575"><ele>113.80000000000001</ele><time>2026-04-07T16:47:51Z</time></trkpt><trkpt lat="45.307555564374056" lon="8.778624356215868"><ele>114.2</ele><time>2026-04-07T16:47:53Z</time></trkpt><trkpt lat="45.30757100952446" lon="8.778486198569796"><ele>114.6</ele><time>2026-04-07T16:47:55Z</time></trkpt><trkpt lat="45.30758843808371" lon="8.778351469461471"><ele>115.0</ele><time>2026-04-07T16:47:57Z</time></trkpt><trkpt lat="45.30760229729892" lon="8.778212670289594"><ele>114.2</ele><time>2026-04-07T16:47:59Z</time></trkpt><trkpt lat="45.307613809790396" lon="8.778075672452509"><ele>113.4</ele><time>2026-04-07T16:48:01Z</time></trkpt><trkpt lat="45.30762443519124" lon="8.777934460516772"><ele>112.6</ele><time>2026-04-07T16:48:03.001Z</time></trkpt><trkpt lat="45.30763125410395" lon="8.77779533790867"><ele>111.8</ele><time>2026-04-07T16:48:05.001Z</time></trkpt><trkpt lat="45.307637080454604" lon="8.777658253948612"><ele>111.0</ele><time>2026-04-07T16:48:07.001Z</time></trkpt><trkpt lat="45.307636796979025" lon="8.777520495523875"><ele>111.0</ele><time>2026-04-07T16:48:09.001Z</time></trkpt><trkpt lat="45.30763363887664" lon="8.777380217019145"><ele>111.0</ele><time>2026-04-07T16:48:11.001Z</time></trkpt><trkpt lat="45.30763221484803" lon="8.777240702859075"><ele>111.0</ele><time>2026-04-07T16:48:13.001Z</time></trkpt><trkpt lat="45.30762708364388" lon="8.777102213244635"><ele>111.0</ele><time>2026-04-07T16:48:15.001Z</time></trkpt><trkpt lat="45.30762428467799" lon="8.776959580899705"><ele>111.0</ele><time>2026-04-07T16:48:17.001Z</time></trkpt><trkpt lat="45.307624849075665" lon="8.776814155747905"><ele>111.0</ele><time>2026-04-07T16:48:19.001Z</time></trkpt><trkpt lat="45.30761932634309" lon="8.776667985621827"><ele>111.0</ele><time>2026-04-07T16:48:21.001Z</time></trkpt><trkpt lat="45.30761643819067" lon="8.77652331596885"><ele>111.0</ele><time>2026-04-07T16:48:23.001Z</time></trkpt><trkpt lat="45.30761551377664" lon="8.776375902862222"><ele>111.0</ele><time>2026-04-07T16:48:25.001Z</time></trkpt><trkpt lat="45.30761173630298" lon="8.776229824983389"><ele>111.0</ele><time>2026-04-07T16:48:27.001Z</time></trkpt><trkpt lat="45.307606673457535" lon="8.776081325195406"><ele>110.8</ele><time>2026-04-07T16:48:29.001Z</time></trkpt><trkpt lat="45.307604631511836" lon="8.775939208267904"><ele>110.6</ele><time>2026-04-07T16:48:31.001Z</time></trkpt><trkpt lat="45.307602442605685" lon="8.775795341478597"><ele>110.4</ele><time>2026-04-07T16:48:33.001Z</time></trkpt><trkpt lat="45.30759617972488" lon="8.775654059686117"><ele>110.2</ele><time>2026-04-07T16:48:35.001Z</time></trkpt><trkpt lat="45.30759271776827" lon="8.775509462018077"><ele>110.0</ele><time>2026-04-07T16:48:37.001Z</time></trkpt><trkpt lat="45.30758961074197" lon="8.775364397921772"><ele>110.0</ele><time>2026-04-07T16:48:39.001Z</time></trkpt><trkpt lat="45.307579794143564" lon="8.775215687169247"><ele>110.0</ele><time>2026-04-07T16:48:41.001Z</time></trkpt><trkpt lat="45.30757177758302" lon="8.775065295750284"><ele>110.0</ele><time>2026-04-07T16:48:43.001Z</time></trkpt><trkpt lat="45.30757293510144" lon="8.774908699519443"><ele>110.0</ele><time>2026-04-07T16:48:45.001Z</time></trkpt><trkpt lat="45.30758306731064" lon="8.774755873533238"><ele>110.0</ele><time>2026-04-07T16:48:47.001Z</time></trkpt><trkpt lat="45.307583407909114" lon="8.774600986774326"><ele>110.0</ele><time>2026-04-07T16:48:49.001Z</time></trkpt><trkpt lat="45.30758301604269" lon="8.774448462271746"><ele>110.0</ele><time>2026-04-07T16:48:51.001Z</time></trkpt><trkpt lat="45.30758190258129" lon="8.774294706324499"><ele>110.0</ele><time>2026-04-07T16:48:53.001Z</time></trkpt><trkpt lat="45.30758389637585" lon="8.774139739361143"><ele>110.0</ele><time>2026-04-07T16:48:55Z</time></trkpt><trkpt lat="45.30758434399468" lon="8.773984366680883"><ele>110.0</ele><time>2026-04-07T16:48:57Z</time></trkpt><trkpt lat="45.3075836369724" lon="8.773829472023845"><ele>110.4</ele><time>2026-04-07T16:48:59Z</time></trkpt><trkpt lat="45.307587365251315" lon="8.773673596387933"><ele>110.8</ele><time>2026-04-07T16:49:01Z</time></trkpt><trkpt lat="45.30758755593422" lon="8.773519066680404"><ele>111.19999999999999</ele><time>2026-04-07T16:49:03Z</time></trkpt><trkpt lat="45.307587572817496" lon="8.773364708594718"><ele>111.6</ele><time>2026-04-07T16:49:05Z</time></trkpt><trkpt lat="45.30758602202681" lon="8.773210622534535"><ele>112.0</ele><time>2026-04-07T16:49:07Z</time></trkpt><trkpt lat="45.307587457688896" lon="8.773057371900144"><ele>112.0</ele><time>2026-04-07T16:49:09Z</time></trkpt><trkpt lat="45.30758792964862" lon="8.772903997929378"><ele>111.99999999999999</ele><time>2026-04-07T16:49:11Z</time></trkpt><trkpt lat="45.307587704091254" lon="8.77275308655605"><ele>111.99999999999999</ele><time>2026-04-07T16:49:13Z</time></trkpt><trkpt lat="45.307587081379275" lon="8.772600630207808"><ele>112.0</ele><time>2026-04-07T16:49:15Z</time></trkpt><trkpt lat="45.30758546263824" lon="8.772453877602498"><ele>112.0</ele><time>2026-04-07T16:49:17Z</time></trkpt><trkpt lat="45.307585416611104" lon="8.772300693840409"><ele>112.0</ele><time>2026-04-07T16:49:19Z</time></trkpt><trkpt lat="45.30758613034118" lon="8.772146124466028"><ele>111.99999999999999</ele><time>2026-04-07T16:49:21Z</time></trkpt><trkpt lat="45.30758657330309" lon="8.771995546757974"><ele>111.99999999999999</ele><time>2026-04-07T16:49:23Z</time></trkpt><trkpt lat="45.307588427902445" lon="8.771849030148761"><ele>112.0</ele><time>2026-04-07T16:49:25Z</time></trkpt><trkpt lat="45.30758535044527" lon="8.771716167930004"><ele>112.0</ele><time>2026-04-07T16:49:27Z</time></trkpt><trkpt lat="45.30758863307666" lon="8.771591508732024"><ele>111.50000000000001</ele><time>2026-04-07T16:49:29Z</time></trkpt><trkpt lat="45.30759050791637" lon="8.771473021764702"><ele>111.0</ele><time>2026-04-07T16:49:31Z</time></trkpt><trkpt lat="45.3075917473213" lon="8.771352457285591"><ele>110.5</ele><time>2026-04-07T16:49:33Z</time></trkpt><trkpt lat="45.30759103496544" lon="8.771236470319169"><ele>110.0</ele><time>2026-04-07T16:49:35Z</time></trkpt><trkpt lat="45.3075917569509" lon="8.771120247269288"><ele>109.50000000000001</ele><time>2026-04-07T16:49:37Z</time></trkpt><trkpt lat="45.30758935713711" lon="8.77100513882346"><ele>109.0</ele><time>2026-04-07T16:49:39Z</time></trkpt><trkpt lat="45.30758796593276" lon="8.770886324256685"><ele>109.00000000000001</ele><time>2026-04-07T16:49:41Z</time></trkpt><trkpt lat="45.30757812249296" lon="8.770767779844364"><ele>109.0</ele><time>2026-04-07T16:49:43Z</time></trkpt><trkpt lat="45.307570116550586" lon="8.770650397605147"><ele>109.0</ele><time>2026-04-07T16:49:45Z</time></trkpt><trkpt lat="45.30756354404515" lon="8.770533807700435"><ele>109.0</ele><time>2026-04-07T16:49:47Z</time></trkpt><trkpt lat="45.30755475069556" lon="8.770413852204937"><ele>109.00000000000001</ele><time>2026-04-07T16:49:49Z</time></trkpt><trkpt lat="45.307546187484085" lon="8.770293054921854"><ele>109.0</ele><time>2026-04-07T16:49:51Z</time></trkpt><trkpt lat="45.30754061523677" lon="8.770171294357185"><ele>109.16666666666667</ele><time>2026-04-07T16:49:53Z</time></trkpt><trkpt lat="45.30753682886025" lon="8.770047475524457"><ele>109.33333333333334</ele><time>2026-04-07T16:49:55Z</time></trkpt><trkpt lat="45.30753319134927" lon="8.769920720490369"><ele>109.5</ele><time>2026-04-07T16:49:57Z</time></trkpt><trkpt lat="45.30753325656195" lon="8.769797895372799"><ele>109.66666666666666</ele><time>2026-04-07T16:49:59Z</time></trkpt><trkpt lat="45.30753441521154" lon="8.76967590185255"><ele>109.83333333333333</ele><time>2026-04-07T16:50:01Z</time></trkpt><trkpt lat="45.307535867468246" lon="8.769552338126651"><ele>110.0</ele><time>2026-04-07T16:50:03Z</time></trkpt><trkpt lat="45.307539652725524" lon="8.769427930774368"><ele>109.99999999999999</ele><time>2026-04-07T16:50:05Z</time></trkpt><trkpt lat="45.307542301616394" lon="8.76930261015815"><ele>110.0</ele><time>2026-04-07T16:50:07Z</time></trkpt><trkpt lat="45.30754734298189" lon="8.769178380747729"><ele>110.0</ele><time>2026-04-07T16:50:09Z</time></trkpt><trkpt lat="45.307552564685125" lon="8.769053582204327"><ele>110.0</ele><time>2026-04-07T16:50:11Z</time></trkpt><trkpt lat="45.30755854972353" lon="8.768929925073264"><ele>109.99999999999999</ele><time>2026-04-07T16:50:13Z</time></trkpt><trkpt lat="45.307569782808116" lon="8.768800201906737"><ele>110.0</ele><time>2026-04-07T16:50:15Z</time></trkpt><trkpt lat="45.30758189232875" lon="8.768668639940598"><ele>109.99999999999999</ele><time>2026-04-07T16:50:17.001Z</time></trkpt><trkpt lat="45.307597008255996" lon="8.768536515077955"><ele>110.0</ele><time>2026-04-07T16:50:19.001Z</time></trkpt><trkpt lat="45.30761148604645" lon="8.768412615133103"><ele>110.0</ele><time>2026-04-07T16:50:21.001Z</time></trkpt><trkpt lat="45.30762664485552" lon="8.768295131763061"><ele>110.0</ele><time>2026-04-07T16:50:23.001Z</time></trkpt><trkpt lat="45.30764592728728" lon="8.768181247846073"><ele>109.99999999999999</ele><time>2026-04-07T16:50:25.001Z</time></trkpt><trkpt lat="45.3076664848654" lon="8.768059567910676"><ele>110.0</ele><time>2026-04-07T16:50:27.001Z</time></trkpt><trkpt lat="45.307686050964264" lon="8.767932880918387"><ele>110.16666666666666</ele><time>2026-04-07T16:50:29.001Z</time></trkpt><trkpt lat="45.307715179167346" lon="8.767805107534743"><ele>110.33333333333333</ele><time>2026-04-07T16:50:31.001Z</time></trkpt><trkpt lat="45.30774089270542" lon="8.76767146540012"><ele>110.5</ele><time>2026-04-07T16:50:33.001Z</time></trkpt><trkpt lat="45.30777203581894" lon="8.767543480441827"><ele>110.66666666666666</ele><time>2026-04-07T16:50:35.001Z</time></trkpt><trkpt lat="45.307795242857644" lon="8.767452406738121"><ele>110.83333333333333</ele><time>2026-04-07T16:50:37.001Z</time></trkpt><trkpt lat="45.307822262589944" lon="8.767368495012184"><ele>111.0</ele><time>2026-04-07T16:52:52.001Z</time></trkpt><trkpt lat="45.30784535341134" lon="8.767265780961738"><ele>111.0</ele><time>2026-04-07T16:52:55.001Z</time></trkpt><trkpt lat="45.30787534611013" lon="8.767148821241284"><ele>111.0</ele><time>2026-04-07T16:52:58.001Z</time></trkpt><trkpt lat="45.307894259090304" lon="8.767059556902343"><ele>111.0</ele><time>2026-04-07T16:53:00.001Z</time></trkpt><trkpt lat="45.30792580312568" lon="8.766969833313485"><ele>111.0</ele><time>2026-04-07T16:53:02.001Z</time></trkpt><trkpt lat="45.307955030927765" lon="8.766872014485944"><ele>111.0</ele><time>2026-04-07T16:53:04.001Z</time></trkpt><trkpt lat="45.3079900235789" lon="8.7667691029323"><ele>111.0</ele><time>2026-04-07T16:53:06Z</time></trkpt><trkpt lat="45.30802243413197" lon="8.766662936784742"><ele>110.83333333333333</ele><time>2026-04-07T16:53:08Z</time></trkpt><trkpt lat="45.3080528141607" lon="8.766556422435947"><ele>110.66666666666666</ele><time>2026-04-07T16:53:10Z</time></trkpt><trkpt lat="45.308084734500156" lon="8.766458632466701"><ele>110.5</ele><time>2026-04-07T16:53:12Z</time></trkpt><trkpt lat="45.30811422046629" lon="8.76635366622835"><ele>110.33333333333333</ele><time>2026-04-07T16:53:14Z</time></trkpt><trkpt lat="45.30814430976832" lon="8.766245194122854"><ele>110.16666666666666</ele><time>2026-04-07T16:53:16Z</time></trkpt><trkpt lat="45.308176473402746" lon="8.766135524386833"><ele>110.0</ele><time>2026-04-07T16:53:18Z</time></trkpt><trkpt lat="45.30821368907644" lon="8.766019549330636"><ele>110.0</ele><time>2026-04-07T16:53:20Z</time></trkpt><trkpt lat="45.30824922971375" lon="8.765901648630335"><ele>110.0</ele><time>2026-04-07T16:53:22Z</time></trkpt><trkpt lat="45.30828369671148" lon="8.765778132328947"><ele>110.0</ele><time>2026-04-07T16:53:24Z</time></trkpt><trkpt lat="45.30831954135195" lon="8.765657872626589"><ele>110.0</ele><time>2026-04-07T16:53:26Z</time></trkpt><trkpt lat="45.308355432073306" lon="8.76553613710743"><ele>110.0</ele><time>2026-04-07T16:53:28Z</time></trkpt><trkpt lat="45.30839097159953" lon="8.76541328895671"><ele>110.0</ele><time>2026-04-07T16:53:30Z</time></trkpt><trkpt lat="45.30842637225027" lon="8.765287544003025"><ele>110.0</ele><time>2026-04-07T16:53:32Z</time></trkpt><trkpt lat="45.30846090611357" lon="8.765164494209586"><ele>110.0</ele><time>2026-04-07T16:53:34Z</time></trkpt><trkpt lat="45.308491386953136" lon="8.765040808666605"><ele>110.0</ele><time>2026-04-07T16:53:36Z</time></trkpt><trkpt lat="45.30852275392985" lon="8.764917496351114"><ele>110.0</ele><time>2026-04-07T16:53:38Z</time></trkpt><trkpt lat="45.308553981985455" lon="8.764794309805719"><ele>110.0</ele><time>2026-04-07T16:53:40Z</time></trkpt><trkpt lat="45.30858077650791" lon="8.764668982420474"><ele>110.0</ele><time>2026-04-07T16:53:42Z</time></trkpt><trkpt lat="45.30860879836749" lon="8.76454368797705"><ele>110.0</ele><time>2026-04-07T16:53:44Z</time></trkpt><trkpt lat="45.30863998336872" lon="8.764420053432469"><ele>110.0</ele><time>2026-04-07T16:53:46Z</time></trkpt><trkpt lat="45.30866777015415" lon="8.764294969527466"><ele>110.0</ele><time>2026-04-07T16:53:48Z</time></trkpt><trkpt lat="45.308695218048086" lon="8.764170634177706"><ele>110.2</ele><time>2026-04-07T16:53:50Z</time></trkpt><trkpt lat="45.308725995063895" lon="8.764048016565063"><ele>110.4</ele><time>2026-04-07T16:53:52Z</time></trkpt><trkpt lat="45.308752796654346" lon="8.763921501978427"><ele>110.6</ele><time>2026-04-07T16:53:54Z</time></trkpt><trkpt lat="45.30877992521748" lon="8.763795499043477"><ele>110.8</ele><time>2026-04-07T16:53:56Z</time></trkpt><trkpt lat="45.308809244857045" lon="8.763668964429339"><ele>111.0</ele><time>2026-04-07T16:53:58Z</time></trkpt><trkpt lat="45.30884136941419" lon="8.763540118932095"><ele>111.0</ele><time>2026-04-07T16:54:00Z</time></trkpt><trkpt lat="45.30887340056627" lon="8.76341325408591"><ele>111.0</ele><time>2026-04-07T16:54:02Z</time></trkpt><trkpt lat="45.30889991952957" lon="8.763282616483307"><ele>111.0</ele><time>2026-04-07T16:54:04Z</time></trkpt><trkpt lat="45.30893533316904" lon="8.763154918261927"><ele>111.0</ele><time>2026-04-07T16:54:06Z</time></trkpt><trkpt lat="45.30896703272877" lon="8.763024352914774"><ele>111.0</ele><time>2026-04-07T16:54:08Z</time></trkpt><trkpt lat="45.308999825916985" lon="8.762892401160478"><ele>111.4</ele><time>2026-04-07T16:54:10Z</time></trkpt><trkpt lat="45.30903071931867" lon="8.76275591059838"><ele>111.8</ele><time>2026-04-07T16:54:12Z</time></trkpt><trkpt lat="45.30906634017268" lon="8.762625204793867"><ele>112.20000000000002</ele><time>2026-04-07T16:54:14Z</time></trkpt><trkpt lat="45.30910043300416" lon="8.762493299955839"><ele>112.60000000000001</ele><time>2026-04-07T16:54:16Z</time></trkpt><trkpt lat="45.30913532461687" lon="8.762361934195068"><ele>113.0</ele><time>2026-04-07T16:54:18Z</time></trkpt><trkpt lat="45.309171629300415" lon="8.762231314256027"><ele>113.0</ele><time>2026-04-07T16:54:20Z</time></trkpt><trkpt lat="45.30920424232392" lon="8.762097743375863"><ele>113.00000000000001</ele><time>2026-04-07T16:54:22Z</time></trkpt><trkpt lat="45.309241952479944" lon="8.761965914146234"><ele>113.00000000000001</ele><time>2026-04-07T16:54:24Z</time></trkpt><trkpt lat="45.309275604251766" lon="8.761833790999413"><ele>113.0</ele><time>2026-04-07T16:54:26Z</time></trkpt><trkpt lat="45.30930976884834" lon="8.761698727954641"><ele>113.0</ele><time>2026-04-07T16:54:28Z</time></trkpt><trkpt lat="45.30934432130418" lon="8.761564139222815"><ele>112.60000000000001</ele><time>2026-04-07T16:54:30Z</time></trkpt><trkpt lat="45.30936827888107" lon="8.761427089524569"><ele>112.20000000000002</ele><time>2026-04-07T16:54:32Z</time></trkpt><trkpt lat="45.30939717885522" lon="8.761288221335448"><ele>111.8</ele><time>2026-04-07T16:54:34Z</time></trkpt><trkpt lat="45.30944208781184" lon="8.761156121767035"><ele>111.4</ele><time>2026-04-07T16:54:36Z</time></trkpt><trkpt lat="45.30947214128011" lon="8.761017130836613"><ele>111.0</ele><time>2026-04-07T16:54:38Z</time></trkpt><trkpt lat="45.30949832810759" lon="8.76087812301209"><ele>111.0</ele><time>2026-04-07T16:54:40Z</time></trkpt><trkpt lat="45.30952744962957" lon="8.760740307748943"><ele>111.0</ele><time>2026-04-07T16:54:42Z</time></trkpt><trkpt lat="45.309554453564935" lon="8.760604077735602"><ele>111.0</ele><time>2026-04-07T16:54:44Z</time></trkpt><trkpt lat="45.30957842670625" lon="8.760464789093023"><ele>111.0</ele><time>2026-04-07T16:54:46Z</time></trkpt><trkpt lat="45.3096050836795" lon="8.760326798481566"><ele>111.0</ele><time>2026-04-07T16:54:48Z</time></trkpt><trkpt lat="45.30963050551883" lon="8.760186843943833"><ele>111.0</ele><time>2026-04-07T16:54:50Z</time></trkpt><trkpt lat="45.3096542528441" lon="8.760050024217453"><ele>111.0</ele><time>2026-04-07T16:54:52Z</time></trkpt><trkpt lat="45.30967783792029" lon="8.759911635823782"><ele>111.0</ele><time>2026-04-07T16:54:54Z</time></trkpt><trkpt lat="45.30970265274631" lon="8.759775549688847"><ele>111.0</ele><time>2026-04-07T16:54:56Z</time></trkpt><trkpt lat="45.309725343237794" lon="8.759635840366185"><ele>111.0</ele><time>2026-04-07T16:54:58Z</time></trkpt><trkpt lat="45.3097511694058" lon="8.75949552346694"><ele>111.0</ele><time>2026-04-07T16:55:00Z</time></trkpt><trkpt lat="45.3097762970758" lon="8.759355191167236"><ele>111.0</ele><time>2026-04-07T16:55:02Z</time></trkpt><trkpt lat="45.30980176467198" lon="8.759219942192654"><ele>111.0</ele><time>2026-04-07T16:55:04Z</time></trkpt><trkpt lat="45.30982486989764" lon="8.759080712492608"><ele>111.0</ele><time>2026-04-07T16:55:06Z</time></trkpt><trkpt lat="45.309850386079454" lon="8.758943627703273"><ele>111.0</ele><time>2026-04-07T16:55:08.001Z</time></trkpt><trkpt lat="45.30987360274196" lon="8.758809297875125"><ele>111.0</ele><time>2026-04-07T16:55:10.001Z</time></trkpt><trkpt lat="45.30989742925119" lon="8.758677083331408"><ele>111.0</ele><time>2026-04-07T16:55:12Z</time></trkpt><trkpt lat="45.309921653151434" lon="8.758543144744598"><ele>111.0</ele><time>2026-04-07T16:55:14Z</time></trkpt><trkpt lat="45.309944663589775" lon="8.75840941520367"><ele>111.0</ele><time>2026-04-07T16:55:16Z</time></trkpt><trkpt lat="45.309971015233415" lon="8.758280363276805"><ele>111.0</ele><time>2026-04-07T16:55:18Z</time></trkpt><trkpt lat="45.30999688326686" lon="8.758149189717011"><ele>111.6</ele><time>2026-04-07T16:55:20Z</time></trkpt><trkpt lat="45.3100196536804" lon="8.758019475092503"><ele>112.19999999999999</ele><time>2026-04-07T16:55:22Z</time></trkpt><trkpt lat="45.310042813018995" lon="8.757891652327991"><ele>112.80000000000001</ele><time>2026-04-07T16:55:24Z</time></trkpt><trkpt lat="45.31006444507478" lon="8.757765353983402"><ele>113.4</ele><time>2026-04-07T16:55:26Z</time></trkpt><trkpt lat="45.31008440416194" lon="8.757639242887445"><ele>114.0</ele><time>2026-04-07T16:55:28Z</time></trkpt><trkpt lat="45.31010431946699" lon="8.757509966087076"><ele>114.2</ele><time>2026-04-07T16:55:30Z</time></trkpt><trkpt lat="45.31012133553838" lon="8.757382161860768"><ele>114.4</ele><time>2026-04-07T16:55:32Z</time></trkpt><trkpt lat="45.3101458058706" lon="8.7572542642431"><ele>114.6</ele><time>2026-04-07T16:55:34Z</time></trkpt><trkpt lat="45.310165888389314" lon="8.757122478128133"><ele>114.8</ele><time>2026-04-07T16:55:36Z</time></trkpt><trkpt lat="45.310185722474685" lon="8.756992537887804"><ele>115.0</ele><time>2026-04-07T16:55:38Z</time></trkpt><trkpt lat="45.31020441147362" lon="8.756859984626947"><ele>115.2</ele><time>2026-04-07T16:55:40Z</time></trkpt><trkpt lat="45.31022719219936" lon="8.756730912954549"><ele>115.4</ele><time>2026-04-07T16:55:42Z</time></trkpt><trkpt lat="45.310241725396246" lon="8.756601865413929"><ele>115.6</ele><time>2026-04-07T16:55:44Z</time></trkpt><trkpt lat="45.310254566085284" lon="8.75646852525522"><ele>115.8</ele><time>2026-04-07T16:55:46Z</time></trkpt><trkpt lat="45.3102872635881" lon="8.756341908226556"><ele>116.0</ele><time>2026-04-07T16:55:48Z</time></trkpt><trkpt lat="45.310314792961464" lon="8.756211710150403"><ele>116.0</ele><time>2026-04-07T16:55:50Z</time></trkpt><trkpt lat="45.310336013170044" lon="8.756074923032187"><ele>116.0</ele><time>2026-04-07T16:55:52Z</time></trkpt><trkpt lat="45.310356828868336" lon="8.75594231635625"><ele>116.0</ele><time>2026-04-07T16:55:54Z</time></trkpt><trkpt lat="45.310378290113114" lon="8.755808607219535"><ele>116.0</ele><time>2026-04-07T16:55:56Z</time></trkpt><trkpt lat="45.310400966738456" lon="8.755679455668092"><ele>116.0</ele><time>2026-04-07T16:55:58Z</time></trkpt><trkpt lat="45.310415622182106" lon="8.755551258617126"><ele>115.66666666666666</ele><time>2026-04-07T16:56:00Z</time></trkpt><trkpt lat="45.310424813260525" lon="8.755422299649235"><ele>115.33333333333333</ele><time>2026-04-07T16:56:02Z</time></trkpt><trkpt lat="45.31042078718036" lon="8.755298143175931"><ele>115.0</ele><time>2026-04-07T16:56:04Z</time></trkpt><trkpt lat="45.31041907975465" lon="8.755176989792126"><ele>114.66666666666666</ele><time>2026-04-07T16:56:06Z</time></trkpt><trkpt lat="45.3104227219948" lon="8.75505545914349"><ele>114.33333333333333</ele><time>2026-04-07T16:56:08Z</time></trkpt><trkpt lat="45.31042842639845" lon="8.754935664791011"><ele>114.0</ele><time>2026-04-07T16:56:10Z</time></trkpt><trkpt lat="45.31043281505709" lon="8.754818291728808"><ele>114.0</ele><time>2026-04-07T16:56:12Z</time></trkpt><trkpt lat="45.31044535552345" lon="8.754703966545803"><ele>114.0</ele><time>2026-04-07T16:56:14Z</time></trkpt><trkpt lat="45.31044931650265" lon="8.754590523430815"><ele>114.0</ele><time>2026-04-07T16:56:16Z</time></trkpt><trkpt lat="45.310450919509655" lon="8.754476623828603"><ele>114.0</ele><time>2026-04-07T16:56:18Z</time></trkpt><trkpt lat="45.31045791376196" lon="8.754359251990655"><ele>114.0</ele><time>2026-04-07T16:56:20Z</time></trkpt><trkpt lat="45.31046132786396" lon="8.754238740437083"><ele>114.0</ele><time>2026-04-07T16:56:22Z</time></trkpt><trkpt lat="45.31046668090494" lon="8.754114679710254"><ele>114.16666666666667</ele><time>2026-04-07T16:56:24Z</time></trkpt><trkpt lat="45.310471849145884" lon="8.753994316429164"><ele>114.33333333333334</ele><time>2026-04-07T16:56:26Z</time></trkpt><trkpt lat="45.3104677141802" lon="8.753871420089757"><ele>114.5</ele><time>2026-04-07T16:56:28Z</time></trkpt><trkpt lat="45.31045533868521" lon="8.75374849781386"><ele>114.66666666666667</ele><time>2026-04-07T16:56:30Z</time></trkpt><trkpt lat="45.31044149837039" lon="8.75362320612509"><ele>114.83333333333334</ele><time>2026-04-07T16:56:32Z</time></trkpt><trkpt lat="45.31041688861775" lon="8.753492678573055"><ele>115.0</ele><time>2026-04-07T16:56:34Z</time></trkpt><trkpt lat="45.31039875739517" lon="8.75337150818688"><ele>115.0</ele><time>2026-04-07T16:56:36Z</time></trkpt><trkpt lat="45.31038351770578" lon="8.753246156151196"><ele>115.0</ele><time>2026-04-07T16:56:38Z</time></trkpt><trkpt lat="45.31036591163743" lon="8.753118948890814"><ele>115.0</ele><time>2026-04-07T16:56:40Z</time></trkpt><trkpt lat="45.31035211157749" lon="8.752989861282458"><ele>115.0</ele><time>2026-04-07T16:56:42Z</time></trkpt><trkpt lat="45.310337690954036" lon="8.752857495740738"><ele>115.0</ele><time>2026-04-07T16:56:44Z</time></trkpt><trkpt lat="45.310316184491484" lon="8.75272555578282"><ele>115.0</ele><time>2026-04-07T16:56:46Z</time></trkpt><trkpt lat="45.31030345245452" lon="8.752592288546886"><ele>115.0</ele><time>2026-04-07T16:56:48Z</time></trkpt><trkpt lat="45.31029566863133" lon="8.75245371352421"><ele>115.0</ele><time>2026-04-07T16:56:50Z</time></trkpt><trkpt lat="45.31028418639108" lon="8.752318348564408"><ele>115.0</ele><time>2026-04-07T16:56:52Z</time></trkpt><trkpt lat="45.310271160073796" lon="8.752180485049498"><ele>115.0</ele><time>2026-04-07T16:56:54Z</time></trkpt><trkpt lat="45.31025744052112" lon="8.75204368611796"><ele>115.0</ele><time>2026-04-07T16:56:56.001Z</time></trkpt><trkpt lat="45.310248882972836" lon="8.751904496084896"><ele>115.0</ele><time>2026-04-07T16:56:58.001Z</time></trkpt><trkpt lat="45.31023534360922" lon="8.751764479943768"><ele>115.0</ele><time>2026-04-07T16:57:00.001Z</time></trkpt><trkpt lat="45.310223766350795" lon="8.751624403668181"><ele>115.0</ele><time>2026-04-07T16:57:02.001Z</time></trkpt><trkpt lat="45.31021009636742" lon="8.751483543333562"><ele>115.0</ele><time>2026-04-07T16:57:04.001Z</time></trkpt><trkpt lat="45.31020336433234" lon="8.751342331526454"><ele>115.0</ele><time>2026-04-07T16:57:06.001Z</time></trkpt><trkpt lat="45.31018469595728" lon="8.751202416377895"><ele>115.0</ele><time>2026-04-07T16:57:08.001Z</time></trkpt><trkpt lat="45.31017299451027" lon="8.751063759335949"><ele>115.0</ele><time>2026-04-07T16:57:10.001Z</time></trkpt><trkpt lat="45.310161299813174" lon="8.750925797229874"><ele>115.0</ele><time>2026-04-07T16:57:12.001Z</time></trkpt><trkpt lat="45.31013874330899" lon="8.750786926504484"><ele>115.0</ele><time>2026-04-07T16:57:14.001Z</time></trkpt><trkpt lat="45.31010965842504" lon="8.750648492156088"><ele>115.0</ele><time>2026-04-07T16:57:16.001Z</time></trkpt><trkpt lat="45.31008574412137" lon="8.750504015175503"><ele>115.0</ele><time>2026-04-07T16:57:18Z</time></trkpt><trkpt lat="45.310059902670616" lon="8.750361677151053"><ele>115.0</ele><time>2026-04-07T16:57:20Z</time></trkpt><trkpt lat="45.3100326215258" lon="8.750216241845752"><ele>115.0</ele><time>2026-04-07T16:57:22Z</time></trkpt><trkpt lat="45.31000826011452" lon="8.750070143960087"><ele>115.0</ele><time>2026-04-07T16:57:24Z</time></trkpt><trkpt lat="45.3099981371409" lon="8.749918713269542"><ele>115.0</ele><time>2026-04-07T16:57:26Z</time></trkpt><trkpt lat="45.310000158612134" lon="8.749767643283192"><ele>115.0</ele><time>2026-04-07T16:57:28Z</time></trkpt><trkpt lat="45.31000584145763" lon="8.7496210414638"><ele>115.0</ele><time>2026-04-07T16:57:30Z</time></trkpt><trkpt lat="45.3100012998815" lon="8.749484817630904"><ele>115.0</ele><time>2026-04-07T16:57:32Z</time></trkpt><trkpt lat="45.3100047314785" lon="8.749356550589104"><ele>115.0</ele><time>2026-04-07T16:57:34Z</time></trkpt><trkpt lat="45.3100046361815" lon="8.749234102564799"><ele>115.16666666666667</ele><time>2026-04-07T16:57:36Z</time></trkpt><trkpt lat="45.310006553054" lon="8.749127868474918"><ele>115.33333333333334</ele><time>2026-04-07T16:57:38Z</time></trkpt><trkpt lat="45.30999925521624" lon="8.749020229927353"><ele>115.5</ele><time>2026-04-07T16:57:41Z</time></trkpt><trkpt lat="45.30998296068748" lon="8.748925166608986"><ele>115.66666666666666</ele><time>2026-04-07T16:58:28Z</time></trkpt><trkpt lat="45.30999216705783" lon="8.748826923438711"><ele>115.83333333333333</ele><time>2026-04-07T16:58:31.001Z</time></trkpt><trkpt lat="45.30996895148894" lon="8.748714416616691"><ele>116.0</ele><time>2026-04-07T16:58:34.001Z</time></trkpt><trkpt lat="45.30995760152941" lon="8.748581671740356"><ele>115.66666666666666</ele><time>2026-04-07T16:58:37.001Z</time></trkpt><trkpt lat="45.30994981881915" lon="8.748480486393658"><ele>115.33333333333333</ele><time>2026-04-07T16:58:39.001Z</time></trkpt><trkpt lat="45.309940458536275" lon="8.748372159761214"><ele>115.0</ele><time>2026-04-07T16:58:41.001Z</time></trkpt><trkpt lat="45.30992629463142" lon="8.748257391911531"><ele>114.66666666666666</ele><time>2026-04-07T16:58:43.001Z</time></trkpt><trkpt lat="45.30990212738837" lon="8.748144539626482"><ele>114.33333333333333</ele><time>2026-04-07T16:58:45.001Z</time></trkpt><trkpt lat="45.30987745735588" lon="8.748031632018726"><ele>114.0</ele><time>2026-04-07T16:58:47.001Z</time></trkpt><trkpt lat="45.30985023109641" lon="8.747917623776239"><ele>114.0</ele><time>2026-04-07T16:58:49.001Z</time></trkpt><trkpt lat="45.30982034988719" lon="8.747807254771644"><ele>114.0</ele><time>2026-04-07T16:58:51.001Z</time></trkpt><trkpt lat="45.30979266437801" lon="8.74769194607294"><ele>114.0</ele><time>2026-04-07T16:58:53.001Z</time></trkpt><trkpt lat="45.309763587219045" lon="8.747575223584207"><ele>114.0</ele><time>2026-04-07T16:58:55.001Z</time></trkpt><trkpt lat="45.30972569550825" lon="8.747461485231153"><ele>114.0</ele><time>2026-04-07T16:58:57.001Z</time></trkpt><trkpt lat="45.30968303239568" lon="8.747348613665288"><ele>114.0</ele><time>2026-04-07T16:58:59.001Z</time></trkpt><trkpt lat="45.309644955265654" lon="8.747235405055578"><ele>114.4</ele><time>2026-04-07T16:59:01.001Z</time></trkpt><trkpt lat="45.30960157698845" lon="8.747120054809901"><ele>114.80000000000001</ele><time>2026-04-07T16:59:03.001Z</time></trkpt><trkpt lat="45.30954303221024" lon="8.747017453332486"><ele>115.19999999999999</ele><time>2026-04-07T16:59:05.001Z</time></trkpt><trkpt lat="45.30948133995335" lon="8.746916725197039"><ele>115.6</ele><time>2026-04-07T16:59:07.001Z</time></trkpt><trkpt lat="45.309422807972275" lon="8.746812732996576"><ele>116.0</ele><time>2026-04-07T16:59:09.001Z</time></trkpt><trkpt lat="45.30936375481185" lon="8.746708629661287"><ele>116.0</ele><time>2026-04-07T16:59:11.001Z</time></trkpt><trkpt lat="45.309306429703945" lon="8.746595290656646"><ele>116.0</ele><time>2026-04-07T16:59:13.001Z</time></trkpt><trkpt lat="45.30924509344265" lon="8.746493021224728"><ele>116.0</ele><time>2026-04-07T16:59:15.001Z</time></trkpt><trkpt lat="45.309185325872114" lon="8.746385621887434"><ele>116.0</ele><time>2026-04-07T16:59:17.001Z</time></trkpt><trkpt lat="45.30913438216185" lon="8.746267368257914"><ele>116.0</ele><time>2026-04-07T16:59:19.001Z</time></trkpt><trkpt lat="45.309091786813596" lon="8.746139486828861"><ele>115.8</ele><time>2026-04-07T16:59:21.001Z</time></trkpt><trkpt lat="45.30904583924109" lon="8.746016849995263"><ele>115.6</ele><time>2026-04-07T16:59:23.001Z</time></trkpt><trkpt lat="45.30902231409578" lon="8.745873042264698"><ele>115.4</ele><time>2026-04-07T16:59:25.001Z</time></trkpt><trkpt lat="45.30900045252711" lon="8.745728547350083"><ele>115.2</ele><time>2026-04-07T16:59:27.001Z</time></trkpt><trkpt lat="45.308982193476" lon="8.745579911381947"><ele>115.0</ele><time>2026-04-07T16:59:29.001Z</time></trkpt><trkpt lat="45.30896754885641" lon="8.745435350715864"><ele>115.0</ele><time>2026-04-07T16:59:31.001Z</time></trkpt><trkpt lat="45.308961252142424" lon="8.745292192692476"><ele>115.0</ele><time>2026-04-07T16:59:33.001Z</time></trkpt><trkpt lat="45.30895438489866" lon="8.745156714278592"><ele>115.0</ele><time>2026-04-07T16:59:35.001Z</time></trkpt><trkpt lat="45.30896963602953" lon="8.745030648454811"><ele>115.0</ele><time>2026-04-07T16:59:37.001Z</time></trkpt><trkpt lat="45.30904327015159" lon="8.74496552117225"><ele>115.0</ele><time>2026-04-07T16:59:39Z</time></trkpt><trkpt lat="45.30914498847456" lon="8.744970407467903"><ele>115.0</ele><time>2026-04-07T16:59:41Z</time></trkpt><trkpt lat="45.30924245734844" lon="8.74497487226669"><ele>115.0</ele><time>2026-04-07T16:59:43Z</time></trkpt><trkpt lat="45.30933980739284" lon="8.744988820315651"><ele>115.0</ele><time>2026-04-07T16:59:45Z</time></trkpt><trkpt lat="45.309444051649194" lon="8.744985518784073"><ele>115.0</ele><time>2026-04-07T16:59:47Z</time></trkpt><trkpt lat="45.30954754668087" lon="8.74497148995863"><ele>115.0</ele><time>2026-04-07T16:59:49Z</time></trkpt><trkpt lat="45.30964991142449" lon="8.744958566280403"><ele>115.2</ele><time>2026-04-07T16:59:51Z</time></trkpt><trkpt lat="45.30975183997311" lon="8.744945094821908"><ele>115.4</ele><time>2026-04-07T16:59:53Z</time></trkpt><trkpt lat="45.30985259040678" lon="8.74493491703177"><ele>115.6</ele><time>2026-04-07T16:59:55Z</time></trkpt><trkpt lat="45.30995192167123" lon="8.744919109936141"><ele>115.8</ele><time>2026-04-07T16:59:57Z</time></trkpt><trkpt lat="45.31005126459975" lon="8.744895957412036"><ele>116.0</ele><time>2026-04-07T16:59:59Z</time></trkpt><trkpt lat="45.310146381324564" lon="8.744873768479012"><ele>116.0</ele><time>2026-04-07T17:00:01Z</time></trkpt><trkpt lat="45.31019281933481" lon="8.7447568779457"><ele>116.0</ele><time>2026-04-07T17:00:03Z</time></trkpt><trkpt lat="45.31019460633171" lon="8.744608112354992"><ele>116.0</ele><time>2026-04-07T17:00:05Z</time></trkpt><trkpt lat="45.31018627447143" lon="8.744476938958806"><ele>116.0</ele><time>2026-04-07T17:00:07Z</time></trkpt><trkpt lat="45.310186991795305" lon="8.744347025647969"><ele>116.0</ele><time>2026-04-07T17:00:09.001Z</time></trkpt><trkpt lat="45.310185485854696" lon="8.744218642188383"><ele>116.0</ele><time>2026-04-07T17:00:11.001Z</time></trkpt><trkpt lat="45.31017634793461" lon="8.744090905323533"><ele>116.0</ele><time>2026-04-07T17:00:13.001Z</time></trkpt><trkpt lat="45.310153332344946" lon="8.74396246380874"><ele>116.0</ele><time>2026-04-07T17:00:15.001Z</time></trkpt><trkpt lat="45.310127160137235" lon="8.743848641863538"><ele>116.0</ele><time>2026-04-07T17:00:17.001Z</time></trkpt><trkpt lat="45.310103104319126" lon="8.743710916774761"><ele>116.0</ele><time>2026-04-07T17:00:19.001Z</time></trkpt><trkpt lat="45.31007656526786" lon="8.743583282238232"><ele>115.99999999999999</ele><time>2026-04-07T17:00:21.001Z</time></trkpt><trkpt lat="45.31005190006956" lon="8.743454059271295"><ele>116.0</ele><time>2026-04-07T17:00:23.001Z</time></trkpt><trkpt lat="45.310019366930455" lon="8.743335558983311"><ele>116.0</ele><time>2026-04-07T17:00:25.001Z</time></trkpt><trkpt lat="45.30999886291267" lon="8.74321231772296"><ele>116.0</ele><time>2026-04-07T17:00:27.001Z</time></trkpt><trkpt lat="45.30997506158285" lon="8.743092703350149"><ele>115.99999999999999</ele><time>2026-04-07T17:00:29.001Z</time></trkpt><trkpt lat="45.30994863736301" lon="8.742981940857998"><ele>116.0</ele><time>2026-04-07T17:00:31.001Z</time></trkpt><trkpt lat="45.30993427461434" lon="8.742864671908839"><ele>115.99999999999999</ele><time>2026-04-07T17:00:33.001Z</time></trkpt><trkpt lat="45.309913291949236" lon="8.742749174882935"><ele>116.0</ele><time>2026-04-07T17:00:35.001Z</time></trkpt><trkpt lat="45.3098889069321" lon="8.742630796231996"><ele>116.0</ele><time>2026-04-07T17:00:37.001Z</time></trkpt><trkpt lat="45.309868455655796" lon="8.742519569868282"><ele>116.0</ele><time>2026-04-07T17:00:39.001Z</time></trkpt><trkpt lat="45.309918346808914" lon="8.742424513821838"><ele>115.99999999999999</ele><time>2026-04-07T17:00:41.001Z</time></trkpt><trkpt lat="45.3100148427333" lon="8.742390003605324"><ele>116.0</ele><time>2026-04-07T17:00:43.001Z</time></trkpt><trkpt lat="45.3101014558652" lon="8.742344541994697"><ele>115.8</ele><time>2026-04-07T17:00:45.001Z</time></trkpt><trkpt lat="45.31018798596158" lon="8.742284961097655"><ele>115.6</ele><time>2026-04-07T17:00:47.001Z</time></trkpt><trkpt lat="45.31027465081059" lon="8.74223100840616"><ele>115.4</ele><time>2026-04-07T17:00:49.001Z</time></trkpt><trkpt lat="45.31036457869604" lon="8.742179163728728"><ele>115.2</ele><time>2026-04-07T17:00:51.001Z</time></trkpt><trkpt lat="45.31045538074289" lon="8.742129879010959"><ele>115.0</ele><time>2026-04-07T17:00:53.001Z</time></trkpt><trkpt lat="45.31054859641652" lon="8.742106582109823"><ele>115.4</ele><time>2026-04-07T17:00:55.001Z</time></trkpt><trkpt lat="45.31064191739258" lon="8.742090135694083"><ele>115.8</ele><time>2026-04-07T17:00:57.001Z</time></trkpt><trkpt lat="45.31073553960749" lon="8.742074704371893"><ele>116.19999999999999</ele><time>2026-04-07T17:00:59.001Z</time></trkpt><trkpt lat="45.31082470865188" lon="8.742071822531388"><ele>116.6</ele><time>2026-04-07T17:01:01.001Z</time></trkpt><trkpt lat="45.31091796570694" lon="8.742085449976196"><ele>117.0</ele><time>2026-04-07T17:01:03.001Z</time></trkpt><trkpt lat="45.31101311034256" lon="8.742102321573405"><ele>117.0</ele><time>2026-04-07T17:01:05.001Z</time></trkpt><trkpt lat="45.31111022431809" lon="8.74212378557499"><ele>116.99999999999999</ele><time>2026-04-07T17:01:07.001Z</time></trkpt><trkpt lat="45.31120792125573" lon="8.742150688151805"><ele>116.99999999999999</ele><time>2026-04-07T17:01:09.001Z</time></trkpt><trkpt lat="45.31130614861287" lon="8.742189267390273"><ele>117.0</ele><time>2026-04-07T17:01:11.001Z</time></trkpt><trkpt lat="45.31140419821152" lon="8.742231741591752"><ele>117.0</ele><time>2026-04-07T17:01:13.001Z</time></trkpt><trkpt lat="45.31150402187118" lon="8.742261669406485"><ele>116.6</ele><time>2026-04-07T17:01:15.001Z</time></trkpt><trkpt lat="45.31160326671033" lon="8.74228386807309"><ele>116.19999999999999</ele><time>2026-04-07T17:01:17.001Z</time></trkpt><trkpt lat="45.31170038565925" lon="8.74228033909253"><ele>115.8</ele><time>2026-04-07T17:01:19.001Z</time></trkpt><trkpt lat="45.3117979539981" lon="8.742268514656784"><ele>115.4</ele><time>2026-04-07T17:01:21.001Z</time></trkpt><trkpt lat="45.31189266073765" lon="8.742256148345714"><ele>115.0</ele><time>2026-04-07T17:01:23.001Z</time></trkpt><trkpt lat="45.31198855753111" lon="8.742243664904173"><ele>115.0</ele><time>2026-04-07T17:01:25.001Z</time></trkpt><trkpt lat="45.312085823788365" lon="8.742236584947458"><ele>115.0</ele><time>2026-04-07T17:01:27.001Z</time></trkpt><trkpt lat="45.31218388786169" lon="8.742212315043727"><ele>115.0</ele><time>2026-04-07T17:01:29.001Z</time></trkpt><trkpt lat="45.31228104013188" lon="8.742192339365022"><ele>115.0</ele><time>2026-04-07T17:01:31.001Z</time></trkpt><trkpt lat="45.312374157551425" lon="8.742170777610426"><ele>115.0</ele><time>2026-04-07T17:01:33.001Z</time></trkpt><trkpt lat="45.312471650244674" lon="8.742136655339904"><ele>115.2</ele><time>2026-04-07T17:01:35.001Z</time></trkpt><trkpt lat="45.312567289581565" lon="8.742096951144397"><ele>115.4</ele><time>2026-04-07T17:01:37.001Z</time></trkpt><trkpt lat="45.312663456544065" lon="8.742055885610396"><ele>115.6</ele><time>2026-04-07T17:01:39.001Z</time></trkpt><trkpt lat="45.312759152798634" lon="8.742009348816037"><ele>115.8</ele><time>2026-04-07T17:01:41.001Z</time></trkpt><trkpt lat="45.31284872950455" lon="8.741944658719065"><ele>116.0</ele><time>2026-04-07T17:01:43.001Z</time></trkpt><trkpt lat="45.31294824413293" lon="8.741890856699976"><ele>116.0</ele><time>2026-04-07T17:01:45.001Z</time></trkpt><trkpt lat="45.31304672296242" lon="8.741830291843472"><ele>116.0</ele><time>2026-04-07T17:01:47.001Z</time></trkpt><trkpt lat="45.31314852174034" lon="8.741827763852738"><ele>116.0</ele><time>2026-04-07T17:01:49.001Z</time></trkpt><trkpt lat="45.313239213187046" lon="8.741898694002085"><ele>116.0</ele><time>2026-04-07T17:01:51Z</time></trkpt><trkpt lat="45.31327625418936" lon="8.742042188482426"><ele>116.0</ele><time>2026-04-07T17:01:53Z</time></trkpt><trkpt lat="45.31330170083918" lon="8.742183741103888"><ele>116.0</ele><time>2026-04-07T17:01:55Z</time></trkpt><trkpt lat="45.313340592431906" lon="8.742317950453042"><ele>116.0</ele><time>2026-04-07T17:01:57Z</time></trkpt><trkpt lat="45.313376066565795" lon="8.742447601451152"><ele>116.0</ele><time>2026-04-07T17:01:59Z</time></trkpt><trkpt lat="45.313414089671895" lon="8.742571624304455"><ele>116.0</ele><time>2026-04-07T17:02:01Z</time></trkpt><trkpt lat="45.31345090617441" lon="8.74269273252108"><ele>116.0</ele><time>2026-04-07T17:02:03Z</time></trkpt><trkpt lat="45.313491119958535" lon="8.74280662910621"><ele>115.0</ele><time>2026-04-07T17:02:05Z</time></trkpt><trkpt lat="45.31355028826364" lon="8.742892707080063"><ele>115.0</ele><time>2026-04-07T17:02:07Z</time></trkpt><trkpt lat="45.31358536773674" lon="8.74301138583457"><ele>115.0</ele><time>2026-04-07T17:02:10Z</time></trkpt><trkpt lat="45.31365105083405" lon="8.743029046491904"><ele>115.0</ele><time>2026-04-07T17:02:15Z</time></trkpt><trkpt lat="45.313719151349765" lon="8.743003502257395"><ele>115.0</ele><time>2026-04-07T17:02:31.001Z</time></trkpt></trkseg></trk></gpx>